<?xml version="1.0" encoding="UTF-8" standalone="no" ?>
<gpx xmlns="http://www.topografix.com/GPX/1/1" xmlns:xsi="http://www.w3.org/2001/XMLSchema-instance" xsi:schemaLocation="http://www.topografix.com/GPX/1/1 http://www.topografix.com/GPX/1/1/gpx.xsd" version="1.1" creator="VisuGPX - https://www.visugpx.com">
  <metadata>
    <name>Croix de Chamrousse depuis casserousse</name>
  </metadata>
  <trk>
    <name><![CDATA[Croix de Chamrousse depuis casserousse]]></name>
    <extensions>
      <line xmlns="http://www.topografix.com/GPX/gpx_style/0/2">
        <color>0000FF</color>
        <width>4</width>
      </line>
    </extensions>
    <trkseg>
      <trkpt lat="45.14026" lon="5.88758">
        <ele>1419.794</ele>
        <time>2021-02-07T08:37:49Z</time>
      </trkpt>
      <trkpt lat="45.14023" lon="5.8876">
        <ele>1414.819</ele>
        <time>2021-02-07T08:37:54Z</time>
      </trkpt>
      <trkpt lat="45.14024" lon="5.88767">
        <ele>1416.652</ele>
        <time>2021-02-07T08:37:59Z</time>
      </trkpt>
      <trkpt lat="45.14026" lon="5.88764">
        <ele>1421.127</ele>
        <time>2021-02-07T08:38:04Z</time>
      </trkpt>
      <trkpt lat="45.14026" lon="5.88763">
        <ele>1423.631</ele>
        <time>2021-02-07T08:38:09Z</time>
      </trkpt>
      <trkpt lat="45.14025" lon="5.88764">
        <ele>1423.212</ele>
        <time>2021-02-07T08:38:14Z</time>
      </trkpt>
      <trkpt lat="45.14026" lon="5.88763">
        <ele>1427.064</ele>
        <time>2021-02-07T08:38:19Z</time>
      </trkpt>
      <trkpt lat="45.1402" lon="5.88765">
        <ele>1422.582</ele>
        <time>2021-02-07T08:38:24Z</time>
      </trkpt>
      <trkpt lat="45.14014" lon="5.88767">
        <ele>1419.739</ele>
        <time>2021-02-07T08:38:29Z</time>
      </trkpt>
      <trkpt lat="45.14008" lon="5.88769">
        <ele>1419.275</ele>
        <time>2021-02-07T08:38:34Z</time>
      </trkpt>
      <trkpt lat="45.14003" lon="5.8877">
        <ele>1418.665</ele>
        <time>2021-02-07T08:38:39Z</time>
      </trkpt>
      <trkpt lat="45.13999" lon="5.88769">
        <ele>1417.369</ele>
        <time>2021-02-07T08:38:44Z</time>
      </trkpt>
      <trkpt lat="45.13995" lon="5.8877">
        <ele>1417.281</ele>
        <time>2021-02-07T08:38:49Z</time>
      </trkpt>
      <trkpt lat="45.13992" lon="5.88771">
        <ele>1416.828</ele>
        <time>2021-02-07T08:38:54Z</time>
      </trkpt>
      <trkpt lat="45.13989" lon="5.88771">
        <ele>1418.372</ele>
        <time>2021-02-07T08:38:59Z</time>
      </trkpt>
      <trkpt lat="45.13987" lon="5.88771">
        <ele>1419.375</ele>
        <time>2021-02-07T08:39:04Z</time>
      </trkpt>
      <trkpt lat="45.13986" lon="5.88771">
        <ele>1419.512</ele>
        <time>2021-02-07T08:39:10Z</time>
      </trkpt>
      <trkpt lat="45.13979" lon="5.88771">
        <ele>1418.914</ele>
        <time>2021-02-07T08:39:19Z</time>
      </trkpt>
      <trkpt lat="45.13973" lon="5.8877">
        <ele>1418.707</ele>
        <time>2021-02-07T08:39:24Z</time>
      </trkpt>
      <trkpt lat="45.1397" lon="5.88769">
        <ele>1418.899</ele>
        <time>2021-02-07T08:39:29Z</time>
      </trkpt>
      <trkpt lat="45.13967" lon="5.88769">
        <ele>1419.37</ele>
        <time>2021-02-07T08:39:34Z</time>
      </trkpt>
      <trkpt lat="45.13963" lon="5.8877">
        <ele>1418.872</ele>
        <time>2021-02-07T08:39:39Z</time>
      </trkpt>
      <trkpt lat="45.1396" lon="5.8877">
        <ele>1420.139</ele>
        <time>2021-02-07T08:39:44Z</time>
      </trkpt>
      <trkpt lat="45.13956" lon="5.8877">
        <ele>1420.694</ele>
        <time>2021-02-07T08:39:49Z</time>
      </trkpt>
      <trkpt lat="45.13952" lon="5.88771">
        <ele>1421.246</ele>
        <time>2021-02-07T08:39:54Z</time>
      </trkpt>
      <trkpt lat="45.13949" lon="5.88772">
        <ele>1422.633</ele>
        <time>2021-02-07T08:39:59Z</time>
      </trkpt>
      <trkpt lat="45.13946" lon="5.88772">
        <ele>1423.179</ele>
        <time>2021-02-07T08:40:04Z</time>
      </trkpt>
      <trkpt lat="45.13942" lon="5.88773">
        <ele>1424.846</ele>
        <time>2021-02-07T08:40:09Z</time>
      </trkpt>
      <trkpt lat="45.13939" lon="5.88773">
        <ele>1424.64</ele>
        <time>2021-02-07T08:40:14Z</time>
      </trkpt>
      <trkpt lat="45.13936" lon="5.88773">
        <ele>1425.469</ele>
        <time>2021-02-07T08:40:19Z</time>
      </trkpt>
      <trkpt lat="45.13933" lon="5.88775">
        <ele>1425.588</ele>
        <time>2021-02-07T08:40:24Z</time>
      </trkpt>
      <trkpt lat="45.13929" lon="5.88776">
        <ele>1426.657</ele>
        <time>2021-02-07T08:40:29Z</time>
      </trkpt>
      <trkpt lat="45.13925" lon="5.88777">
        <ele>1425.321</ele>
        <time>2021-02-07T08:40:34Z</time>
      </trkpt>
      <trkpt lat="45.13923" lon="5.88778">
        <ele>1426.666</ele>
        <time>2021-02-07T08:40:39Z</time>
      </trkpt>
      <trkpt lat="45.1392" lon="5.88779">
        <ele>1428.361</ele>
        <time>2021-02-07T08:40:44Z</time>
      </trkpt>
      <trkpt lat="45.13917" lon="5.88779">
        <ele>1430.063</ele>
        <time>2021-02-07T08:40:49Z</time>
      </trkpt>
      <trkpt lat="45.13913" lon="5.8878">
        <ele>1430.023</ele>
        <time>2021-02-07T08:40:54Z</time>
      </trkpt>
      <trkpt lat="45.1391" lon="5.88781">
        <ele>1430.609</ele>
        <time>2021-02-07T08:40:59Z</time>
      </trkpt>
      <trkpt lat="45.13906" lon="5.88782">
        <ele>1431.328</ele>
        <time>2021-02-07T08:41:04Z</time>
      </trkpt>
      <trkpt lat="45.13902" lon="5.88783">
        <ele>1430.688</ele>
        <time>2021-02-07T08:41:09Z</time>
      </trkpt>
      <trkpt lat="45.139" lon="5.88785">
        <ele>1431.472</ele>
        <time>2021-02-07T08:41:14Z</time>
      </trkpt>
      <trkpt lat="45.13897" lon="5.88786">
        <ele>1432.243</ele>
        <time>2021-02-07T08:41:19Z</time>
      </trkpt>
      <trkpt lat="45.13893" lon="5.88785">
        <ele>1433.443</ele>
        <time>2021-02-07T08:41:24Z</time>
      </trkpt>
      <trkpt lat="45.1389" lon="5.88783">
        <ele>1433.849</ele>
        <time>2021-02-07T08:41:29Z</time>
      </trkpt>
      <trkpt lat="45.13887" lon="5.88781">
        <ele>1433.601</ele>
        <time>2021-02-07T08:41:34Z</time>
      </trkpt>
      <trkpt lat="45.13884" lon="5.8878">
        <ele>1434.795</ele>
        <time>2021-02-07T08:41:39Z</time>
      </trkpt>
      <trkpt lat="45.13881" lon="5.88781">
        <ele>1434.332</ele>
        <time>2021-02-07T08:41:44Z</time>
      </trkpt>
      <trkpt lat="45.13878" lon="5.88779">
        <ele>1435.44</ele>
        <time>2021-02-07T08:41:49Z</time>
      </trkpt>
      <trkpt lat="45.13876" lon="5.88778">
        <ele>1436.874</ele>
        <time>2021-02-07T08:41:54Z</time>
      </trkpt>
      <trkpt lat="45.13873" lon="5.88779">
        <ele>1438.404</ele>
        <time>2021-02-07T08:41:59Z</time>
      </trkpt>
      <trkpt lat="45.13871" lon="5.88779">
        <ele>1438.661</ele>
        <time>2021-02-07T08:42:04Z</time>
      </trkpt>
      <trkpt lat="45.13868" lon="5.88779">
        <ele>1439.338</ele>
        <time>2021-02-07T08:42:09Z</time>
      </trkpt>
      <trkpt lat="45.13864" lon="5.88779">
        <ele>1441.4</ele>
        <time>2021-02-07T08:42:14Z</time>
      </trkpt>
      <trkpt lat="45.1386" lon="5.88779">
        <ele>1441.353</ele>
        <time>2021-02-07T08:42:19Z</time>
      </trkpt>
      <trkpt lat="45.13857" lon="5.8878">
        <ele>1441.896</ele>
        <time>2021-02-07T08:42:24Z</time>
      </trkpt>
      <trkpt lat="45.13851" lon="5.88778">
        <ele>1442.656</ele>
        <time>2021-02-07T08:42:29Z</time>
      </trkpt>
      <trkpt lat="45.13848" lon="5.88778">
        <ele>1441.598</ele>
        <time>2021-02-07T08:42:34Z</time>
      </trkpt>
      <trkpt lat="45.13845" lon="5.88777">
        <ele>1442.146</ele>
        <time>2021-02-07T08:42:39Z</time>
      </trkpt>
      <trkpt lat="45.13842" lon="5.88775">
        <ele>1444.286</ele>
        <time>2021-02-07T08:42:44Z</time>
      </trkpt>
      <trkpt lat="45.13838" lon="5.88773">
        <ele>1445.147</ele>
        <time>2021-02-07T08:42:49Z</time>
      </trkpt>
      <trkpt lat="45.13836" lon="5.88772">
        <ele>1443.897</ele>
        <time>2021-02-07T08:42:54Z</time>
      </trkpt>
      <trkpt lat="45.13832" lon="5.88773">
        <ele>1444.337</ele>
        <time>2021-02-07T08:42:59Z</time>
      </trkpt>
      <trkpt lat="45.13829" lon="5.88772">
        <ele>1445.281</ele>
        <time>2021-02-07T08:43:04Z</time>
      </trkpt>
      <trkpt lat="45.13826" lon="5.88771">
        <ele>1447.526</ele>
        <time>2021-02-07T08:43:09Z</time>
      </trkpt>
      <trkpt lat="45.13824" lon="5.88772">
        <ele>1448.994</ele>
        <time>2021-02-07T08:43:14Z</time>
      </trkpt>
      <trkpt lat="45.13822" lon="5.88773">
        <ele>1449.288</ele>
        <time>2021-02-07T08:43:19Z</time>
      </trkpt>
      <trkpt lat="45.13819" lon="5.88771">
        <ele>1449.622</ele>
        <time>2021-02-07T08:43:24Z</time>
      </trkpt>
      <trkpt lat="45.13817" lon="5.88771">
        <ele>1450.873</ele>
        <time>2021-02-07T08:43:29Z</time>
      </trkpt>
      <trkpt lat="45.13815" lon="5.88771">
        <ele>1456.572</ele>
        <time>2021-02-07T08:43:34Z</time>
      </trkpt>
      <trkpt lat="45.13814" lon="5.88771">
        <ele>1456.558</ele>
        <time>2021-02-07T08:43:39Z</time>
      </trkpt>
      <trkpt lat="45.13812" lon="5.88771">
        <ele>1457.679</ele>
        <time>2021-02-07T08:43:44Z</time>
      </trkpt>
      <trkpt lat="45.1381" lon="5.88771">
        <ele>1457.895</ele>
        <time>2021-02-07T08:43:49Z</time>
      </trkpt>
      <trkpt lat="45.13807" lon="5.88771">
        <ele>1458.457</ele>
        <time>2021-02-07T08:43:54Z</time>
      </trkpt>
      <trkpt lat="45.13806" lon="5.88773">
        <ele>1458.688</ele>
        <time>2021-02-07T08:43:59Z</time>
      </trkpt>
      <trkpt lat="45.13804" lon="5.88773">
        <ele>1459.886</ele>
        <time>2021-02-07T08:44:04Z</time>
      </trkpt>
      <trkpt lat="45.13801" lon="5.88771">
        <ele>1460.657</ele>
        <time>2021-02-07T08:44:09Z</time>
      </trkpt>
      <trkpt lat="45.13798" lon="5.88771">
        <ele>1461.796</ele>
        <time>2021-02-07T08:44:14Z</time>
      </trkpt>
      <trkpt lat="45.13795" lon="5.88773">
        <ele>1462.572</ele>
        <time>2021-02-07T08:44:19Z</time>
      </trkpt>
      <trkpt lat="45.13793" lon="5.88774">
        <ele>1461.622</ele>
        <time>2021-02-07T08:44:24Z</time>
      </trkpt>
      <trkpt lat="45.13788" lon="5.88772">
        <ele>1459.451</ele>
        <time>2021-02-07T08:44:29Z</time>
      </trkpt>
      <trkpt lat="45.13787" lon="5.88771">
        <ele>1461.807</ele>
        <time>2021-02-07T08:44:34Z</time>
      </trkpt>
      <trkpt lat="45.13784" lon="5.8877">
        <ele>1463.404</ele>
        <time>2021-02-07T08:44:39Z</time>
      </trkpt>
      <trkpt lat="45.13781" lon="5.8877">
        <ele>1464.505</ele>
        <time>2021-02-07T08:44:44Z</time>
      </trkpt>
      <trkpt lat="45.1378" lon="5.88771">
        <ele>1466.463</ele>
        <time>2021-02-07T08:44:49Z</time>
      </trkpt>
      <trkpt lat="45.13779" lon="5.88771">
        <ele>1467.489</ele>
        <time>2021-02-07T08:44:54Z</time>
      </trkpt>
      <trkpt lat="45.13776" lon="5.88769">
        <ele>1469.574</ele>
        <time>2021-02-07T08:44:59Z</time>
      </trkpt>
      <trkpt lat="45.13775" lon="5.88769">
        <ele>1469.705</ele>
        <time>2021-02-07T08:45:04Z</time>
      </trkpt>
      <trkpt lat="45.13773" lon="5.88769">
        <ele>1470.483</ele>
        <time>2021-02-07T08:45:09Z</time>
      </trkpt>
      <trkpt lat="45.13771" lon="5.88769">
        <ele>1474.125</ele>
        <time>2021-02-07T08:45:14Z</time>
      </trkpt>
      <trkpt lat="45.13768" lon="5.88769">
        <ele>1475.068</ele>
        <time>2021-02-07T08:45:29Z</time>
      </trkpt>
      <trkpt lat="45.13765" lon="5.88769">
        <ele>1472.605</ele>
        <time>2021-02-07T08:45:34Z</time>
      </trkpt>
      <trkpt lat="45.13764" lon="5.88772">
        <ele>1475.546</ele>
        <time>2021-02-07T08:45:39Z</time>
      </trkpt>
      <trkpt lat="45.13763" lon="5.88772">
        <ele>1475.208</ele>
        <time>2021-02-07T08:45:49Z</time>
      </trkpt>
      <trkpt lat="45.1376" lon="5.88772">
        <ele>1477.036</ele>
        <time>2021-02-07T08:45:54Z</time>
      </trkpt>
      <trkpt lat="45.13757" lon="5.88772">
        <ele>1476.726</ele>
        <time>2021-02-07T08:45:59Z</time>
      </trkpt>
      <trkpt lat="45.13755" lon="5.88773">
        <ele>1476.983</ele>
        <time>2021-02-07T08:46:04Z</time>
      </trkpt>
      <trkpt lat="45.13752" lon="5.88773">
        <ele>1477.616</ele>
        <time>2021-02-07T08:46:09Z</time>
      </trkpt>
      <trkpt lat="45.13749" lon="5.88772">
        <ele>1479.267</ele>
        <time>2021-02-07T08:46:14Z</time>
      </trkpt>
      <trkpt lat="45.13747" lon="5.88773">
        <ele>1479.785</ele>
        <time>2021-02-07T08:46:19Z</time>
      </trkpt>
      <trkpt lat="45.13744" lon="5.88772">
        <ele>1478.716</ele>
        <time>2021-02-07T08:46:24Z</time>
      </trkpt>
      <trkpt lat="45.13741" lon="5.88772">
        <ele>1477.878</ele>
        <time>2021-02-07T08:46:29Z</time>
      </trkpt>
      <trkpt lat="45.13739" lon="5.88771">
        <ele>1478.916</ele>
        <time>2021-02-07T08:46:34Z</time>
      </trkpt>
      <trkpt lat="45.13736" lon="5.8877">
        <ele>1479.682</ele>
        <time>2021-02-07T08:46:39Z</time>
      </trkpt>
      <trkpt lat="45.13734" lon="5.88768">
        <ele>1480.219</ele>
        <time>2021-02-07T08:46:44Z</time>
      </trkpt>
      <trkpt lat="45.13733" lon="5.88768">
        <ele>1481.629</ele>
        <time>2021-02-07T08:46:49Z</time>
      </trkpt>
      <trkpt lat="45.13731" lon="5.88768">
        <ele>1482.865</ele>
        <time>2021-02-07T08:46:54Z</time>
      </trkpt>
      <trkpt lat="45.13729" lon="5.88767">
        <ele>1484.677</ele>
        <time>2021-02-07T08:46:59Z</time>
      </trkpt>
      <trkpt lat="45.13727" lon="5.88767">
        <ele>1487.362</ele>
        <time>2021-02-07T08:47:04Z</time>
      </trkpt>
      <trkpt lat="45.13725" lon="5.88767">
        <ele>1488.259</ele>
        <time>2021-02-07T08:47:09Z</time>
      </trkpt>
      <trkpt lat="45.13723" lon="5.88766">
        <ele>1489.818</ele>
        <time>2021-02-07T08:47:14Z</time>
      </trkpt>
      <trkpt lat="45.13722" lon="5.88768">
        <ele>1489.779</ele>
        <time>2021-02-07T08:47:19Z</time>
      </trkpt>
      <trkpt lat="45.13719" lon="5.88769">
        <ele>1489.083</ele>
        <time>2021-02-07T08:47:24Z</time>
      </trkpt>
      <trkpt lat="45.13717" lon="5.88769">
        <ele>1491.352</ele>
        <time>2021-02-07T08:47:29Z</time>
      </trkpt>
      <trkpt lat="45.13714" lon="5.88768">
        <ele>1493.756</ele>
        <time>2021-02-07T08:47:34Z</time>
      </trkpt>
      <trkpt lat="45.1371" lon="5.88767">
        <ele>1493.536</ele>
        <time>2021-02-07T08:47:39Z</time>
      </trkpt>
      <trkpt lat="45.13708" lon="5.88767">
        <ele>1492.339</ele>
        <time>2021-02-07T08:47:44Z</time>
      </trkpt>
      <trkpt lat="45.13706" lon="5.88768">
        <ele>1493.597</ele>
        <time>2021-02-07T08:47:49Z</time>
      </trkpt>
      <trkpt lat="45.13703" lon="5.88768">
        <ele>1495.551</ele>
        <time>2021-02-07T08:47:54Z</time>
      </trkpt>
      <trkpt lat="45.13701" lon="5.88768">
        <ele>1495.569</ele>
        <time>2021-02-07T08:47:59Z</time>
      </trkpt>
      <trkpt lat="45.13698" lon="5.88768">
        <ele>1495.732</ele>
        <time>2021-02-07T08:48:04Z</time>
      </trkpt>
      <trkpt lat="45.13694" lon="5.88768">
        <ele>1497.042</ele>
        <time>2021-02-07T08:48:09Z</time>
      </trkpt>
      <trkpt lat="45.13691" lon="5.88768">
        <ele>1497.47</ele>
        <time>2021-02-07T08:48:14Z</time>
      </trkpt>
      <trkpt lat="45.13688" lon="5.88767">
        <ele>1497.923</ele>
        <time>2021-02-07T08:48:19Z</time>
      </trkpt>
      <trkpt lat="45.13685" lon="5.88768">
        <ele>1499.159</ele>
        <time>2021-02-07T08:48:24Z</time>
      </trkpt>
      <trkpt lat="45.13683" lon="5.88768">
        <ele>1498.925</ele>
        <time>2021-02-07T08:48:29Z</time>
      </trkpt>
      <trkpt lat="45.1368" lon="5.8877">
        <ele>1500.339</ele>
        <time>2021-02-07T08:48:34Z</time>
      </trkpt>
      <trkpt lat="45.13677" lon="5.8877">
        <ele>1500.854</ele>
        <time>2021-02-07T08:48:39Z</time>
      </trkpt>
      <trkpt lat="45.13674" lon="5.88769">
        <ele>1502.278</ele>
        <time>2021-02-07T08:48:44Z</time>
      </trkpt>
      <trkpt lat="45.13671" lon="5.88768">
        <ele>1502.788</ele>
        <time>2021-02-07T08:48:49Z</time>
      </trkpt>
      <trkpt lat="45.13668" lon="5.88769">
        <ele>1503.799</ele>
        <time>2021-02-07T08:48:54Z</time>
      </trkpt>
      <trkpt lat="45.13664" lon="5.88768">
        <ele>1504.669</ele>
        <time>2021-02-07T08:48:59Z</time>
      </trkpt>
      <trkpt lat="45.13662" lon="5.8877">
        <ele>1505.876</ele>
        <time>2021-02-07T08:49:04Z</time>
      </trkpt>
      <trkpt lat="45.13659" lon="5.88769">
        <ele>1506.894</ele>
        <time>2021-02-07T08:49:09Z</time>
      </trkpt>
      <trkpt lat="45.13655" lon="5.88769">
        <ele>1506.41</ele>
        <time>2021-02-07T08:49:14Z</time>
      </trkpt>
      <trkpt lat="45.13652" lon="5.88769">
        <ele>1505.935</ele>
        <time>2021-02-07T08:49:19Z</time>
      </trkpt>
      <trkpt lat="45.13649" lon="5.8877">
        <ele>1507.303</ele>
        <time>2021-02-07T08:49:24Z</time>
      </trkpt>
      <trkpt lat="45.13646" lon="5.88771">
        <ele>1508.92</ele>
        <time>2021-02-07T08:49:29Z</time>
      </trkpt>
      <trkpt lat="45.13643" lon="5.88771">
        <ele>1509.611</ele>
        <time>2021-02-07T08:49:34Z</time>
      </trkpt>
      <trkpt lat="45.13641" lon="5.88771">
        <ele>1509.47</ele>
        <time>2021-02-07T08:49:39Z</time>
      </trkpt>
      <trkpt lat="45.13638" lon="5.88771">
        <ele>1510.082</ele>
        <time>2021-02-07T08:49:44Z</time>
      </trkpt>
      <trkpt lat="45.13635" lon="5.88772">
        <ele>1509.283</ele>
        <time>2021-02-07T08:49:49Z</time>
      </trkpt>
      <trkpt lat="45.13633" lon="5.88772">
        <ele>1510.743</ele>
        <time>2021-02-07T08:49:54Z</time>
      </trkpt>
      <trkpt lat="45.1363" lon="5.88772">
        <ele>1511.373</ele>
        <time>2021-02-07T08:49:59Z</time>
      </trkpt>
      <trkpt lat="45.13628" lon="5.88771">
        <ele>1512.021</ele>
        <time>2021-02-07T08:50:04Z</time>
      </trkpt>
      <trkpt lat="45.13625" lon="5.8877">
        <ele>1512.39</ele>
        <time>2021-02-07T08:50:09Z</time>
      </trkpt>
      <trkpt lat="45.13622" lon="5.88771">
        <ele>1512.538</ele>
        <time>2021-02-07T08:50:14Z</time>
      </trkpt>
      <trkpt lat="45.13618" lon="5.88772">
        <ele>1512.316</ele>
        <time>2021-02-07T08:50:19Z</time>
      </trkpt>
      <trkpt lat="45.13615" lon="5.88772">
        <ele>1514.172</ele>
        <time>2021-02-07T08:50:24Z</time>
      </trkpt>
      <trkpt lat="45.13612" lon="5.88773">
        <ele>1514.847</ele>
        <time>2021-02-07T08:50:29Z</time>
      </trkpt>
      <trkpt lat="45.1361" lon="5.88774">
        <ele>1516.209</ele>
        <time>2021-02-07T08:50:34Z</time>
      </trkpt>
      <trkpt lat="45.13607" lon="5.88773">
        <ele>1517.532</ele>
        <time>2021-02-07T08:50:39Z</time>
      </trkpt>
      <trkpt lat="45.13604" lon="5.88772">
        <ele>1517.098</ele>
        <time>2021-02-07T08:50:44Z</time>
      </trkpt>
      <trkpt lat="45.13602" lon="5.88774">
        <ele>1518.206</ele>
        <time>2021-02-07T08:50:49Z</time>
      </trkpt>
      <trkpt lat="45.136" lon="5.88774">
        <ele>1518.172</ele>
        <time>2021-02-07T08:50:54Z</time>
      </trkpt>
      <trkpt lat="45.13598" lon="5.88775">
        <ele>1522.044</ele>
        <time>2021-02-07T08:50:59Z</time>
      </trkpt>
      <trkpt lat="45.13595" lon="5.88773">
        <ele>1522.023</ele>
        <time>2021-02-07T08:51:04Z</time>
      </trkpt>
      <trkpt lat="45.13591" lon="5.88774">
        <ele>1522.989</ele>
        <time>2021-02-07T08:51:09Z</time>
      </trkpt>
      <trkpt lat="45.13589" lon="5.88774">
        <ele>1525.198</ele>
        <time>2021-02-07T08:51:14Z</time>
      </trkpt>
      <trkpt lat="45.13587" lon="5.88773">
        <ele>1526.731</ele>
        <time>2021-02-07T08:51:19Z</time>
      </trkpt>
      <trkpt lat="45.13585" lon="5.88774">
        <ele>1527.565</ele>
        <time>2021-02-07T08:51:24Z</time>
      </trkpt>
      <trkpt lat="45.13583" lon="5.88773">
        <ele>1528.696</ele>
        <time>2021-02-07T08:51:29Z</time>
      </trkpt>
      <trkpt lat="45.1358" lon="5.88772">
        <ele>1529.145</ele>
        <time>2021-02-07T08:51:34Z</time>
      </trkpt>
      <trkpt lat="45.13577" lon="5.88772">
        <ele>1529.549</ele>
        <time>2021-02-07T08:51:39Z</time>
      </trkpt>
      <trkpt lat="45.13575" lon="5.88772">
        <ele>1529.295</ele>
        <time>2021-02-07T08:51:44Z</time>
      </trkpt>
      <trkpt lat="45.13572" lon="5.88772">
        <ele>1530.793</ele>
        <time>2021-02-07T08:51:49Z</time>
      </trkpt>
      <trkpt lat="45.13569" lon="5.88771">
        <ele>1531.334</ele>
        <time>2021-02-07T08:51:54Z</time>
      </trkpt>
      <trkpt lat="45.13565" lon="5.8877">
        <ele>1531.538</ele>
        <time>2021-02-07T08:51:59Z</time>
      </trkpt>
      <trkpt lat="45.13564" lon="5.88771">
        <ele>1532.234</ele>
        <time>2021-02-07T08:52:04Z</time>
      </trkpt>
      <trkpt lat="45.13562" lon="5.8877">
        <ele>1533.314</ele>
        <time>2021-02-07T08:52:09Z</time>
      </trkpt>
      <trkpt lat="45.1356" lon="5.88769">
        <ele>1532.865</ele>
        <time>2021-02-07T08:52:14Z</time>
      </trkpt>
      <trkpt lat="45.13558" lon="5.88769">
        <ele>1535.054</ele>
        <time>2021-02-07T08:52:19Z</time>
      </trkpt>
      <trkpt lat="45.13555" lon="5.88769">
        <ele>1536.153</ele>
        <time>2021-02-07T08:52:24Z</time>
      </trkpt>
      <trkpt lat="45.13553" lon="5.8877">
        <ele>1536.545</ele>
        <time>2021-02-07T08:52:29Z</time>
      </trkpt>
      <trkpt lat="45.13551" lon="5.88769">
        <ele>1537.628</ele>
        <time>2021-02-07T08:52:34Z</time>
      </trkpt>
      <trkpt lat="45.13549" lon="5.88769">
        <ele>1537.887</ele>
        <time>2021-02-07T08:52:39Z</time>
      </trkpt>
      <trkpt lat="45.13546" lon="5.88767">
        <ele>1537.637</ele>
        <time>2021-02-07T08:52:44Z</time>
      </trkpt>
      <trkpt lat="45.13544" lon="5.88766">
        <ele>1538.459</ele>
        <time>2021-02-07T08:52:49Z</time>
      </trkpt>
      <trkpt lat="45.13541" lon="5.88765">
        <ele>1538.229</ele>
        <time>2021-02-07T08:52:54Z</time>
      </trkpt>
      <trkpt lat="45.13539" lon="5.88764">
        <ele>1538.144</ele>
        <time>2021-02-07T08:52:59Z</time>
      </trkpt>
      <trkpt lat="45.13537" lon="5.88763">
        <ele>1538.837</ele>
        <time>2021-02-07T08:53:04Z</time>
      </trkpt>
      <trkpt lat="45.13535" lon="5.88762">
        <ele>1539.61</ele>
        <time>2021-02-07T08:53:09Z</time>
      </trkpt>
      <trkpt lat="45.13532" lon="5.88763">
        <ele>1540.282</ele>
        <time>2021-02-07T08:53:14Z</time>
      </trkpt>
      <trkpt lat="45.1353" lon="5.88764">
        <ele>1542.603</ele>
        <time>2021-02-07T08:53:19Z</time>
      </trkpt>
      <trkpt lat="45.13527" lon="5.88764">
        <ele>1541.884</ele>
        <time>2021-02-07T08:53:24Z</time>
      </trkpt>
      <trkpt lat="45.13525" lon="5.88765">
        <ele>1543.591</ele>
        <time>2021-02-07T08:53:29Z</time>
      </trkpt>
      <trkpt lat="45.13523" lon="5.88764">
        <ele>1545.277</ele>
        <time>2021-02-07T08:53:34Z</time>
      </trkpt>
      <trkpt lat="45.13519" lon="5.88764">
        <ele>1546.417</ele>
        <time>2021-02-07T08:53:39Z</time>
      </trkpt>
      <trkpt lat="45.13516" lon="5.88765">
        <ele>1546.436</ele>
        <time>2021-02-07T08:53:44Z</time>
      </trkpt>
      <trkpt lat="45.13513" lon="5.88766">
        <ele>1547.954</ele>
        <time>2021-02-07T08:53:49Z</time>
      </trkpt>
      <trkpt lat="45.13511" lon="5.88767">
        <ele>1549.628</ele>
        <time>2021-02-07T08:53:54Z</time>
      </trkpt>
      <trkpt lat="45.13507" lon="5.88767">
        <ele>1548.985</ele>
        <time>2021-02-07T08:53:59Z</time>
      </trkpt>
      <trkpt lat="45.13505" lon="5.88766">
        <ele>1550.01</ele>
        <time>2021-02-07T08:54:04Z</time>
      </trkpt>
      <trkpt lat="45.13502" lon="5.88765">
        <ele>1549.316</ele>
        <time>2021-02-07T08:54:09Z</time>
      </trkpt>
      <trkpt lat="45.135" lon="5.88765">
        <ele>1548.948</ele>
        <time>2021-02-07T08:54:14Z</time>
      </trkpt>
      <trkpt lat="45.13497" lon="5.88765">
        <ele>1550.027</ele>
        <time>2021-02-07T08:54:19Z</time>
      </trkpt>
      <trkpt lat="45.13495" lon="5.88764">
        <ele>1551.252</ele>
        <time>2021-02-07T08:54:24Z</time>
      </trkpt>
      <trkpt lat="45.13492" lon="5.88763">
        <ele>1552.435</ele>
        <time>2021-02-07T08:54:29Z</time>
      </trkpt>
      <trkpt lat="45.1349" lon="5.88761">
        <ele>1553.532</ele>
        <time>2021-02-07T08:54:34Z</time>
      </trkpt>
      <trkpt lat="45.13487" lon="5.8876">
        <ele>1553.988</ele>
        <time>2021-02-07T08:54:39Z</time>
      </trkpt>
      <trkpt lat="45.13484" lon="5.88759">
        <ele>1554.202</ele>
        <time>2021-02-07T08:54:44Z</time>
      </trkpt>
      <trkpt lat="45.13481" lon="5.8876">
        <ele>1554.891</ele>
        <time>2021-02-07T08:54:49Z</time>
      </trkpt>
      <trkpt lat="45.1348" lon="5.8876">
        <ele>1557.482</ele>
        <time>2021-02-07T08:54:54Z</time>
      </trkpt>
      <trkpt lat="45.13478" lon="5.88761">
        <ele>1557.211</ele>
        <time>2021-02-07T08:54:59Z</time>
      </trkpt>
      <trkpt lat="45.13476" lon="5.8876">
        <ele>1559.302</ele>
        <time>2021-02-07T08:55:04Z</time>
      </trkpt>
      <trkpt lat="45.13474" lon="5.8876">
        <ele>1559.516</ele>
        <time>2021-02-07T08:55:09Z</time>
      </trkpt>
      <trkpt lat="45.13471" lon="5.88758">
        <ele>1560.248</ele>
        <time>2021-02-07T08:55:14Z</time>
      </trkpt>
      <trkpt lat="45.13469" lon="5.88755">
        <ele>1561.504</ele>
        <time>2021-02-07T08:55:19Z</time>
      </trkpt>
      <trkpt lat="45.13466" lon="5.88754">
        <ele>1561.444</ele>
        <time>2021-02-07T08:55:24Z</time>
      </trkpt>
      <trkpt lat="45.13464" lon="5.88753">
        <ele>1562.129</ele>
        <time>2021-02-07T08:55:29Z</time>
      </trkpt>
      <trkpt lat="45.13461" lon="5.8875">
        <ele>1562.487</ele>
        <time>2021-02-07T08:55:34Z</time>
      </trkpt>
      <trkpt lat="45.13458" lon="5.8875">
        <ele>1563.347</ele>
        <time>2021-02-07T08:55:39Z</time>
      </trkpt>
      <trkpt lat="45.13456" lon="5.88749">
        <ele>1565.386</ele>
        <time>2021-02-07T08:55:44Z</time>
      </trkpt>
      <trkpt lat="45.13454" lon="5.88748">
        <ele>1565.757</ele>
        <time>2021-02-07T08:55:49Z</time>
      </trkpt>
      <trkpt lat="45.13452" lon="5.88748">
        <ele>1566.703</ele>
        <time>2021-02-07T08:55:54Z</time>
      </trkpt>
      <trkpt lat="45.13449" lon="5.88747">
        <ele>1567.08</ele>
        <time>2021-02-07T08:55:59Z</time>
      </trkpt>
      <trkpt lat="45.13446" lon="5.88747">
        <ele>1567.589</ele>
        <time>2021-02-07T08:56:04Z</time>
      </trkpt>
      <trkpt lat="45.13444" lon="5.88747">
        <ele>1568.095</ele>
        <time>2021-02-07T08:56:09Z</time>
      </trkpt>
      <trkpt lat="45.13442" lon="5.88746">
        <ele>1570.187</ele>
        <time>2021-02-07T08:56:14Z</time>
      </trkpt>
      <trkpt lat="45.1344" lon="5.88746">
        <ele>1570.216</ele>
        <time>2021-02-07T08:56:19Z</time>
      </trkpt>
      <trkpt lat="45.13439" lon="5.88745">
        <ele>1571.811</ele>
        <time>2021-02-07T08:56:24Z</time>
      </trkpt>
      <trkpt lat="45.13436" lon="5.88745">
        <ele>1571.793</ele>
        <time>2021-02-07T08:56:29Z</time>
      </trkpt>
      <trkpt lat="45.13433" lon="5.88744">
        <ele>1572.604</ele>
        <time>2021-02-07T08:56:34Z</time>
      </trkpt>
      <trkpt lat="45.13431" lon="5.88744">
        <ele>1573.209</ele>
        <time>2021-02-07T08:56:39Z</time>
      </trkpt>
      <trkpt lat="45.13429" lon="5.88744">
        <ele>1575.041</ele>
        <time>2021-02-07T08:56:44Z</time>
      </trkpt>
      <trkpt lat="45.13428" lon="5.88746">
        <ele>1575.428</ele>
        <time>2021-02-07T08:56:49Z</time>
      </trkpt>
      <trkpt lat="45.13425" lon="5.88745">
        <ele>1576</ele>
        <time>2021-02-07T08:56:54Z</time>
      </trkpt>
      <trkpt lat="45.13423" lon="5.88746">
        <ele>1577.872</ele>
        <time>2021-02-07T08:56:59Z</time>
      </trkpt>
      <trkpt lat="45.13422" lon="5.88746">
        <ele>1577.525</ele>
        <time>2021-02-07T08:57:04Z</time>
      </trkpt>
      <trkpt lat="45.1342" lon="5.88746">
        <ele>1579.501</ele>
        <time>2021-02-07T08:57:09Z</time>
      </trkpt>
      <trkpt lat="45.1342" lon="5.88745">
        <ele>1580.019</ele>
        <time>2021-02-07T08:57:14Z</time>
      </trkpt>
      <trkpt lat="45.13418" lon="5.88745">
        <ele>1582.632</ele>
        <time>2021-02-07T08:57:19Z</time>
      </trkpt>
      <trkpt lat="45.13416" lon="5.88745">
        <ele>1584.051</ele>
        <time>2021-02-07T08:57:24Z</time>
      </trkpt>
      <trkpt lat="45.13414" lon="5.88744">
        <ele>1585.852</ele>
        <time>2021-02-07T08:57:29Z</time>
      </trkpt>
      <trkpt lat="45.13413" lon="5.88745">
        <ele>1584.847</ele>
        <time>2021-02-07T08:57:34Z</time>
      </trkpt>
      <trkpt lat="45.13411" lon="5.88745">
        <ele>1587.965</ele>
        <time>2021-02-07T08:57:39Z</time>
      </trkpt>
      <trkpt lat="45.13407" lon="5.88744">
        <ele>1588.307</ele>
        <time>2021-02-07T08:57:44Z</time>
      </trkpt>
      <trkpt lat="45.13407" lon="5.88745">
        <ele>1588.71</ele>
        <time>2021-02-07T08:57:49Z</time>
      </trkpt>
      <trkpt lat="45.13405" lon="5.88746">
        <ele>1591.375</ele>
        <time>2021-02-07T08:57:54Z</time>
      </trkpt>
      <trkpt lat="45.13402" lon="5.88746">
        <ele>1590.098</ele>
        <time>2021-02-07T08:57:59Z</time>
      </trkpt>
      <trkpt lat="45.134" lon="5.88746">
        <ele>1591.133</ele>
        <time>2021-02-07T08:58:04Z</time>
      </trkpt>
      <trkpt lat="45.13398" lon="5.88746">
        <ele>1591.915</ele>
        <time>2021-02-07T08:58:09Z</time>
      </trkpt>
      <trkpt lat="45.13395" lon="5.88748">
        <ele>1592.441</ele>
        <time>2021-02-07T08:58:14Z</time>
      </trkpt>
      <trkpt lat="45.13393" lon="5.8875">
        <ele>1593.185</ele>
        <time>2021-02-07T08:58:19Z</time>
      </trkpt>
      <trkpt lat="45.13391" lon="5.88752">
        <ele>1594.105</ele>
        <time>2021-02-07T08:58:24Z</time>
      </trkpt>
      <trkpt lat="45.13389" lon="5.88753">
        <ele>1594.922</ele>
        <time>2021-02-07T08:58:29Z</time>
      </trkpt>
      <trkpt lat="45.13386" lon="5.88753">
        <ele>1595.043</ele>
        <time>2021-02-07T08:58:34Z</time>
      </trkpt>
      <trkpt lat="45.13384" lon="5.88754">
        <ele>1594.879</ele>
        <time>2021-02-07T08:58:39Z</time>
      </trkpt>
      <trkpt lat="45.13382" lon="5.88754">
        <ele>1594.677</ele>
        <time>2021-02-07T08:58:44Z</time>
      </trkpt>
      <trkpt lat="45.1338" lon="5.88755">
        <ele>1595.248</ele>
        <time>2021-02-07T08:58:49Z</time>
      </trkpt>
      <trkpt lat="45.13378" lon="5.88757">
        <ele>1595.746</ele>
        <time>2021-02-07T08:58:54Z</time>
      </trkpt>
      <trkpt lat="45.13376" lon="5.88757">
        <ele>1597.724</ele>
        <time>2021-02-07T08:58:59Z</time>
      </trkpt>
      <trkpt lat="45.13374" lon="5.88756">
        <ele>1597.211</ele>
        <time>2021-02-07T08:59:04Z</time>
      </trkpt>
      <trkpt lat="45.13373" lon="5.88756">
        <ele>1597.177</ele>
        <time>2021-02-07T08:59:09Z</time>
      </trkpt>
      <trkpt lat="45.13372" lon="5.88757">
        <ele>1596.766</ele>
        <time>2021-02-07T08:59:19Z</time>
      </trkpt>
      <trkpt lat="45.13371" lon="5.8876">
        <ele>1597.834</ele>
        <time>2021-02-07T08:59:24Z</time>
      </trkpt>
      <trkpt lat="45.13369" lon="5.88761">
        <ele>1598.955</ele>
        <time>2021-02-07T08:59:29Z</time>
      </trkpt>
      <trkpt lat="45.13367" lon="5.88762">
        <ele>1599.463</ele>
        <time>2021-02-07T08:59:34Z</time>
      </trkpt>
      <trkpt lat="45.13366" lon="5.88762">
        <ele>1599.745</ele>
        <time>2021-02-07T08:59:39Z</time>
      </trkpt>
      <trkpt lat="45.13364" lon="5.88763">
        <ele>1600.105</ele>
        <time>2021-02-07T08:59:44Z</time>
      </trkpt>
      <trkpt lat="45.13363" lon="5.88765">
        <ele>1601.293</ele>
        <time>2021-02-07T08:59:49Z</time>
      </trkpt>
      <trkpt lat="45.13361" lon="5.88767">
        <ele>1602.478</ele>
        <time>2021-02-07T08:59:54Z</time>
      </trkpt>
      <trkpt lat="45.13358" lon="5.88769">
        <ele>1604.683</ele>
        <time>2021-02-07T08:59:59Z</time>
      </trkpt>
      <trkpt lat="45.13356" lon="5.88771">
        <ele>1606.394</ele>
        <time>2021-02-07T09:00:04Z</time>
      </trkpt>
      <trkpt lat="45.13354" lon="5.88773">
        <ele>1608.053</ele>
        <time>2021-02-07T09:00:09Z</time>
      </trkpt>
      <trkpt lat="45.13352" lon="5.88775">
        <ele>1609.057</ele>
        <time>2021-02-07T09:00:14Z</time>
      </trkpt>
      <trkpt lat="45.1335" lon="5.88776">
        <ele>1611.692</ele>
        <time>2021-02-07T09:00:19Z</time>
      </trkpt>
      <trkpt lat="45.13348" lon="5.88779">
        <ele>1612.46</ele>
        <time>2021-02-07T09:00:24Z</time>
      </trkpt>
      <trkpt lat="45.13346" lon="5.88781">
        <ele>1612.794</ele>
        <time>2021-02-07T09:00:29Z</time>
      </trkpt>
      <trkpt lat="45.13344" lon="5.88782">
        <ele>1612.973</ele>
        <time>2021-02-07T09:00:34Z</time>
      </trkpt>
      <trkpt lat="45.13343" lon="5.88784">
        <ele>1614.542</ele>
        <time>2021-02-07T09:00:39Z</time>
      </trkpt>
      <trkpt lat="45.13342" lon="5.88785">
        <ele>1615.893</ele>
        <time>2021-02-07T09:00:44Z</time>
      </trkpt>
      <trkpt lat="45.1334" lon="5.88786">
        <ele>1618.115</ele>
        <time>2021-02-07T09:00:49Z</time>
      </trkpt>
      <trkpt lat="45.13338" lon="5.88788">
        <ele>1619.18</ele>
        <time>2021-02-07T09:00:54Z</time>
      </trkpt>
      <trkpt lat="45.13336" lon="5.88789">
        <ele>1621.05</ele>
        <time>2021-02-07T09:00:59Z</time>
      </trkpt>
      <trkpt lat="45.13333" lon="5.88791">
        <ele>1622.96</ele>
        <time>2021-02-07T09:01:04Z</time>
      </trkpt>
      <trkpt lat="45.13331" lon="5.88792">
        <ele>1624.137</ele>
        <time>2021-02-07T09:01:09Z</time>
      </trkpt>
      <trkpt lat="45.1333" lon="5.88793">
        <ele>1626.904</ele>
        <time>2021-02-07T09:01:14Z</time>
      </trkpt>
      <trkpt lat="45.13327" lon="5.88795">
        <ele>1627.237</ele>
        <time>2021-02-07T09:01:19Z</time>
      </trkpt>
      <trkpt lat="45.13326" lon="5.88798">
        <ele>1628.328</ele>
        <time>2021-02-07T09:01:24Z</time>
      </trkpt>
      <trkpt lat="45.13325" lon="5.88801">
        <ele>1627.611</ele>
        <time>2021-02-07T09:01:29Z</time>
      </trkpt>
      <trkpt lat="45.13323" lon="5.88804">
        <ele>1628.854</ele>
        <time>2021-02-07T09:01:34Z</time>
      </trkpt>
      <trkpt lat="45.13323" lon="5.88808">
        <ele>1629.904</ele>
        <time>2021-02-07T09:01:39Z</time>
      </trkpt>
      <trkpt lat="45.13323" lon="5.88812">
        <ele>1629.414</ele>
        <time>2021-02-07T09:01:44Z</time>
      </trkpt>
      <trkpt lat="45.13323" lon="5.88816">
        <ele>1631.215</ele>
        <time>2021-02-07T09:01:49Z</time>
      </trkpt>
      <trkpt lat="45.13323" lon="5.88822">
        <ele>1632.314</ele>
        <time>2021-02-07T09:01:54Z</time>
      </trkpt>
      <trkpt lat="45.13323" lon="5.88828">
        <ele>1633.863</ele>
        <time>2021-02-07T09:01:59Z</time>
      </trkpt>
      <trkpt lat="45.13324" lon="5.88832">
        <ele>1634.003</ele>
        <time>2021-02-07T09:02:04Z</time>
      </trkpt>
      <trkpt lat="45.13324" lon="5.88836">
        <ele>1635.661</ele>
        <time>2021-02-07T09:02:09Z</time>
      </trkpt>
      <trkpt lat="45.13325" lon="5.88839">
        <ele>1637.194</ele>
        <time>2021-02-07T09:02:14Z</time>
      </trkpt>
      <trkpt lat="45.13325" lon="5.88843">
        <ele>1637.172</ele>
        <time>2021-02-07T09:02:19Z</time>
      </trkpt>
      <trkpt lat="45.13323" lon="5.88847">
        <ele>1637.8</ele>
        <time>2021-02-07T09:02:24Z</time>
      </trkpt>
      <trkpt lat="45.13323" lon="5.88853">
        <ele>1640.122</ele>
        <time>2021-02-07T09:02:29Z</time>
      </trkpt>
      <trkpt lat="45.13323" lon="5.88858">
        <ele>1639.598</ele>
        <time>2021-02-07T09:02:34Z</time>
      </trkpt>
      <trkpt lat="45.13323" lon="5.88862">
        <ele>1640.623</ele>
        <time>2021-02-07T09:02:39Z</time>
      </trkpt>
      <trkpt lat="45.13323" lon="5.88867">
        <ele>1643.093</ele>
        <time>2021-02-07T09:02:44Z</time>
      </trkpt>
      <trkpt lat="45.13323" lon="5.88871">
        <ele>1643.677</ele>
        <time>2021-02-07T09:02:49Z</time>
      </trkpt>
      <trkpt lat="45.13324" lon="5.88876">
        <ele>1645.568</ele>
        <time>2021-02-07T09:02:54Z</time>
      </trkpt>
      <trkpt lat="45.13325" lon="5.8888">
        <ele>1644.318</ele>
        <time>2021-02-07T09:02:59Z</time>
      </trkpt>
      <trkpt lat="45.13326" lon="5.88884">
        <ele>1645.024</ele>
        <time>2021-02-07T09:03:04Z</time>
      </trkpt>
      <trkpt lat="45.13326" lon="5.88889">
        <ele>1647.814</ele>
        <time>2021-02-07T09:03:09Z</time>
      </trkpt>
      <trkpt lat="45.13327" lon="5.88893">
        <ele>1647.709</ele>
        <time>2021-02-07T09:03:14Z</time>
      </trkpt>
      <trkpt lat="45.13327" lon="5.88897">
        <ele>1648.852</ele>
        <time>2021-02-07T09:03:19Z</time>
      </trkpt>
      <trkpt lat="45.13327" lon="5.88901">
        <ele>1648.995</ele>
        <time>2021-02-07T09:03:24Z</time>
      </trkpt>
      <trkpt lat="45.13328" lon="5.88905">
        <ele>1650.086</ele>
        <time>2021-02-07T09:03:29Z</time>
      </trkpt>
      <trkpt lat="45.13329" lon="5.88909">
        <ele>1652.507</ele>
        <time>2021-02-07T09:03:34Z</time>
      </trkpt>
      <trkpt lat="45.13329" lon="5.88913">
        <ele>1656.106</ele>
        <time>2021-02-07T09:03:39Z</time>
      </trkpt>
      <trkpt lat="45.1333" lon="5.88916">
        <ele>1657.958</ele>
        <time>2021-02-07T09:03:44Z</time>
      </trkpt>
      <trkpt lat="45.13329" lon="5.8892">
        <ele>1658.049</ele>
        <time>2021-02-07T09:03:49Z</time>
      </trkpt>
      <trkpt lat="45.13329" lon="5.88923">
        <ele>1659.48</ele>
        <time>2021-02-07T09:03:54Z</time>
      </trkpt>
      <trkpt lat="45.13329" lon="5.88928">
        <ele>1661.386</ele>
        <time>2021-02-07T09:03:59Z</time>
      </trkpt>
      <trkpt lat="45.13329" lon="5.8893">
        <ele>1663.709</ele>
        <time>2021-02-07T09:04:04Z</time>
      </trkpt>
      <trkpt lat="45.1333" lon="5.88933">
        <ele>1664.733</ele>
        <time>2021-02-07T09:04:09Z</time>
      </trkpt>
      <trkpt lat="45.1333" lon="5.88937">
        <ele>1665.979</ele>
        <time>2021-02-07T09:04:14Z</time>
      </trkpt>
      <trkpt lat="45.13332" lon="5.88938">
        <ele>1663.7</ele>
        <time>2021-02-07T09:04:19Z</time>
      </trkpt>
      <trkpt lat="45.13332" lon="5.88942">
        <ele>1665.532</ele>
        <time>2021-02-07T09:04:24Z</time>
      </trkpt>
      <trkpt lat="45.13331" lon="5.88943">
        <ele>1662.059</ele>
        <time>2021-02-07T09:04:29Z</time>
      </trkpt>
      <trkpt lat="45.13331" lon="5.88945">
        <ele>1665.83</ele>
        <time>2021-02-07T09:04:34Z</time>
      </trkpt>
      <trkpt lat="45.13331" lon="5.88948">
        <ele>1665.928</ele>
        <time>2021-02-07T09:04:39Z</time>
      </trkpt>
      <trkpt lat="45.13333" lon="5.88952">
        <ele>1667.086</ele>
        <time>2021-02-07T09:04:44Z</time>
      </trkpt>
      <trkpt lat="45.13333" lon="5.88955">
        <ele>1668.125</ele>
        <time>2021-02-07T09:04:49Z</time>
      </trkpt>
      <trkpt lat="45.13335" lon="5.88959">
        <ele>1666.891</ele>
        <time>2021-02-07T09:04:54Z</time>
      </trkpt>
      <trkpt lat="45.13335" lon="5.88961">
        <ele>1667.12</ele>
        <time>2021-02-07T09:04:59Z</time>
      </trkpt>
      <trkpt lat="45.13335" lon="5.88965">
        <ele>1669.078</ele>
        <time>2021-02-07T09:05:04Z</time>
      </trkpt>
      <trkpt lat="45.13335" lon="5.88968">
        <ele>1669.914</ele>
        <time>2021-02-07T09:05:09Z</time>
      </trkpt>
      <trkpt lat="45.13334" lon="5.88971">
        <ele>1668.911</ele>
        <time>2021-02-07T09:05:14Z</time>
      </trkpt>
      <trkpt lat="45.13335" lon="5.88973">
        <ele>1668.896</ele>
        <time>2021-02-07T09:05:19Z</time>
      </trkpt>
      <trkpt lat="45.13335" lon="5.88976">
        <ele>1670.41</ele>
        <time>2021-02-07T09:05:24Z</time>
      </trkpt>
      <trkpt lat="45.13336" lon="5.8898">
        <ele>1671.937</ele>
        <time>2021-02-07T09:05:29Z</time>
      </trkpt>
      <trkpt lat="45.13336" lon="5.88983">
        <ele>1672.185</ele>
        <time>2021-02-07T09:05:34Z</time>
      </trkpt>
      <trkpt lat="45.13336" lon="5.88986">
        <ele>1673.89</ele>
        <time>2021-02-07T09:05:39Z</time>
      </trkpt>
      <trkpt lat="45.13335" lon="5.88989">
        <ele>1674.299</ele>
        <time>2021-02-07T09:05:44Z</time>
      </trkpt>
      <trkpt lat="45.13334" lon="5.88992">
        <ele>1676.174</ele>
        <time>2021-02-07T09:05:49Z</time>
      </trkpt>
      <trkpt lat="45.13334" lon="5.88997">
        <ele>1676.419</ele>
        <time>2021-02-07T09:05:54Z</time>
      </trkpt>
      <trkpt lat="45.13331" lon="5.89001">
        <ele>1677.002</ele>
        <time>2021-02-07T09:05:59Z</time>
      </trkpt>
      <trkpt lat="45.13329" lon="5.89004">
        <ele>1677.815</ele>
        <time>2021-02-07T09:06:04Z</time>
      </trkpt>
      <trkpt lat="45.13327" lon="5.89007">
        <ele>1679.648</ele>
        <time>2021-02-07T09:06:09Z</time>
      </trkpt>
      <trkpt lat="45.13326" lon="5.8901">
        <ele>1680.468</ele>
        <time>2021-02-07T09:06:14Z</time>
      </trkpt>
      <trkpt lat="45.13324" lon="5.89012">
        <ele>1681.978</ele>
        <time>2021-02-07T09:06:19Z</time>
      </trkpt>
      <trkpt lat="45.13321" lon="5.89012">
        <ele>1683.023</ele>
        <time>2021-02-07T09:06:24Z</time>
      </trkpt>
      <trkpt lat="45.13318" lon="5.89013">
        <ele>1684.299</ele>
        <time>2021-02-07T09:06:29Z</time>
      </trkpt>
      <trkpt lat="45.13316" lon="5.89014">
        <ele>1685.352</ele>
        <time>2021-02-07T09:06:34Z</time>
      </trkpt>
      <trkpt lat="45.13314" lon="5.89015">
        <ele>1686.687</ele>
        <time>2021-02-07T09:06:39Z</time>
      </trkpt>
      <trkpt lat="45.13311" lon="5.89016">
        <ele>1686.074</ele>
        <time>2021-02-07T09:06:44Z</time>
      </trkpt>
      <trkpt lat="45.13309" lon="5.89018">
        <ele>1686.802</ele>
        <time>2021-02-07T09:06:49Z</time>
      </trkpt>
      <trkpt lat="45.13307" lon="5.89018">
        <ele>1688.218</ele>
        <time>2021-02-07T09:06:54Z</time>
      </trkpt>
      <trkpt lat="45.13306" lon="5.89018">
        <ele>1689.092</ele>
        <time>2021-02-07T09:06:59Z</time>
      </trkpt>
      <trkpt lat="45.13302" lon="5.89017">
        <ele>1689.677</ele>
        <time>2021-02-07T09:07:04Z</time>
      </trkpt>
      <trkpt lat="45.13299" lon="5.89015">
        <ele>1690.35</ele>
        <time>2021-02-07T09:07:09Z</time>
      </trkpt>
      <trkpt lat="45.13296" lon="5.89014">
        <ele>1691.294</ele>
        <time>2021-02-07T09:07:14Z</time>
      </trkpt>
      <trkpt lat="45.13294" lon="5.89011">
        <ele>1692.643</ele>
        <time>2021-02-07T09:07:19Z</time>
      </trkpt>
      <trkpt lat="45.13292" lon="5.89009">
        <ele>1693.611</ele>
        <time>2021-02-07T09:07:24Z</time>
      </trkpt>
      <trkpt lat="45.1329" lon="5.89008">
        <ele>1694.775</ele>
        <time>2021-02-07T09:07:29Z</time>
      </trkpt>
      <trkpt lat="45.13288" lon="5.89004">
        <ele>1695.964</ele>
        <time>2021-02-07T09:07:34Z</time>
      </trkpt>
      <trkpt lat="45.13285" lon="5.89001">
        <ele>1696.871</ele>
        <time>2021-02-07T09:07:39Z</time>
      </trkpt>
      <trkpt lat="45.13283" lon="5.88998">
        <ele>1697.733</ele>
        <time>2021-02-07T09:07:44Z</time>
      </trkpt>
      <trkpt lat="45.13281" lon="5.88994">
        <ele>1698.892</ele>
        <time>2021-02-07T09:07:49Z</time>
      </trkpt>
      <trkpt lat="45.13279" lon="5.88992">
        <ele>1698.944</ele>
        <time>2021-02-07T09:07:54Z</time>
      </trkpt>
      <trkpt lat="45.13277" lon="5.88988">
        <ele>1699.602</ele>
        <time>2021-02-07T09:07:59Z</time>
      </trkpt>
      <trkpt lat="45.13275" lon="5.88986">
        <ele>1700.328</ele>
        <time>2021-02-07T09:08:04Z</time>
      </trkpt>
      <trkpt lat="45.13274" lon="5.88983">
        <ele>1701.664</ele>
        <time>2021-02-07T09:08:09Z</time>
      </trkpt>
      <trkpt lat="45.13272" lon="5.8898">
        <ele>1702.408</ele>
        <time>2021-02-07T09:08:14Z</time>
      </trkpt>
      <trkpt lat="45.1327" lon="5.88978">
        <ele>1702.615</ele>
        <time>2021-02-07T09:08:19Z</time>
      </trkpt>
      <trkpt lat="45.13267" lon="5.88977">
        <ele>1703.091</ele>
        <time>2021-02-07T09:08:24Z</time>
      </trkpt>
      <trkpt lat="45.13264" lon="5.88975">
        <ele>1702.967</ele>
        <time>2021-02-07T09:08:29Z</time>
      </trkpt>
      <trkpt lat="45.13262" lon="5.88974">
        <ele>1704.52</ele>
        <time>2021-02-07T09:08:34Z</time>
      </trkpt>
      <trkpt lat="45.1326" lon="5.8897">
        <ele>1705.365</ele>
        <time>2021-02-07T09:08:39Z</time>
      </trkpt>
      <trkpt lat="45.13259" lon="5.88968">
        <ele>1706.281</ele>
        <time>2021-02-07T09:08:44Z</time>
      </trkpt>
      <trkpt lat="45.13258" lon="5.88966">
        <ele>1706.314</ele>
        <time>2021-02-07T09:08:49Z</time>
      </trkpt>
      <trkpt lat="45.13256" lon="5.88962">
        <ele>1707.004</ele>
        <time>2021-02-07T09:08:54Z</time>
      </trkpt>
      <trkpt lat="45.13253" lon="5.88959">
        <ele>1708.586</ele>
        <time>2021-02-07T09:08:59Z</time>
      </trkpt>
      <trkpt lat="45.13251" lon="5.88955">
        <ele>1709.237</ele>
        <time>2021-02-07T09:09:04Z</time>
      </trkpt>
      <trkpt lat="45.1325" lon="5.88952">
        <ele>1710.085</ele>
        <time>2021-02-07T09:09:09Z</time>
      </trkpt>
      <trkpt lat="45.13248" lon="5.88948">
        <ele>1711.394</ele>
        <time>2021-02-07T09:09:14Z</time>
      </trkpt>
      <trkpt lat="45.13245" lon="5.88947">
        <ele>1710.627</ele>
        <time>2021-02-07T09:09:19Z</time>
      </trkpt>
      <trkpt lat="45.13243" lon="5.88943">
        <ele>1712.073</ele>
        <time>2021-02-07T09:09:24Z</time>
      </trkpt>
      <trkpt lat="45.1324" lon="5.8894">
        <ele>1713.356</ele>
        <time>2021-02-07T09:09:29Z</time>
      </trkpt>
      <trkpt lat="45.13238" lon="5.88937">
        <ele>1714.287</ele>
        <time>2021-02-07T09:09:34Z</time>
      </trkpt>
      <trkpt lat="45.13235" lon="5.88935">
        <ele>1714.907</ele>
        <time>2021-02-07T09:09:39Z</time>
      </trkpt>
      <trkpt lat="45.13233" lon="5.88932">
        <ele>1714.883</ele>
        <time>2021-02-07T09:09:44Z</time>
      </trkpt>
      <trkpt lat="45.13233" lon="5.88935">
        <ele>1713.655</ele>
        <time>2021-02-07T09:09:49Z</time>
      </trkpt>
      <trkpt lat="45.13233" lon="5.88934">
        <ele>1714.59</ele>
        <time>2021-02-07T09:10:09Z</time>
      </trkpt>
      <trkpt lat="45.1323" lon="5.88932">
        <ele>1714.657</ele>
        <time>2021-02-07T09:10:14Z</time>
      </trkpt>
      <trkpt lat="45.13229" lon="5.8893">
        <ele>1715.148</ele>
        <time>2021-02-07T09:10:19Z</time>
      </trkpt>
      <trkpt lat="45.13226" lon="5.88927">
        <ele>1715.575</ele>
        <time>2021-02-07T09:10:24Z</time>
      </trkpt>
      <trkpt lat="45.13223" lon="5.88924">
        <ele>1715.402</ele>
        <time>2021-02-07T09:10:29Z</time>
      </trkpt>
      <trkpt lat="45.1322" lon="5.88921">
        <ele>1716.164</ele>
        <time>2021-02-07T09:10:34Z</time>
      </trkpt>
      <trkpt lat="45.13217" lon="5.88918">
        <ele>1715.913</ele>
        <time>2021-02-07T09:10:39Z</time>
      </trkpt>
      <trkpt lat="45.13213" lon="5.88914">
        <ele>1716.567</ele>
        <time>2021-02-07T09:10:44Z</time>
      </trkpt>
      <trkpt lat="45.13209" lon="5.8891">
        <ele>1716.131</ele>
        <time>2021-02-07T09:10:49Z</time>
      </trkpt>
      <trkpt lat="45.13205" lon="5.88907">
        <ele>1715.576</ele>
        <time>2021-02-07T09:10:54Z</time>
      </trkpt>
      <trkpt lat="45.13201" lon="5.88904">
        <ele>1715.675</ele>
        <time>2021-02-07T09:10:59Z</time>
      </trkpt>
      <trkpt lat="45.13196" lon="5.889">
        <ele>1714.603</ele>
        <time>2021-02-07T09:11:04Z</time>
      </trkpt>
      <trkpt lat="45.13193" lon="5.88897">
        <ele>1714.839</ele>
        <time>2021-02-07T09:11:09Z</time>
      </trkpt>
      <trkpt lat="45.1319" lon="5.88895">
        <ele>1715.542</ele>
        <time>2021-02-07T09:11:14Z</time>
      </trkpt>
      <trkpt lat="45.13187" lon="5.88893">
        <ele>1716.082</ele>
        <time>2021-02-07T09:11:19Z</time>
      </trkpt>
      <trkpt lat="45.13184" lon="5.8889">
        <ele>1715.963</ele>
        <time>2021-02-07T09:11:24Z</time>
      </trkpt>
      <trkpt lat="45.1318" lon="5.88887">
        <ele>1716.387</ele>
        <time>2021-02-07T09:11:29Z</time>
      </trkpt>
      <trkpt lat="45.13178" lon="5.88885">
        <ele>1717.028</ele>
        <time>2021-02-07T09:11:34Z</time>
      </trkpt>
      <trkpt lat="45.13175" lon="5.88883">
        <ele>1717.925</ele>
        <time>2021-02-07T09:11:39Z</time>
      </trkpt>
      <trkpt lat="45.13171" lon="5.88881">
        <ele>1718.584</ele>
        <time>2021-02-07T09:11:44Z</time>
      </trkpt>
      <trkpt lat="45.13169" lon="5.88881">
        <ele>1719.746</ele>
        <time>2021-02-07T09:11:49Z</time>
      </trkpt>
      <trkpt lat="45.13166" lon="5.88879">
        <ele>1720.059</ele>
        <time>2021-02-07T09:11:54Z</time>
      </trkpt>
      <trkpt lat="45.13163" lon="5.88878">
        <ele>1720.087</ele>
        <time>2021-02-07T09:11:59Z</time>
      </trkpt>
      <trkpt lat="45.13161" lon="5.88876">
        <ele>1720.244</ele>
        <time>2021-02-07T09:12:04Z</time>
      </trkpt>
      <trkpt lat="45.13159" lon="5.88875">
        <ele>1721.736</ele>
        <time>2021-02-07T09:12:09Z</time>
      </trkpt>
      <trkpt lat="45.13155" lon="5.88874">
        <ele>1721.2</ele>
        <time>2021-02-07T09:12:14Z</time>
      </trkpt>
      <trkpt lat="45.13153" lon="5.88874">
        <ele>1721.357</ele>
        <time>2021-02-07T09:12:19Z</time>
      </trkpt>
      <trkpt lat="45.1315" lon="5.88873">
        <ele>1721.863</ele>
        <time>2021-02-07T09:12:24Z</time>
      </trkpt>
      <trkpt lat="45.13148" lon="5.88871">
        <ele>1723.544</ele>
        <time>2021-02-07T09:12:29Z</time>
      </trkpt>
      <trkpt lat="45.13145" lon="5.88871">
        <ele>1722.997</ele>
        <time>2021-02-07T09:12:34Z</time>
      </trkpt>
      <trkpt lat="45.13142" lon="5.8887">
        <ele>1724.56</ele>
        <time>2021-02-07T09:12:39Z</time>
      </trkpt>
      <trkpt lat="45.13139" lon="5.88869">
        <ele>1724.955</ele>
        <time>2021-02-07T09:12:44Z</time>
      </trkpt>
      <trkpt lat="45.13137" lon="5.88869">
        <ele>1724.582</ele>
        <time>2021-02-07T09:12:49Z</time>
      </trkpt>
      <trkpt lat="45.13134" lon="5.88869">
        <ele>1724.714</ele>
        <time>2021-02-07T09:12:54Z</time>
      </trkpt>
      <trkpt lat="45.13131" lon="5.88868">
        <ele>1725.104</ele>
        <time>2021-02-07T09:12:59Z</time>
      </trkpt>
      <trkpt lat="45.13128" lon="5.88868">
        <ele>1725.599</ele>
        <time>2021-02-07T09:13:04Z</time>
      </trkpt>
      <trkpt lat="45.13125" lon="5.88868">
        <ele>1726.386</ele>
        <time>2021-02-07T09:13:09Z</time>
      </trkpt>
      <trkpt lat="45.13122" lon="5.88867">
        <ele>1727.185</ele>
        <time>2021-02-07T09:13:14Z</time>
      </trkpt>
      <trkpt lat="45.13119" lon="5.88867">
        <ele>1727.288</ele>
        <time>2021-02-07T09:13:19Z</time>
      </trkpt>
      <trkpt lat="45.13116" lon="5.88867">
        <ele>1727.257</ele>
        <time>2021-02-07T09:13:24Z</time>
      </trkpt>
      <trkpt lat="45.13113" lon="5.88866">
        <ele>1727.754</ele>
        <time>2021-02-07T09:13:29Z</time>
      </trkpt>
      <trkpt lat="45.13109" lon="5.88865">
        <ele>1728.589</ele>
        <time>2021-02-07T09:13:34Z</time>
      </trkpt>
      <trkpt lat="45.13107" lon="5.88866">
        <ele>1730.67</ele>
        <time>2021-02-07T09:13:39Z</time>
      </trkpt>
      <trkpt lat="45.13105" lon="5.88866">
        <ele>1731.558</ele>
        <time>2021-02-07T09:13:44Z</time>
      </trkpt>
      <trkpt lat="45.13101" lon="5.88866">
        <ele>1731.108</ele>
        <time>2021-02-07T09:13:49Z</time>
      </trkpt>
      <trkpt lat="45.13098" lon="5.88865">
        <ele>1731.592</ele>
        <time>2021-02-07T09:13:54Z</time>
      </trkpt>
      <trkpt lat="45.13095" lon="5.88865">
        <ele>1731.693</ele>
        <time>2021-02-07T09:13:59Z</time>
      </trkpt>
      <trkpt lat="45.13092" lon="5.88866">
        <ele>1732.669</ele>
        <time>2021-02-07T09:14:04Z</time>
      </trkpt>
      <trkpt lat="45.1309" lon="5.88866">
        <ele>1732.943</ele>
        <time>2021-02-07T09:14:09Z</time>
      </trkpt>
      <trkpt lat="45.13087" lon="5.88866">
        <ele>1732.985</ele>
        <time>2021-02-07T09:14:14Z</time>
      </trkpt>
      <trkpt lat="45.13084" lon="5.88866">
        <ele>1733.897</ele>
        <time>2021-02-07T09:14:19Z</time>
      </trkpt>
      <trkpt lat="45.13081" lon="5.88866">
        <ele>1735.018</ele>
        <time>2021-02-07T09:14:24Z</time>
      </trkpt>
      <trkpt lat="45.13079" lon="5.88866">
        <ele>1736.035</ele>
        <time>2021-02-07T09:14:29Z</time>
      </trkpt>
      <trkpt lat="45.13076" lon="5.88866">
        <ele>1737.651</ele>
        <time>2021-02-07T09:14:34Z</time>
      </trkpt>
      <trkpt lat="45.13074" lon="5.88866">
        <ele>1738.93</ele>
        <time>2021-02-07T09:14:39Z</time>
      </trkpt>
      <trkpt lat="45.13072" lon="5.88866">
        <ele>1740.333</ele>
        <time>2021-02-07T09:14:44Z</time>
      </trkpt>
      <trkpt lat="45.1307" lon="5.88867">
        <ele>1741.232</ele>
        <time>2021-02-07T09:14:49Z</time>
      </trkpt>
      <trkpt lat="45.13067" lon="5.88867">
        <ele>1741.81</ele>
        <time>2021-02-07T09:14:54Z</time>
      </trkpt>
      <trkpt lat="45.13065" lon="5.88867">
        <ele>1742.379</ele>
        <time>2021-02-07T09:14:59Z</time>
      </trkpt>
      <trkpt lat="45.13062" lon="5.88867">
        <ele>1741.736</ele>
        <time>2021-02-07T09:15:04Z</time>
      </trkpt>
      <trkpt lat="45.13059" lon="5.88867">
        <ele>1741.55</ele>
        <time>2021-02-07T09:15:09Z</time>
      </trkpt>
      <trkpt lat="45.13056" lon="5.88868">
        <ele>1741.889</ele>
        <time>2021-02-07T09:15:14Z</time>
      </trkpt>
      <trkpt lat="45.13054" lon="5.88868">
        <ele>1742.387</ele>
        <time>2021-02-07T09:15:19Z</time>
      </trkpt>
      <trkpt lat="45.13052" lon="5.88868">
        <ele>1742.637</ele>
        <time>2021-02-07T09:15:24Z</time>
      </trkpt>
      <trkpt lat="45.1305" lon="5.88868">
        <ele>1743.589</ele>
        <time>2021-02-07T09:15:29Z</time>
      </trkpt>
      <trkpt lat="45.13047" lon="5.88867">
        <ele>1744.414</ele>
        <time>2021-02-07T09:15:34Z</time>
      </trkpt>
      <trkpt lat="45.13045" lon="5.88866">
        <ele>1745.248</ele>
        <time>2021-02-07T09:15:39Z</time>
      </trkpt>
      <trkpt lat="45.13043" lon="5.88865">
        <ele>1747.133</ele>
        <time>2021-02-07T09:15:44Z</time>
      </trkpt>
      <trkpt lat="45.13041" lon="5.88864">
        <ele>1747.906</ele>
        <time>2021-02-07T09:15:49Z</time>
      </trkpt>
      <trkpt lat="45.13039" lon="5.88865">
        <ele>1748.528</ele>
        <time>2021-02-07T09:15:54Z</time>
      </trkpt>
      <trkpt lat="45.13036" lon="5.88864">
        <ele>1749.335</ele>
        <time>2021-02-07T09:15:59Z</time>
      </trkpt>
      <trkpt lat="45.13034" lon="5.88864">
        <ele>1750.622</ele>
        <time>2021-02-07T09:16:04Z</time>
      </trkpt>
      <trkpt lat="45.13031" lon="5.88864">
        <ele>1750.623</ele>
        <time>2021-02-07T09:16:09Z</time>
      </trkpt>
      <trkpt lat="45.13029" lon="5.88862">
        <ele>1752.351</ele>
        <time>2021-02-07T09:16:14Z</time>
      </trkpt>
      <trkpt lat="45.13026" lon="5.88862">
        <ele>1753.245</ele>
        <time>2021-02-07T09:16:19Z</time>
      </trkpt>
      <trkpt lat="45.13023" lon="5.88861">
        <ele>1753.481</ele>
        <time>2021-02-07T09:16:24Z</time>
      </trkpt>
      <trkpt lat="45.1302" lon="5.88861">
        <ele>1755.496</ele>
        <time>2021-02-07T09:16:29Z</time>
      </trkpt>
      <trkpt lat="45.13018" lon="5.8886">
        <ele>1756.082</ele>
        <time>2021-02-07T09:16:34Z</time>
      </trkpt>
      <trkpt lat="45.13015" lon="5.88859">
        <ele>1757.256</ele>
        <time>2021-02-07T09:16:39Z</time>
      </trkpt>
      <trkpt lat="45.13011" lon="5.88858">
        <ele>1756.617</ele>
        <time>2021-02-07T09:16:44Z</time>
      </trkpt>
      <trkpt lat="45.13007" lon="5.88857">
        <ele>1756.884</ele>
        <time>2021-02-07T09:16:49Z</time>
      </trkpt>
      <trkpt lat="45.13004" lon="5.88856">
        <ele>1757.352</ele>
        <time>2021-02-07T09:16:54Z</time>
      </trkpt>
      <trkpt lat="45.13001" lon="5.88856">
        <ele>1757.964</ele>
        <time>2021-02-07T09:16:59Z</time>
      </trkpt>
      <trkpt lat="45.12998" lon="5.88856">
        <ele>1759.933</ele>
        <time>2021-02-07T09:17:04Z</time>
      </trkpt>
      <trkpt lat="45.12996" lon="5.88856">
        <ele>1760.802</ele>
        <time>2021-02-07T09:17:09Z</time>
      </trkpt>
      <trkpt lat="45.12994" lon="5.88855">
        <ele>1761.674</ele>
        <time>2021-02-07T09:17:14Z</time>
      </trkpt>
      <trkpt lat="45.12991" lon="5.88855">
        <ele>1761.34</ele>
        <time>2021-02-07T09:17:19Z</time>
      </trkpt>
      <trkpt lat="45.12988" lon="5.88854">
        <ele>1761.434</ele>
        <time>2021-02-07T09:17:24Z</time>
      </trkpt>
      <trkpt lat="45.12985" lon="5.88856">
        <ele>1763.704</ele>
        <time>2021-02-07T09:17:29Z</time>
      </trkpt>
      <trkpt lat="45.12982" lon="5.88857">
        <ele>1762.668</ele>
        <time>2021-02-07T09:17:34Z</time>
      </trkpt>
      <trkpt lat="45.12979" lon="5.88857">
        <ele>1763.124</ele>
        <time>2021-02-07T09:17:39Z</time>
      </trkpt>
      <trkpt lat="45.12976" lon="5.88859">
        <ele>1763.54</ele>
        <time>2021-02-07T09:17:44Z</time>
      </trkpt>
      <trkpt lat="45.12974" lon="5.8886">
        <ele>1764.303</ele>
        <time>2021-02-07T09:17:49Z</time>
      </trkpt>
      <trkpt lat="45.12971" lon="5.88861">
        <ele>1764.858</ele>
        <time>2021-02-07T09:17:54Z</time>
      </trkpt>
      <trkpt lat="45.12967" lon="5.88861">
        <ele>1764.618</ele>
        <time>2021-02-07T09:17:59Z</time>
      </trkpt>
      <trkpt lat="45.12965" lon="5.88862">
        <ele>1765.994</ele>
        <time>2021-02-07T09:18:04Z</time>
      </trkpt>
      <trkpt lat="45.12962" lon="5.88863">
        <ele>1766.935</ele>
        <time>2021-02-07T09:18:09Z</time>
      </trkpt>
      <trkpt lat="45.12959" lon="5.88863">
        <ele>1768.916</ele>
        <time>2021-02-07T09:18:14Z</time>
      </trkpt>
      <trkpt lat="45.12956" lon="5.88863">
        <ele>1770.067</ele>
        <time>2021-02-07T09:18:19Z</time>
      </trkpt>
      <trkpt lat="45.12953" lon="5.88863">
        <ele>1769.734</ele>
        <time>2021-02-07T09:18:24Z</time>
      </trkpt>
      <trkpt lat="45.1295" lon="5.88864">
        <ele>1769.525</ele>
        <time>2021-02-07T09:18:29Z</time>
      </trkpt>
      <trkpt lat="45.12947" lon="5.88864">
        <ele>1771.133</ele>
        <time>2021-02-07T09:18:34Z</time>
      </trkpt>
      <trkpt lat="45.12944" lon="5.88865">
        <ele>1771.423</ele>
        <time>2021-02-07T09:18:39Z</time>
      </trkpt>
      <trkpt lat="45.12942" lon="5.88866">
        <ele>1771.569</ele>
        <time>2021-02-07T09:18:44Z</time>
      </trkpt>
      <trkpt lat="45.12939" lon="5.88866">
        <ele>1771.714</ele>
        <time>2021-02-07T09:18:49Z</time>
      </trkpt>
      <trkpt lat="45.12936" lon="5.88867">
        <ele>1771.192</ele>
        <time>2021-02-07T09:18:54Z</time>
      </trkpt>
      <trkpt lat="45.12934" lon="5.88867">
        <ele>1773.696</ele>
        <time>2021-02-07T09:18:59Z</time>
      </trkpt>
      <trkpt lat="45.12931" lon="5.88867">
        <ele>1774.478</ele>
        <time>2021-02-07T09:19:04Z</time>
      </trkpt>
      <trkpt lat="45.12929" lon="5.88867">
        <ele>1776.036</ele>
        <time>2021-02-07T09:19:09Z</time>
      </trkpt>
      <trkpt lat="45.12927" lon="5.88867">
        <ele>1777.176</ele>
        <time>2021-02-07T09:19:14Z</time>
      </trkpt>
      <trkpt lat="45.12925" lon="5.88868">
        <ele>1778.959</ele>
        <time>2021-02-07T09:19:19Z</time>
      </trkpt>
      <trkpt lat="45.12922" lon="5.88868">
        <ele>1779.692</ele>
        <time>2021-02-07T09:19:24Z</time>
      </trkpt>
      <trkpt lat="45.1292" lon="5.88869">
        <ele>1779.298</ele>
        <time>2021-02-07T09:19:29Z</time>
      </trkpt>
      <trkpt lat="45.12917" lon="5.88869">
        <ele>1780.526</ele>
        <time>2021-02-07T09:19:34Z</time>
      </trkpt>
      <trkpt lat="45.12915" lon="5.8887">
        <ele>1781.103</ele>
        <time>2021-02-07T09:19:39Z</time>
      </trkpt>
      <trkpt lat="45.12912" lon="5.8887">
        <ele>1782.039</ele>
        <time>2021-02-07T09:19:44Z</time>
      </trkpt>
      <trkpt lat="45.1291" lon="5.88871">
        <ele>1783.19</ele>
        <time>2021-02-07T09:19:49Z</time>
      </trkpt>
      <trkpt lat="45.12907" lon="5.88872">
        <ele>1783.66</ele>
        <time>2021-02-07T09:19:54Z</time>
      </trkpt>
      <trkpt lat="45.12905" lon="5.88873">
        <ele>1784.672</ele>
        <time>2021-02-07T09:19:59Z</time>
      </trkpt>
      <trkpt lat="45.12902" lon="5.88874">
        <ele>1784.424</ele>
        <time>2021-02-07T09:20:04Z</time>
      </trkpt>
      <trkpt lat="45.12899" lon="5.88875">
        <ele>1785.142</ele>
        <time>2021-02-07T09:20:09Z</time>
      </trkpt>
      <trkpt lat="45.12898" lon="5.88877">
        <ele>1787.12</ele>
        <time>2021-02-07T09:20:14Z</time>
      </trkpt>
      <trkpt lat="45.12896" lon="5.88877">
        <ele>1787.848</ele>
        <time>2021-02-07T09:20:19Z</time>
      </trkpt>
      <trkpt lat="45.12894" lon="5.88877">
        <ele>1788.485</ele>
        <time>2021-02-07T09:20:24Z</time>
      </trkpt>
      <trkpt lat="45.12891" lon="5.88877">
        <ele>1788.931</ele>
        <time>2021-02-07T09:20:29Z</time>
      </trkpt>
      <trkpt lat="45.12888" lon="5.88879">
        <ele>1789.527</ele>
        <time>2021-02-07T09:20:34Z</time>
      </trkpt>
      <trkpt lat="45.12886" lon="5.88879">
        <ele>1790.297</ele>
        <time>2021-02-07T09:20:39Z</time>
      </trkpt>
      <trkpt lat="45.12883" lon="5.88881">
        <ele>1789.488</ele>
        <time>2021-02-07T09:20:44Z</time>
      </trkpt>
      <trkpt lat="45.1288" lon="5.88882">
        <ele>1789.832</ele>
        <time>2021-02-07T09:20:49Z</time>
      </trkpt>
      <trkpt lat="45.12878" lon="5.88882">
        <ele>1789.959</ele>
        <time>2021-02-07T09:20:54Z</time>
      </trkpt>
      <trkpt lat="45.12875" lon="5.88882">
        <ele>1790.472</ele>
        <time>2021-02-07T09:20:59Z</time>
      </trkpt>
      <trkpt lat="45.12874" lon="5.88883">
        <ele>1789.839</ele>
        <time>2021-02-07T09:21:04Z</time>
      </trkpt>
      <trkpt lat="45.12872" lon="5.88882">
        <ele>1791.877</ele>
        <time>2021-02-07T09:21:19Z</time>
      </trkpt>
      <trkpt lat="45.12871" lon="5.88883">
        <ele>1793.309</ele>
        <time>2021-02-07T09:21:24Z</time>
      </trkpt>
      <trkpt lat="45.12869" lon="5.88884">
        <ele>1794.324</ele>
        <time>2021-02-07T09:21:29Z</time>
      </trkpt>
      <trkpt lat="45.12867" lon="5.88885">
        <ele>1795.542</ele>
        <time>2021-02-07T09:21:34Z</time>
      </trkpt>
      <trkpt lat="45.12864" lon="5.88885">
        <ele>1796.071</ele>
        <time>2021-02-07T09:21:39Z</time>
      </trkpt>
      <trkpt lat="45.12862" lon="5.88885">
        <ele>1797.64</ele>
        <time>2021-02-07T09:21:44Z</time>
      </trkpt>
      <trkpt lat="45.1286" lon="5.88886">
        <ele>1798.555</ele>
        <time>2021-02-07T09:21:49Z</time>
      </trkpt>
      <trkpt lat="45.12857" lon="5.88887">
        <ele>1799.685</ele>
        <time>2021-02-07T09:21:54Z</time>
      </trkpt>
      <trkpt lat="45.12855" lon="5.88887">
        <ele>1800.773</ele>
        <time>2021-02-07T09:21:59Z</time>
      </trkpt>
      <trkpt lat="45.12854" lon="5.88887">
        <ele>1801.929</ele>
        <time>2021-02-07T09:22:04Z</time>
      </trkpt>
      <trkpt lat="45.12852" lon="5.88888">
        <ele>1802.826</ele>
        <time>2021-02-07T09:22:09Z</time>
      </trkpt>
      <trkpt lat="45.1285" lon="5.88888">
        <ele>1803.781</ele>
        <time>2021-02-07T09:22:14Z</time>
      </trkpt>
      <trkpt lat="45.12848" lon="5.88888">
        <ele>1804.806</ele>
        <time>2021-02-07T09:22:19Z</time>
      </trkpt>
      <trkpt lat="45.12846" lon="5.88889">
        <ele>1805.99</ele>
        <time>2021-02-07T09:22:24Z</time>
      </trkpt>
      <trkpt lat="45.12844" lon="5.88889">
        <ele>1806.474</ele>
        <time>2021-02-07T09:22:29Z</time>
      </trkpt>
      <trkpt lat="45.12841" lon="5.8889">
        <ele>1807.954</ele>
        <time>2021-02-07T09:22:34Z</time>
      </trkpt>
      <trkpt lat="45.1284" lon="5.88891">
        <ele>1809.54</ele>
        <time>2021-02-07T09:22:39Z</time>
      </trkpt>
      <trkpt lat="45.12837" lon="5.88891">
        <ele>1810.415</ele>
        <time>2021-02-07T09:22:44Z</time>
      </trkpt>
      <trkpt lat="45.12835" lon="5.88892">
        <ele>1811.504</ele>
        <time>2021-02-07T09:22:49Z</time>
      </trkpt>
      <trkpt lat="45.12833" lon="5.88892">
        <ele>1812.969</ele>
        <time>2021-02-07T09:22:54Z</time>
      </trkpt>
      <trkpt lat="45.12831" lon="5.88893">
        <ele>1813.216</ele>
        <time>2021-02-07T09:22:59Z</time>
      </trkpt>
      <trkpt lat="45.12829" lon="5.88893">
        <ele>1814.158</ele>
        <time>2021-02-07T09:23:04Z</time>
      </trkpt>
      <trkpt lat="45.12828" lon="5.88893">
        <ele>1814.905</ele>
        <time>2021-02-07T09:23:09Z</time>
      </trkpt>
      <trkpt lat="45.12826" lon="5.88892">
        <ele>1815.606</ele>
        <time>2021-02-07T09:23:14Z</time>
      </trkpt>
      <trkpt lat="45.12823" lon="5.88893">
        <ele>1816.832</ele>
        <time>2021-02-07T09:23:19Z</time>
      </trkpt>
      <trkpt lat="45.12821" lon="5.88893">
        <ele>1817.831</ele>
        <time>2021-02-07T09:23:24Z</time>
      </trkpt>
      <trkpt lat="45.12819" lon="5.88893">
        <ele>1818.777</ele>
        <time>2021-02-07T09:23:29Z</time>
      </trkpt>
      <trkpt lat="45.12816" lon="5.88893">
        <ele>1819.951</ele>
        <time>2021-02-07T09:23:34Z</time>
      </trkpt>
      <trkpt lat="45.12814" lon="5.88893">
        <ele>1821.208</ele>
        <time>2021-02-07T09:23:39Z</time>
      </trkpt>
      <trkpt lat="45.12812" lon="5.88892">
        <ele>1821.629</ele>
        <time>2021-02-07T09:23:44Z</time>
      </trkpt>
      <trkpt lat="45.12809" lon="5.88892">
        <ele>1822.577</ele>
        <time>2021-02-07T09:23:49Z</time>
      </trkpt>
      <trkpt lat="45.12807" lon="5.88892">
        <ele>1823.095</ele>
        <time>2021-02-07T09:23:54Z</time>
      </trkpt>
      <trkpt lat="45.12805" lon="5.88891">
        <ele>1823.124</ele>
        <time>2021-02-07T09:23:59Z</time>
      </trkpt>
      <trkpt lat="45.12802" lon="5.88891">
        <ele>1824.237</ele>
        <time>2021-02-07T09:24:04Z</time>
      </trkpt>
      <trkpt lat="45.12799" lon="5.8889">
        <ele>1825.156</ele>
        <time>2021-02-07T09:24:09Z</time>
      </trkpt>
      <trkpt lat="45.12797" lon="5.8889">
        <ele>1825.77</ele>
        <time>2021-02-07T09:24:14Z</time>
      </trkpt>
      <trkpt lat="45.12794" lon="5.88889">
        <ele>1826.423</ele>
        <time>2021-02-07T09:24:19Z</time>
      </trkpt>
      <trkpt lat="45.12792" lon="5.88888">
        <ele>1826.785</ele>
        <time>2021-02-07T09:24:24Z</time>
      </trkpt>
      <trkpt lat="45.12789" lon="5.88888">
        <ele>1827.553</ele>
        <time>2021-02-07T09:24:29Z</time>
      </trkpt>
      <trkpt lat="45.12786" lon="5.88888">
        <ele>1828.072</ele>
        <time>2021-02-07T09:24:34Z</time>
      </trkpt>
      <trkpt lat="45.12783" lon="5.88887">
        <ele>1828.29</ele>
        <time>2021-02-07T09:24:39Z</time>
      </trkpt>
      <trkpt lat="45.1278" lon="5.88887">
        <ele>1829.271</ele>
        <time>2021-02-07T09:24:44Z</time>
      </trkpt>
      <trkpt lat="45.12777" lon="5.88886">
        <ele>1829.173</ele>
        <time>2021-02-07T09:24:49Z</time>
      </trkpt>
      <trkpt lat="45.12774" lon="5.88885">
        <ele>1829.192</ele>
        <time>2021-02-07T09:24:54Z</time>
      </trkpt>
      <trkpt lat="45.12771" lon="5.88884">
        <ele>1829.721</ele>
        <time>2021-02-07T09:24:59Z</time>
      </trkpt>
      <trkpt lat="45.12767" lon="5.88884">
        <ele>1831.541</ele>
        <time>2021-02-07T09:25:04Z</time>
      </trkpt>
      <trkpt lat="45.12763" lon="5.88885">
        <ele>1832.484</ele>
        <time>2021-02-07T09:25:09Z</time>
      </trkpt>
      <trkpt lat="45.12761" lon="5.88885">
        <ele>1833.087</ele>
        <time>2021-02-07T09:25:14Z</time>
      </trkpt>
      <trkpt lat="45.12758" lon="5.88886">
        <ele>1834.546</ele>
        <time>2021-02-07T09:25:19Z</time>
      </trkpt>
      <trkpt lat="45.12757" lon="5.88887">
        <ele>1834.681</ele>
        <time>2021-02-07T09:25:24Z</time>
      </trkpt>
      <trkpt lat="45.12755" lon="5.8889">
        <ele>1835.885</ele>
        <time>2021-02-07T09:25:29Z</time>
      </trkpt>
      <trkpt lat="45.12752" lon="5.88892">
        <ele>1836.735</ele>
        <time>2021-02-07T09:25:34Z</time>
      </trkpt>
      <trkpt lat="45.1275" lon="5.88895">
        <ele>1837.427</ele>
        <time>2021-02-07T09:25:39Z</time>
      </trkpt>
      <trkpt lat="45.12747" lon="5.88899">
        <ele>1838.189</ele>
        <time>2021-02-07T09:25:44Z</time>
      </trkpt>
      <trkpt lat="45.12744" lon="5.88901">
        <ele>1838.767</ele>
        <time>2021-02-07T09:25:49Z</time>
      </trkpt>
      <trkpt lat="45.12741" lon="5.88904">
        <ele>1840.435</ele>
        <time>2021-02-07T09:25:54Z</time>
      </trkpt>
      <trkpt lat="45.12739" lon="5.88907">
        <ele>1841.013</ele>
        <time>2021-02-07T09:25:59Z</time>
      </trkpt>
      <trkpt lat="45.12736" lon="5.8891">
        <ele>1842.387</ele>
        <time>2021-02-07T09:26:04Z</time>
      </trkpt>
      <trkpt lat="45.12734" lon="5.88913">
        <ele>1842.634</ele>
        <time>2021-02-07T09:26:09Z</time>
      </trkpt>
      <trkpt lat="45.12732" lon="5.88916">
        <ele>1843.9</ele>
        <time>2021-02-07T09:26:14Z</time>
      </trkpt>
      <trkpt lat="45.12731" lon="5.8892">
        <ele>1843.678</ele>
        <time>2021-02-07T09:26:19Z</time>
      </trkpt>
      <trkpt lat="45.1273" lon="5.88922">
        <ele>1844.176</ele>
        <time>2021-02-07T09:26:24Z</time>
      </trkpt>
      <trkpt lat="45.12728" lon="5.88924">
        <ele>1845.652</ele>
        <time>2021-02-07T09:26:29Z</time>
      </trkpt>
      <trkpt lat="45.12727" lon="5.88927">
        <ele>1846.659</ele>
        <time>2021-02-07T09:26:34Z</time>
      </trkpt>
      <trkpt lat="45.12726" lon="5.88931">
        <ele>1846.641</ele>
        <time>2021-02-07T09:26:39Z</time>
      </trkpt>
      <trkpt lat="45.12724" lon="5.88934">
        <ele>1848.474</ele>
        <time>2021-02-07T09:26:44Z</time>
      </trkpt>
      <trkpt lat="45.12723" lon="5.88937">
        <ele>1849.074</ele>
        <time>2021-02-07T09:26:49Z</time>
      </trkpt>
      <trkpt lat="45.1272" lon="5.88939">
        <ele>1849.826</ele>
        <time>2021-02-07T09:26:54Z</time>
      </trkpt>
      <trkpt lat="45.12718" lon="5.88942">
        <ele>1850.147</ele>
        <time>2021-02-07T09:26:59Z</time>
      </trkpt>
      <trkpt lat="45.12716" lon="5.88946">
        <ele>1850.818</ele>
        <time>2021-02-07T09:27:04Z</time>
      </trkpt>
      <trkpt lat="45.12714" lon="5.8895">
        <ele>1851.362</ele>
        <time>2021-02-07T09:27:09Z</time>
      </trkpt>
      <trkpt lat="45.12711" lon="5.88952">
        <ele>1851.614</ele>
        <time>2021-02-07T09:27:14Z</time>
      </trkpt>
      <trkpt lat="45.12708" lon="5.88955">
        <ele>1852.756</ele>
        <time>2021-02-07T09:27:19Z</time>
      </trkpt>
      <trkpt lat="45.12705" lon="5.88957">
        <ele>1853.506</ele>
        <time>2021-02-07T09:27:24Z</time>
      </trkpt>
      <trkpt lat="45.12704" lon="5.8896">
        <ele>1853.633</ele>
        <time>2021-02-07T09:27:29Z</time>
      </trkpt>
      <trkpt lat="45.12704" lon="5.8896">
        <ele>1853.474</ele>
        <time>2021-02-07T09:27:49Z</time>
      </trkpt>
      <trkpt lat="45.12704" lon="5.88961">
        <ele>1853.454</ele>
        <time>2021-02-07T09:28:04Z</time>
      </trkpt>
      <trkpt lat="45.12702" lon="5.88962">
        <ele>1853.96</ele>
        <time>2021-02-07T09:28:09Z</time>
      </trkpt>
      <trkpt lat="45.12699" lon="5.88964">
        <ele>1854.431</ele>
        <time>2021-02-07T09:28:14Z</time>
      </trkpt>
      <trkpt lat="45.12697" lon="5.88966">
        <ele>1855.152</ele>
        <time>2021-02-07T09:28:19Z</time>
      </trkpt>
      <trkpt lat="45.12694" lon="5.88968">
        <ele>1855.961</ele>
        <time>2021-02-07T09:28:24Z</time>
      </trkpt>
      <trkpt lat="45.12691" lon="5.88969">
        <ele>1856.878</ele>
        <time>2021-02-07T09:28:29Z</time>
      </trkpt>
      <trkpt lat="45.12689" lon="5.88972">
        <ele>1857.726</ele>
        <time>2021-02-07T09:28:34Z</time>
      </trkpt>
      <trkpt lat="45.12687" lon="5.88973">
        <ele>1858.646</ele>
        <time>2021-02-07T09:28:39Z</time>
      </trkpt>
      <trkpt lat="45.12685" lon="5.88975">
        <ele>1858.805</ele>
        <time>2021-02-07T09:28:44Z</time>
      </trkpt>
      <trkpt lat="45.12683" lon="5.88976">
        <ele>1859.726</ele>
        <time>2021-02-07T09:28:49Z</time>
      </trkpt>
      <trkpt lat="45.12681" lon="5.88977">
        <ele>1860.794</ele>
        <time>2021-02-07T09:28:54Z</time>
      </trkpt>
      <trkpt lat="45.1268" lon="5.88979">
        <ele>1861.458</ele>
        <time>2021-02-07T09:28:59Z</time>
      </trkpt>
      <trkpt lat="45.12678" lon="5.8898">
        <ele>1862.1</ele>
        <time>2021-02-07T09:29:04Z</time>
      </trkpt>
      <trkpt lat="45.12677" lon="5.88982">
        <ele>1862.741</ele>
        <time>2021-02-07T09:29:09Z</time>
      </trkpt>
      <trkpt lat="45.12675" lon="5.88984">
        <ele>1862.688</ele>
        <time>2021-02-07T09:29:14Z</time>
      </trkpt>
      <trkpt lat="45.12673" lon="5.88987">
        <ele>1863.399</ele>
        <time>2021-02-07T09:29:19Z</time>
      </trkpt>
      <trkpt lat="45.12671" lon="5.88989">
        <ele>1863.88</ele>
        <time>2021-02-07T09:29:24Z</time>
      </trkpt>
      <trkpt lat="45.12668" lon="5.88991">
        <ele>1864.709</ele>
        <time>2021-02-07T09:29:29Z</time>
      </trkpt>
      <trkpt lat="45.12667" lon="5.88993">
        <ele>1864.881</ele>
        <time>2021-02-07T09:29:34Z</time>
      </trkpt>
      <trkpt lat="45.12665" lon="5.88996">
        <ele>1864.727</ele>
        <time>2021-02-07T09:29:39Z</time>
      </trkpt>
      <trkpt lat="45.12663" lon="5.88998">
        <ele>1865.478</ele>
        <time>2021-02-07T09:29:44Z</time>
      </trkpt>
      <trkpt lat="45.1266" lon="5.89001">
        <ele>1866.275</ele>
        <time>2021-02-07T09:29:49Z</time>
      </trkpt>
      <trkpt lat="45.12658" lon="5.89004">
        <ele>1866.578</ele>
        <time>2021-02-07T09:29:54Z</time>
      </trkpt>
      <trkpt lat="45.12656" lon="5.89006">
        <ele>1867.53</ele>
        <time>2021-02-07T09:29:59Z</time>
      </trkpt>
      <trkpt lat="45.12654" lon="5.89008">
        <ele>1867.787</ele>
        <time>2021-02-07T09:30:04Z</time>
      </trkpt>
      <trkpt lat="45.12651" lon="5.8901">
        <ele>1868.717</ele>
        <time>2021-02-07T09:30:09Z</time>
      </trkpt>
      <trkpt lat="45.1265" lon="5.89012">
        <ele>1869.131</ele>
        <time>2021-02-07T09:30:14Z</time>
      </trkpt>
      <trkpt lat="45.12648" lon="5.89014">
        <ele>1869.769</ele>
        <time>2021-02-07T09:30:19Z</time>
      </trkpt>
      <trkpt lat="45.12647" lon="5.89015">
        <ele>1869.809</ele>
        <time>2021-02-07T09:30:24Z</time>
      </trkpt>
      <trkpt lat="45.12646" lon="5.89017">
        <ele>1870.934</ele>
        <time>2021-02-07T09:30:29Z</time>
      </trkpt>
      <trkpt lat="45.12644" lon="5.89019">
        <ele>1872.352</ele>
        <time>2021-02-07T09:30:34Z</time>
      </trkpt>
      <trkpt lat="45.12642" lon="5.8902">
        <ele>1873.496</ele>
        <time>2021-02-07T09:30:39Z</time>
      </trkpt>
      <trkpt lat="45.12641" lon="5.89022">
        <ele>1874.332</ele>
        <time>2021-02-07T09:30:44Z</time>
      </trkpt>
      <trkpt lat="45.12639" lon="5.89023">
        <ele>1875.417</ele>
        <time>2021-02-07T09:30:49Z</time>
      </trkpt>
      <trkpt lat="45.12638" lon="5.89024">
        <ele>1875.936</ele>
        <time>2021-02-07T09:30:54Z</time>
      </trkpt>
      <trkpt lat="45.12636" lon="5.89024">
        <ele>1876.631</ele>
        <time>2021-02-07T09:30:59Z</time>
      </trkpt>
      <trkpt lat="45.12635" lon="5.89025">
        <ele>1877.36</ele>
        <time>2021-02-07T09:31:04Z</time>
      </trkpt>
      <trkpt lat="45.12634" lon="5.89025">
        <ele>1877.817</ele>
        <time>2021-02-07T09:31:09Z</time>
      </trkpt>
      <trkpt lat="45.12632" lon="5.89026">
        <ele>1878.314</ele>
        <time>2021-02-07T09:31:14Z</time>
      </trkpt>
      <trkpt lat="45.12629" lon="5.89027">
        <ele>1879.178</ele>
        <time>2021-02-07T09:31:19Z</time>
      </trkpt>
      <trkpt lat="45.12627" lon="5.89027">
        <ele>1879.787</ele>
        <time>2021-02-07T09:31:24Z</time>
      </trkpt>
      <trkpt lat="45.12626" lon="5.89028">
        <ele>1880.029</ele>
        <time>2021-02-07T09:31:29Z</time>
      </trkpt>
      <trkpt lat="45.12624" lon="5.89029">
        <ele>1879.583</ele>
        <time>2021-02-07T09:31:34Z</time>
      </trkpt>
      <trkpt lat="45.12622" lon="5.89029">
        <ele>1880.223</ele>
        <time>2021-02-07T09:31:39Z</time>
      </trkpt>
      <trkpt lat="45.1262" lon="5.8903">
        <ele>1880.858</ele>
        <time>2021-02-07T09:31:44Z</time>
      </trkpt>
      <trkpt lat="45.12618" lon="5.89031">
        <ele>1880.959</ele>
        <time>2021-02-07T09:31:49Z</time>
      </trkpt>
      <trkpt lat="45.12617" lon="5.89031">
        <ele>1881.549</ele>
        <time>2021-02-07T09:31:54Z</time>
      </trkpt>
      <trkpt lat="45.12614" lon="5.89032">
        <ele>1881.927</ele>
        <time>2021-02-07T09:31:59Z</time>
      </trkpt>
      <trkpt lat="45.12613" lon="5.89033">
        <ele>1882.789</ele>
        <time>2021-02-07T09:32:04Z</time>
      </trkpt>
      <trkpt lat="45.12611" lon="5.89034">
        <ele>1884.033</ele>
        <time>2021-02-07T09:32:09Z</time>
      </trkpt>
      <trkpt lat="45.12611" lon="5.89036">
        <ele>1885.202</ele>
        <time>2021-02-07T09:32:14Z</time>
      </trkpt>
      <trkpt lat="45.12609" lon="5.89038">
        <ele>1886.167</ele>
        <time>2021-02-07T09:32:19Z</time>
      </trkpt>
      <trkpt lat="45.12609" lon="5.89041">
        <ele>1885.628</ele>
        <time>2021-02-07T09:32:24Z</time>
      </trkpt>
      <trkpt lat="45.1261" lon="5.89043">
        <ele>1886.059</ele>
        <time>2021-02-07T09:32:29Z</time>
      </trkpt>
      <trkpt lat="45.1261" lon="5.89045">
        <ele>1885.551</ele>
        <time>2021-02-07T09:32:34Z</time>
      </trkpt>
      <trkpt lat="45.12611" lon="5.89048">
        <ele>1885.851</ele>
        <time>2021-02-07T09:32:39Z</time>
      </trkpt>
      <trkpt lat="45.12611" lon="5.89052">
        <ele>1885.261</ele>
        <time>2021-02-07T09:32:44Z</time>
      </trkpt>
      <trkpt lat="45.12611" lon="5.89054">
        <ele>1885.74</ele>
        <time>2021-02-07T09:32:49Z</time>
      </trkpt>
      <trkpt lat="45.12611" lon="5.89057">
        <ele>1885.534</ele>
        <time>2021-02-07T09:32:54Z</time>
      </trkpt>
      <trkpt lat="45.1261" lon="5.8906">
        <ele>1885.045</ele>
        <time>2021-02-07T09:32:59Z</time>
      </trkpt>
      <trkpt lat="45.1261" lon="5.89063">
        <ele>1884.796</ele>
        <time>2021-02-07T09:33:04Z</time>
      </trkpt>
      <trkpt lat="45.1261" lon="5.89066">
        <ele>1885.689</ele>
        <time>2021-02-07T09:33:09Z</time>
      </trkpt>
      <trkpt lat="45.1261" lon="5.89069">
        <ele>1886.889</ele>
        <time>2021-02-07T09:33:14Z</time>
      </trkpt>
      <trkpt lat="45.12609" lon="5.89072">
        <ele>1887.32</ele>
        <time>2021-02-07T09:33:19Z</time>
      </trkpt>
      <trkpt lat="45.12608" lon="5.89075">
        <ele>1888.863</ele>
        <time>2021-02-07T09:33:24Z</time>
      </trkpt>
      <trkpt lat="45.12606" lon="5.89078">
        <ele>1888.54</ele>
        <time>2021-02-07T09:33:29Z</time>
      </trkpt>
      <trkpt lat="45.12606" lon="5.89082">
        <ele>1890.006</ele>
        <time>2021-02-07T09:33:34Z</time>
      </trkpt>
      <trkpt lat="45.12606" lon="5.89086">
        <ele>1889.714</ele>
        <time>2021-02-07T09:33:39Z</time>
      </trkpt>
      <trkpt lat="45.12606" lon="5.89089">
        <ele>1890.226</ele>
        <time>2021-02-07T09:33:44Z</time>
      </trkpt>
      <trkpt lat="45.12605" lon="5.89093">
        <ele>1890.499</ele>
        <time>2021-02-07T09:33:49Z</time>
      </trkpt>
      <trkpt lat="45.12604" lon="5.89097">
        <ele>1890.611</ele>
        <time>2021-02-07T09:33:54Z</time>
      </trkpt>
      <trkpt lat="45.12603" lon="5.89102">
        <ele>1891.061</ele>
        <time>2021-02-07T09:33:59Z</time>
      </trkpt>
      <trkpt lat="45.12602" lon="5.89107">
        <ele>1891.165</ele>
        <time>2021-02-07T09:34:04Z</time>
      </trkpt>
      <trkpt lat="45.12601" lon="5.89112">
        <ele>1891.59</ele>
        <time>2021-02-07T09:34:09Z</time>
      </trkpt>
      <trkpt lat="45.12599" lon="5.89116">
        <ele>1892.246</ele>
        <time>2021-02-07T09:34:14Z</time>
      </trkpt>
      <trkpt lat="45.12598" lon="5.8912">
        <ele>1892.51</ele>
        <time>2021-02-07T09:34:19Z</time>
      </trkpt>
      <trkpt lat="45.12597" lon="5.89124">
        <ele>1893.861</ele>
        <time>2021-02-07T09:34:24Z</time>
      </trkpt>
      <trkpt lat="45.12596" lon="5.89128">
        <ele>1894.058</ele>
        <time>2021-02-07T09:34:29Z</time>
      </trkpt>
      <trkpt lat="45.12595" lon="5.8913">
        <ele>1894.835</ele>
        <time>2021-02-07T09:34:34Z</time>
      </trkpt>
      <trkpt lat="45.12594" lon="5.89133">
        <ele>1895.891</ele>
        <time>2021-02-07T09:34:39Z</time>
      </trkpt>
      <trkpt lat="45.12594" lon="5.89136">
        <ele>1896.415</ele>
        <time>2021-02-07T09:34:44Z</time>
      </trkpt>
      <trkpt lat="45.12594" lon="5.8914">
        <ele>1896.841</ele>
        <time>2021-02-07T09:34:49Z</time>
      </trkpt>
      <trkpt lat="45.12594" lon="5.89143">
        <ele>1898.532</ele>
        <time>2021-02-07T09:34:54Z</time>
      </trkpt>
      <trkpt lat="45.12593" lon="5.89145">
        <ele>1898.795</ele>
        <time>2021-02-07T09:34:59Z</time>
      </trkpt>
      <trkpt lat="45.12593" lon="5.89147">
        <ele>1899.827</ele>
        <time>2021-02-07T09:35:04Z</time>
      </trkpt>
      <trkpt lat="45.12592" lon="5.8915">
        <ele>1901.222</ele>
        <time>2021-02-07T09:35:09Z</time>
      </trkpt>
      <trkpt lat="45.12592" lon="5.89152">
        <ele>1902.063</ele>
        <time>2021-02-07T09:35:14Z</time>
      </trkpt>
      <trkpt lat="45.12591" lon="5.89154">
        <ele>1904.291</ele>
        <time>2021-02-07T09:35:19Z</time>
      </trkpt>
      <trkpt lat="45.1259" lon="5.89157">
        <ele>1905.293</ele>
        <time>2021-02-07T09:35:24Z</time>
      </trkpt>
      <trkpt lat="45.12589" lon="5.89159">
        <ele>1905.911</ele>
        <time>2021-02-07T09:35:29Z</time>
      </trkpt>
      <trkpt lat="45.12588" lon="5.89162">
        <ele>1906.545</ele>
        <time>2021-02-07T09:35:34Z</time>
      </trkpt>
      <trkpt lat="45.12587" lon="5.89165">
        <ele>1906.625</ele>
        <time>2021-02-07T09:35:39Z</time>
      </trkpt>
      <trkpt lat="45.12587" lon="5.89169">
        <ele>1906.517</ele>
        <time>2021-02-07T09:35:44Z</time>
      </trkpt>
      <trkpt lat="45.12585" lon="5.89171">
        <ele>1907.44</ele>
        <time>2021-02-07T09:35:49Z</time>
      </trkpt>
      <trkpt lat="45.12585" lon="5.89175">
        <ele>1908.159</ele>
        <time>2021-02-07T09:35:54Z</time>
      </trkpt>
      <trkpt lat="45.12584" lon="5.89178">
        <ele>1909.056</ele>
        <time>2021-02-07T09:35:59Z</time>
      </trkpt>
      <trkpt lat="45.12583" lon="5.89182">
        <ele>1909.555</ele>
        <time>2021-02-07T09:36:04Z</time>
      </trkpt>
      <trkpt lat="45.12583" lon="5.89186">
        <ele>1910.003</ele>
        <time>2021-02-07T09:36:09Z</time>
      </trkpt>
      <trkpt lat="45.12581" lon="5.89189">
        <ele>1910.257</ele>
        <time>2021-02-07T09:36:14Z</time>
      </trkpt>
      <trkpt lat="45.12581" lon="5.89191">
        <ele>1910.731</ele>
        <time>2021-02-07T09:36:19Z</time>
      </trkpt>
      <trkpt lat="45.1258" lon="5.89195">
        <ele>1910.49</ele>
        <time>2021-02-07T09:36:24Z</time>
      </trkpt>
      <trkpt lat="45.12579" lon="5.89199">
        <ele>1911.883</ele>
        <time>2021-02-07T09:36:29Z</time>
      </trkpt>
      <trkpt lat="45.12578" lon="5.89203">
        <ele>1912.687</ele>
        <time>2021-02-07T09:36:34Z</time>
      </trkpt>
      <trkpt lat="45.12578" lon="5.89206">
        <ele>1912.889</ele>
        <time>2021-02-07T09:36:39Z</time>
      </trkpt>
      <trkpt lat="45.12578" lon="5.89209">
        <ele>1914.497</ele>
        <time>2021-02-07T09:36:44Z</time>
      </trkpt>
      <trkpt lat="45.12578" lon="5.89212">
        <ele>1914.626</ele>
        <time>2021-02-07T09:36:49Z</time>
      </trkpt>
      <trkpt lat="45.12577" lon="5.89216">
        <ele>1914.865</ele>
        <time>2021-02-07T09:36:54Z</time>
      </trkpt>
      <trkpt lat="45.12577" lon="5.89218">
        <ele>1916.067</ele>
        <time>2021-02-07T09:36:59Z</time>
      </trkpt>
      <trkpt lat="45.12576" lon="5.8922">
        <ele>1917.507</ele>
        <time>2021-02-07T09:37:04Z</time>
      </trkpt>
      <trkpt lat="45.12576" lon="5.89223">
        <ele>1917.408</ele>
        <time>2021-02-07T09:37:09Z</time>
      </trkpt>
      <trkpt lat="45.12576" lon="5.89226">
        <ele>1917.433</ele>
        <time>2021-02-07T09:37:14Z</time>
      </trkpt>
      <trkpt lat="45.12576" lon="5.89229">
        <ele>1917.472</ele>
        <time>2021-02-07T09:37:19Z</time>
      </trkpt>
      <trkpt lat="45.12576" lon="5.89233">
        <ele>1918.566</ele>
        <time>2021-02-07T09:37:24Z</time>
      </trkpt>
      <trkpt lat="45.12575" lon="5.89236">
        <ele>1918.388</ele>
        <time>2021-02-07T09:37:29Z</time>
      </trkpt>
      <trkpt lat="45.12575" lon="5.89239">
        <ele>1919.296</ele>
        <time>2021-02-07T09:37:34Z</time>
      </trkpt>
      <trkpt lat="45.12575" lon="5.89243">
        <ele>1919.537</ele>
        <time>2021-02-07T09:37:39Z</time>
      </trkpt>
      <trkpt lat="45.12575" lon="5.89246">
        <ele>1920.256</ele>
        <time>2021-02-07T09:37:44Z</time>
      </trkpt>
      <trkpt lat="45.12575" lon="5.8925">
        <ele>1920.485</ele>
        <time>2021-02-07T09:37:49Z</time>
      </trkpt>
      <trkpt lat="45.12575" lon="5.89253">
        <ele>1921.032</ele>
        <time>2021-02-07T09:37:54Z</time>
      </trkpt>
      <trkpt lat="45.12575" lon="5.89256">
        <ele>1922.283</ele>
        <time>2021-02-07T09:37:59Z</time>
      </trkpt>
      <trkpt lat="45.12575" lon="5.89259">
        <ele>1923.265</ele>
        <time>2021-02-07T09:38:04Z</time>
      </trkpt>
      <trkpt lat="45.12575" lon="5.89262">
        <ele>1924.479</ele>
        <time>2021-02-07T09:38:09Z</time>
      </trkpt>
      <trkpt lat="45.12575" lon="5.89265">
        <ele>1925.23</ele>
        <time>2021-02-07T09:38:14Z</time>
      </trkpt>
      <trkpt lat="45.12576" lon="5.89268">
        <ele>1925.764</ele>
        <time>2021-02-07T09:38:19Z</time>
      </trkpt>
      <trkpt lat="45.12576" lon="5.89271">
        <ele>1925.68</ele>
        <time>2021-02-07T09:38:24Z</time>
      </trkpt>
      <trkpt lat="45.12576" lon="5.89275">
        <ele>1925.917</ele>
        <time>2021-02-07T09:38:29Z</time>
      </trkpt>
      <trkpt lat="45.12576" lon="5.89278">
        <ele>1927.219</ele>
        <time>2021-02-07T09:38:34Z</time>
      </trkpt>
      <trkpt lat="45.12576" lon="5.8928">
        <ele>1928.04</ele>
        <time>2021-02-07T09:38:39Z</time>
      </trkpt>
      <trkpt lat="45.12576" lon="5.89283">
        <ele>1928.269</ele>
        <time>2021-02-07T09:38:44Z</time>
      </trkpt>
      <trkpt lat="45.12576" lon="5.89285">
        <ele>1928.797</ele>
        <time>2021-02-07T09:38:49Z</time>
      </trkpt>
      <trkpt lat="45.12577" lon="5.89288">
        <ele>1929.244</ele>
        <time>2021-02-07T09:38:54Z</time>
      </trkpt>
      <trkpt lat="45.12576" lon="5.89291">
        <ele>1929.279</ele>
        <time>2021-02-07T09:38:59Z</time>
      </trkpt>
      <trkpt lat="45.12576" lon="5.89293">
        <ele>1930.744</ele>
        <time>2021-02-07T09:39:04Z</time>
      </trkpt>
      <trkpt lat="45.12576" lon="5.89296">
        <ele>1931.741</ele>
        <time>2021-02-07T09:39:09Z</time>
      </trkpt>
      <trkpt lat="45.12576" lon="5.89299">
        <ele>1932.519</ele>
        <time>2021-02-07T09:39:14Z</time>
      </trkpt>
      <trkpt lat="45.12577" lon="5.89302">
        <ele>1933.158</ele>
        <time>2021-02-07T09:39:19Z</time>
      </trkpt>
      <trkpt lat="45.12578" lon="5.89305">
        <ele>1933.884</ele>
        <time>2021-02-07T09:39:24Z</time>
      </trkpt>
      <trkpt lat="45.12577" lon="5.89308">
        <ele>1934.559</ele>
        <time>2021-02-07T09:39:29Z</time>
      </trkpt>
      <trkpt lat="45.12578" lon="5.89311">
        <ele>1936.11</ele>
        <time>2021-02-07T09:39:34Z</time>
      </trkpt>
      <trkpt lat="45.12578" lon="5.89313">
        <ele>1936.521</ele>
        <time>2021-02-07T09:39:39Z</time>
      </trkpt>
      <trkpt lat="45.12578" lon="5.89316">
        <ele>1936.799</ele>
        <time>2021-02-07T09:39:44Z</time>
      </trkpt>
      <trkpt lat="45.12578" lon="5.89319">
        <ele>1937.391</ele>
        <time>2021-02-07T09:39:49Z</time>
      </trkpt>
      <trkpt lat="45.12578" lon="5.89322">
        <ele>1937.199</ele>
        <time>2021-02-07T09:39:54Z</time>
      </trkpt>
      <trkpt lat="45.12578" lon="5.89325">
        <ele>1937.234</ele>
        <time>2021-02-07T09:39:59Z</time>
      </trkpt>
      <trkpt lat="45.12578" lon="5.89329">
        <ele>1937.337</ele>
        <time>2021-02-07T09:40:04Z</time>
      </trkpt>
      <trkpt lat="45.12578" lon="5.89333">
        <ele>1937.222</ele>
        <time>2021-02-07T09:40:09Z</time>
      </trkpt>
      <trkpt lat="45.12579" lon="5.89336">
        <ele>1937.308</ele>
        <time>2021-02-07T09:40:14Z</time>
      </trkpt>
      <trkpt lat="45.1258" lon="5.8934">
        <ele>1937.781</ele>
        <time>2021-02-07T09:40:19Z</time>
      </trkpt>
      <trkpt lat="45.1258" lon="5.89344">
        <ele>1938.261</ele>
        <time>2021-02-07T09:40:24Z</time>
      </trkpt>
      <trkpt lat="45.1258" lon="5.89348">
        <ele>1938.952</ele>
        <time>2021-02-07T09:40:29Z</time>
      </trkpt>
      <trkpt lat="45.1258" lon="5.89352">
        <ele>1939.149</ele>
        <time>2021-02-07T09:40:34Z</time>
      </trkpt>
      <trkpt lat="45.12581" lon="5.89355">
        <ele>1938.449</ele>
        <time>2021-02-07T09:40:39Z</time>
      </trkpt>
      <trkpt lat="45.1258" lon="5.89361">
        <ele>1939.045</ele>
        <time>2021-02-07T09:40:44Z</time>
      </trkpt>
      <trkpt lat="45.12581" lon="5.89365">
        <ele>1939.514</ele>
        <time>2021-02-07T09:40:49Z</time>
      </trkpt>
      <trkpt lat="45.12582" lon="5.89368">
        <ele>1940.683</ele>
        <time>2021-02-07T09:40:54Z</time>
      </trkpt>
      <trkpt lat="45.12582" lon="5.89373">
        <ele>1940.633</ele>
        <time>2021-02-07T09:40:59Z</time>
      </trkpt>
      <trkpt lat="45.12582" lon="5.89377">
        <ele>1940.372</ele>
        <time>2021-02-07T09:41:04Z</time>
      </trkpt>
      <trkpt lat="45.12585" lon="5.89379">
        <ele>1942.733</ele>
        <time>2021-02-07T09:41:09Z</time>
      </trkpt>
      <trkpt lat="45.12586" lon="5.8938">
        <ele>1944.103</ele>
        <time>2021-02-07T09:41:14Z</time>
      </trkpt>
      <trkpt lat="45.12586" lon="5.89379">
        <ele>1945.094</ele>
        <time>2021-02-07T09:41:19Z</time>
      </trkpt>
      <trkpt lat="45.12586" lon="5.89378">
        <ele>1945.82</ele>
        <time>2021-02-07T09:41:24Z</time>
      </trkpt>
      <trkpt lat="45.12585" lon="5.89377">
        <ele>1947.444</ele>
        <time>2021-02-07T09:41:34Z</time>
      </trkpt>
      <trkpt lat="45.12585" lon="5.89376">
        <ele>1947.644</ele>
        <time>2021-02-07T09:41:49Z</time>
      </trkpt>
      <trkpt lat="45.12585" lon="5.89376">
        <ele>1947.673</ele>
        <time>2021-02-07T09:41:54Z</time>
      </trkpt>
      <trkpt lat="45.12585" lon="5.89376">
        <ele>1948.663</ele>
        <time>2021-02-07T09:42:14Z</time>
      </trkpt>
      <trkpt lat="45.12585" lon="5.89376">
        <ele>1948.699</ele>
        <time>2021-02-07T09:42:34Z</time>
      </trkpt>
      <trkpt lat="45.12586" lon="5.89377">
        <ele>1948.986</ele>
        <time>2021-02-07T09:42:49Z</time>
      </trkpt>
      <trkpt lat="45.12586" lon="5.89377">
        <ele>1948.956</ele>
        <time>2021-02-07T09:42:59Z</time>
      </trkpt>
      <trkpt lat="45.12586" lon="5.89377">
        <ele>1948.963</ele>
        <time>2021-02-07T09:43:19Z</time>
      </trkpt>
      <trkpt lat="45.12586" lon="5.89378">
        <ele>1948.941</ele>
        <time>2021-02-07T09:43:39Z</time>
      </trkpt>
      <trkpt lat="45.12586" lon="5.89382">
        <ele>1949.432</ele>
        <time>2021-02-07T09:43:44Z</time>
      </trkpt>
      <trkpt lat="45.12587" lon="5.89387">
        <ele>1949.221</ele>
        <time>2021-02-07T09:43:49Z</time>
      </trkpt>
      <trkpt lat="45.12587" lon="5.89392">
        <ele>1948.939</ele>
        <time>2021-02-07T09:43:54Z</time>
      </trkpt>
      <trkpt lat="45.12587" lon="5.89396">
        <ele>1949.258</ele>
        <time>2021-02-07T09:43:59Z</time>
      </trkpt>
      <trkpt lat="45.12587" lon="5.894">
        <ele>1948.763</ele>
        <time>2021-02-07T09:44:04Z</time>
      </trkpt>
      <trkpt lat="45.12587" lon="5.89402">
        <ele>1948.705</ele>
        <time>2021-02-07T09:44:09Z</time>
      </trkpt>
      <trkpt lat="45.12587" lon="5.89403">
        <ele>1948.493</ele>
        <time>2021-02-07T09:44:14Z</time>
      </trkpt>
      <trkpt lat="45.12586" lon="5.89405">
        <ele>1948.164</ele>
        <time>2021-02-07T09:44:19Z</time>
      </trkpt>
      <trkpt lat="45.12585" lon="5.89406">
        <ele>1948.051</ele>
        <time>2021-02-07T09:44:24Z</time>
      </trkpt>
      <trkpt lat="45.12585" lon="5.89408">
        <ele>1948.563</ele>
        <time>2021-02-07T09:44:39Z</time>
      </trkpt>
      <trkpt lat="45.12586" lon="5.89411">
        <ele>1948.28</ele>
        <time>2021-02-07T09:44:44Z</time>
      </trkpt>
      <trkpt lat="45.12587" lon="5.89414">
        <ele>1949.053</ele>
        <time>2021-02-07T09:44:49Z</time>
      </trkpt>
      <trkpt lat="45.12588" lon="5.89416">
        <ele>1950.446</ele>
        <time>2021-02-07T09:44:54Z</time>
      </trkpt>
      <trkpt lat="45.12588" lon="5.8942">
        <ele>1950.819</ele>
        <time>2021-02-07T09:44:59Z</time>
      </trkpt>
      <trkpt lat="45.12589" lon="5.89423">
        <ele>1952.104</ele>
        <time>2021-02-07T09:45:04Z</time>
      </trkpt>
      <trkpt lat="45.12589" lon="5.89426">
        <ele>1952.527</ele>
        <time>2021-02-07T09:45:09Z</time>
      </trkpt>
      <trkpt lat="45.12589" lon="5.89429">
        <ele>1953.024</ele>
        <time>2021-02-07T09:45:14Z</time>
      </trkpt>
      <trkpt lat="45.12589" lon="5.89432">
        <ele>1954.886</ele>
        <time>2021-02-07T09:45:19Z</time>
      </trkpt>
      <trkpt lat="45.1259" lon="5.89435">
        <ele>1956.108</ele>
        <time>2021-02-07T09:45:24Z</time>
      </trkpt>
      <trkpt lat="45.1259" lon="5.89438">
        <ele>1956.866</ele>
        <time>2021-02-07T09:45:29Z</time>
      </trkpt>
      <trkpt lat="45.1259" lon="5.89441">
        <ele>1957.561</ele>
        <time>2021-02-07T09:45:34Z</time>
      </trkpt>
      <trkpt lat="45.12591" lon="5.89444">
        <ele>1959.297</ele>
        <time>2021-02-07T09:45:39Z</time>
      </trkpt>
      <trkpt lat="45.12591" lon="5.89447">
        <ele>1959.059</ele>
        <time>2021-02-07T09:45:44Z</time>
      </trkpt>
      <trkpt lat="45.12591" lon="5.89448">
        <ele>1959.933</ele>
        <time>2021-02-07T09:45:49Z</time>
      </trkpt>
      <trkpt lat="45.12592" lon="5.8945">
        <ele>1960.884</ele>
        <time>2021-02-07T09:45:54Z</time>
      </trkpt>
      <trkpt lat="45.12592" lon="5.89452">
        <ele>1960.812</ele>
        <time>2021-02-07T09:45:59Z</time>
      </trkpt>
      <trkpt lat="45.12592" lon="5.89454">
        <ele>1961.037</ele>
        <time>2021-02-07T09:46:04Z</time>
      </trkpt>
      <trkpt lat="45.12593" lon="5.89456">
        <ele>1961.796</ele>
        <time>2021-02-07T09:46:09Z</time>
      </trkpt>
      <trkpt lat="45.12593" lon="5.89458">
        <ele>1963.282</ele>
        <time>2021-02-07T09:46:14Z</time>
      </trkpt>
      <trkpt lat="45.12594" lon="5.89459">
        <ele>1964.227</ele>
        <time>2021-02-07T09:46:19Z</time>
      </trkpt>
      <trkpt lat="45.12595" lon="5.89461">
        <ele>1965.234</ele>
        <time>2021-02-07T09:46:24Z</time>
      </trkpt>
      <trkpt lat="45.12595" lon="5.89464">
        <ele>1965.797</ele>
        <time>2021-02-07T09:46:29Z</time>
      </trkpt>
      <trkpt lat="45.12596" lon="5.89467">
        <ele>1965.288</ele>
        <time>2021-02-07T09:46:34Z</time>
      </trkpt>
      <trkpt lat="45.12596" lon="5.89469">
        <ele>1965.206</ele>
        <time>2021-02-07T09:46:39Z</time>
      </trkpt>
      <trkpt lat="45.12596" lon="5.89472">
        <ele>1966.432</ele>
        <time>2021-02-07T09:46:44Z</time>
      </trkpt>
      <trkpt lat="45.12596" lon="5.89474">
        <ele>1966.467</ele>
        <time>2021-02-07T09:46:49Z</time>
      </trkpt>
      <trkpt lat="45.12597" lon="5.89477">
        <ele>1967.124</ele>
        <time>2021-02-07T09:46:54Z</time>
      </trkpt>
      <trkpt lat="45.12597" lon="5.8948">
        <ele>1967.706</ele>
        <time>2021-02-07T09:46:59Z</time>
      </trkpt>
      <trkpt lat="45.12597" lon="5.89482">
        <ele>1968.776</ele>
        <time>2021-02-07T09:47:04Z</time>
      </trkpt>
      <trkpt lat="45.12597" lon="5.89485">
        <ele>1969.835</ele>
        <time>2021-02-07T09:47:09Z</time>
      </trkpt>
      <trkpt lat="45.12597" lon="5.89488">
        <ele>1970.425</ele>
        <time>2021-02-07T09:47:14Z</time>
      </trkpt>
      <trkpt lat="45.12598" lon="5.89492">
        <ele>1970.479</ele>
        <time>2021-02-07T09:47:19Z</time>
      </trkpt>
      <trkpt lat="45.12598" lon="5.89496">
        <ele>1972.271</ele>
        <time>2021-02-07T09:47:24Z</time>
      </trkpt>
      <trkpt lat="45.12598" lon="5.895">
        <ele>1971.543</ele>
        <time>2021-02-07T09:47:29Z</time>
      </trkpt>
      <trkpt lat="45.12597" lon="5.89504">
        <ele>1971.129</ele>
        <time>2021-02-07T09:47:34Z</time>
      </trkpt>
      <trkpt lat="45.12597" lon="5.89509">
        <ele>1971.76</ele>
        <time>2021-02-07T09:47:39Z</time>
      </trkpt>
      <trkpt lat="45.12597" lon="5.89513">
        <ele>1972.34</ele>
        <time>2021-02-07T09:47:44Z</time>
      </trkpt>
      <trkpt lat="45.12597" lon="5.89517">
        <ele>1972.905</ele>
        <time>2021-02-07T09:47:49Z</time>
      </trkpt>
      <trkpt lat="45.12597" lon="5.89522">
        <ele>1973.272</ele>
        <time>2021-02-07T09:47:54Z</time>
      </trkpt>
      <trkpt lat="45.12598" lon="5.89527">
        <ele>1973.311</ele>
        <time>2021-02-07T09:47:59Z</time>
      </trkpt>
      <trkpt lat="45.12598" lon="5.89532">
        <ele>1975.288</ele>
        <time>2021-02-07T09:48:04Z</time>
      </trkpt>
      <trkpt lat="45.12599" lon="5.89536">
        <ele>1975.92</ele>
        <time>2021-02-07T09:48:09Z</time>
      </trkpt>
      <trkpt lat="45.126" lon="5.89539">
        <ele>1976.387</ele>
        <time>2021-02-07T09:48:14Z</time>
      </trkpt>
      <trkpt lat="45.12603" lon="5.8954">
        <ele>1977.85</ele>
        <time>2021-02-07T09:48:19Z</time>
      </trkpt>
      <trkpt lat="45.12605" lon="5.89542">
        <ele>1977.864</ele>
        <time>2021-02-07T09:48:24Z</time>
      </trkpt>
      <trkpt lat="45.12608" lon="5.89543">
        <ele>1978.995</ele>
        <time>2021-02-07T09:48:29Z</time>
      </trkpt>
      <trkpt lat="45.1261" lon="5.89542">
        <ele>1980.618</ele>
        <time>2021-02-07T09:48:34Z</time>
      </trkpt>
      <trkpt lat="45.12611" lon="5.89542">
        <ele>1981.133</ele>
        <time>2021-02-07T09:48:54Z</time>
      </trkpt>
      <trkpt lat="45.12611" lon="5.89542">
        <ele>1981.159</ele>
        <time>2021-02-07T09:48:59Z</time>
      </trkpt>
      <trkpt lat="45.12611" lon="5.89542">
        <ele>1981.4</ele>
        <time>2021-02-07T09:49:19Z</time>
      </trkpt>
      <trkpt lat="45.12611" lon="5.89542">
        <ele>1981.448</ele>
        <time>2021-02-07T09:49:39Z</time>
      </trkpt>
      <trkpt lat="45.12611" lon="5.89542">
        <ele>1981.486</ele>
        <time>2021-02-07T09:49:59Z</time>
      </trkpt>
      <trkpt lat="45.12611" lon="5.89542">
        <ele>1981.43</ele>
        <time>2021-02-07T09:50:19Z</time>
      </trkpt>
      <trkpt lat="45.12611" lon="5.89542">
        <ele>1981.482</ele>
        <time>2021-02-07T09:50:39Z</time>
      </trkpt>
      <trkpt lat="45.12611" lon="5.89542">
        <ele>1981.508</ele>
        <time>2021-02-07T09:50:59Z</time>
      </trkpt>
      <trkpt lat="45.12611" lon="5.89542">
        <ele>1981.562</ele>
        <time>2021-02-07T09:51:19Z</time>
      </trkpt>
      <trkpt lat="45.12611" lon="5.89542">
        <ele>1981.678</ele>
        <time>2021-02-07T09:51:39Z</time>
      </trkpt>
      <trkpt lat="45.12611" lon="5.89542">
        <ele>1981.701</ele>
        <time>2021-02-07T09:51:59Z</time>
      </trkpt>
      <trkpt lat="45.12611" lon="5.89542">
        <ele>1981.808</ele>
        <time>2021-02-07T09:52:19Z</time>
      </trkpt>
      <trkpt lat="45.12611" lon="5.89542">
        <ele>1981.85</ele>
        <time>2021-02-07T09:52:39Z</time>
      </trkpt>
      <trkpt lat="45.12611" lon="5.89541">
        <ele>1982.185</ele>
        <time>2021-02-07T09:52:44Z</time>
      </trkpt>
      <trkpt lat="45.12611" lon="5.89541">
        <ele>1982.467</ele>
        <time>2021-02-07T09:53:04Z</time>
      </trkpt>
      <trkpt lat="45.12611" lon="5.8954">
        <ele>1982.503</ele>
        <time>2021-02-07T09:53:19Z</time>
      </trkpt>
      <trkpt lat="45.12611" lon="5.8954">
        <ele>1982.536</ele>
        <time>2021-02-07T09:53:29Z</time>
      </trkpt>
      <trkpt lat="45.12611" lon="5.8954">
        <ele>1982.587</ele>
        <time>2021-02-07T09:53:49Z</time>
      </trkpt>
      <trkpt lat="45.12611" lon="5.89541">
        <ele>1983.192</ele>
        <time>2021-02-07T09:53:59Z</time>
      </trkpt>
      <trkpt lat="45.12611" lon="5.8954">
        <ele>1983.381</ele>
        <time>2021-02-07T09:54:09Z</time>
      </trkpt>
      <trkpt lat="45.12609" lon="5.89543">
        <ele>1983.353</ele>
        <time>2021-02-07T09:54:14Z</time>
      </trkpt>
      <trkpt lat="45.12609" lon="5.89545">
        <ele>1984.223</ele>
        <time>2021-02-07T09:54:19Z</time>
      </trkpt>
      <trkpt lat="45.12608" lon="5.89548">
        <ele>1984.256</ele>
        <time>2021-02-07T09:54:24Z</time>
      </trkpt>
      <trkpt lat="45.12609" lon="5.8955">
        <ele>1985.282</ele>
        <time>2021-02-07T09:54:29Z</time>
      </trkpt>
      <trkpt lat="45.1261" lon="5.89553">
        <ele>1987.439</ele>
        <time>2021-02-07T09:54:34Z</time>
      </trkpt>
      <trkpt lat="45.12611" lon="5.89555">
        <ele>1987.893</ele>
        <time>2021-02-07T09:54:39Z</time>
      </trkpt>
      <trkpt lat="45.12612" lon="5.89558">
        <ele>1987.994</ele>
        <time>2021-02-07T09:54:44Z</time>
      </trkpt>
      <trkpt lat="45.12612" lon="5.8956">
        <ele>1988.504</ele>
        <time>2021-02-07T09:54:49Z</time>
      </trkpt>
      <trkpt lat="45.12612" lon="5.89561">
        <ele>1988.922</ele>
        <time>2021-02-07T09:54:54Z</time>
      </trkpt>
      <trkpt lat="45.12613" lon="5.89564">
        <ele>1989.266</ele>
        <time>2021-02-07T09:54:59Z</time>
      </trkpt>
      <trkpt lat="45.12613" lon="5.89566">
        <ele>1989.524</ele>
        <time>2021-02-07T09:55:04Z</time>
      </trkpt>
      <trkpt lat="45.12614" lon="5.89569">
        <ele>1990.125</ele>
        <time>2021-02-07T09:55:09Z</time>
      </trkpt>
      <trkpt lat="45.12614" lon="5.89572">
        <ele>1990.156</ele>
        <time>2021-02-07T09:55:14Z</time>
      </trkpt>
      <trkpt lat="45.12615" lon="5.89576">
        <ele>1990.725</ele>
        <time>2021-02-07T09:55:19Z</time>
      </trkpt>
      <trkpt lat="45.12615" lon="5.8958">
        <ele>1992.008</ele>
        <time>2021-02-07T09:55:24Z</time>
      </trkpt>
      <trkpt lat="45.12615" lon="5.89584">
        <ele>1992.91</ele>
        <time>2021-02-07T09:55:29Z</time>
      </trkpt>
      <trkpt lat="45.12615" lon="5.89587">
        <ele>1993.168</ele>
        <time>2021-02-07T09:55:34Z</time>
      </trkpt>
      <trkpt lat="45.12614" lon="5.8959">
        <ele>1993.359</ele>
        <time>2021-02-07T09:55:39Z</time>
      </trkpt>
      <trkpt lat="45.12613" lon="5.89593">
        <ele>1993.742</ele>
        <time>2021-02-07T09:55:44Z</time>
      </trkpt>
      <trkpt lat="45.12611" lon="5.89596">
        <ele>1995.262</ele>
        <time>2021-02-07T09:55:49Z</time>
      </trkpt>
      <trkpt lat="45.12609" lon="5.896">
        <ele>1996.935</ele>
        <time>2021-02-07T09:55:54Z</time>
      </trkpt>
      <trkpt lat="45.12607" lon="5.89602">
        <ele>1999.095</ele>
        <time>2021-02-07T09:55:59Z</time>
      </trkpt>
      <trkpt lat="45.12604" lon="5.896">
        <ele>2002.722</ele>
        <time>2021-02-07T09:56:04Z</time>
      </trkpt>
      <trkpt lat="45.12603" lon="5.89598">
        <ele>2004.874</ele>
        <time>2021-02-07T09:56:09Z</time>
      </trkpt>
      <trkpt lat="45.126" lon="5.89597">
        <ele>2006.867</ele>
        <time>2021-02-07T09:56:14Z</time>
      </trkpt>
      <trkpt lat="45.12598" lon="5.89595">
        <ele>2008.148</ele>
        <time>2021-02-07T09:56:19Z</time>
      </trkpt>
      <trkpt lat="45.12596" lon="5.89594">
        <ele>2008.869</ele>
        <time>2021-02-07T09:56:24Z</time>
      </trkpt>
      <trkpt lat="45.12594" lon="5.89593">
        <ele>2009.444</ele>
        <time>2021-02-07T09:56:29Z</time>
      </trkpt>
      <trkpt lat="45.12593" lon="5.89591">
        <ele>2009.834</ele>
        <time>2021-02-07T09:56:34Z</time>
      </trkpt>
      <trkpt lat="45.1259" lon="5.89588">
        <ele>2011.004</ele>
        <time>2021-02-07T09:56:39Z</time>
      </trkpt>
      <trkpt lat="45.12589" lon="5.89585">
        <ele>2011.917</ele>
        <time>2021-02-07T09:56:44Z</time>
      </trkpt>
      <trkpt lat="45.12588" lon="5.89583">
        <ele>2012.656</ele>
        <time>2021-02-07T09:56:49Z</time>
      </trkpt>
      <trkpt lat="45.12586" lon="5.89581">
        <ele>2012.664</ele>
        <time>2021-02-07T09:56:54Z</time>
      </trkpt>
      <trkpt lat="45.12584" lon="5.89579">
        <ele>2013.683</ele>
        <time>2021-02-07T09:56:59Z</time>
      </trkpt>
      <trkpt lat="45.12582" lon="5.89577">
        <ele>2014.939</ele>
        <time>2021-02-07T09:57:04Z</time>
      </trkpt>
      <trkpt lat="45.1258" lon="5.89578">
        <ele>2015.306</ele>
        <time>2021-02-07T09:57:09Z</time>
      </trkpt>
      <trkpt lat="45.12579" lon="5.8958">
        <ele>2015.803</ele>
        <time>2021-02-07T09:57:14Z</time>
      </trkpt>
      <trkpt lat="45.12577" lon="5.89581">
        <ele>2015.931</ele>
        <time>2021-02-07T09:57:19Z</time>
      </trkpt>
      <trkpt lat="45.12575" lon="5.89583">
        <ele>2016.648</ele>
        <time>2021-02-07T09:57:24Z</time>
      </trkpt>
      <trkpt lat="45.12573" lon="5.89582">
        <ele>2018.493</ele>
        <time>2021-02-07T09:57:29Z</time>
      </trkpt>
      <trkpt lat="45.12572" lon="5.89582">
        <ele>2020.271</ele>
        <time>2021-02-07T09:57:34Z</time>
      </trkpt>
      <trkpt lat="45.1257" lon="5.89583">
        <ele>2021.208</ele>
        <time>2021-02-07T09:57:39Z</time>
      </trkpt>
      <trkpt lat="45.12569" lon="5.89583">
        <ele>2021.635</ele>
        <time>2021-02-07T09:57:44Z</time>
      </trkpt>
      <trkpt lat="45.12567" lon="5.89582">
        <ele>2021.832</ele>
        <time>2021-02-07T09:57:49Z</time>
      </trkpt>
      <trkpt lat="45.12564" lon="5.8958">
        <ele>2022.425</ele>
        <time>2021-02-07T09:57:54Z</time>
      </trkpt>
      <trkpt lat="45.12563" lon="5.89581">
        <ele>2022.592</ele>
        <time>2021-02-07T09:57:59Z</time>
      </trkpt>
      <trkpt lat="45.12561" lon="5.89581">
        <ele>2023.779</ele>
        <time>2021-02-07T09:58:04Z</time>
      </trkpt>
      <trkpt lat="45.1256" lon="5.8958">
        <ele>2024.133</ele>
        <time>2021-02-07T09:58:09Z</time>
      </trkpt>
      <trkpt lat="45.12558" lon="5.89581">
        <ele>2024.89</ele>
        <time>2021-02-07T09:58:14Z</time>
      </trkpt>
      <trkpt lat="45.12556" lon="5.89582">
        <ele>2026.679</ele>
        <time>2021-02-07T09:58:19Z</time>
      </trkpt>
      <trkpt lat="45.12554" lon="5.89582">
        <ele>2026.802</ele>
        <time>2021-02-07T09:58:24Z</time>
      </trkpt>
      <trkpt lat="45.12553" lon="5.89583">
        <ele>2027.416</ele>
        <time>2021-02-07T09:58:29Z</time>
      </trkpt>
      <trkpt lat="45.1255" lon="5.89583">
        <ele>2028.741</ele>
        <time>2021-02-07T09:58:34Z</time>
      </trkpt>
      <trkpt lat="45.12549" lon="5.89583">
        <ele>2029.244</ele>
        <time>2021-02-07T09:58:39Z</time>
      </trkpt>
      <trkpt lat="45.12548" lon="5.89585">
        <ele>2029.457</ele>
        <time>2021-02-07T09:58:44Z</time>
      </trkpt>
      <trkpt lat="45.12546" lon="5.89585">
        <ele>2029.689</ele>
        <time>2021-02-07T09:58:49Z</time>
      </trkpt>
      <trkpt lat="45.12545" lon="5.89586">
        <ele>2030.341</ele>
        <time>2021-02-07T09:58:54Z</time>
      </trkpt>
      <trkpt lat="45.12543" lon="5.89588">
        <ele>2031.339</ele>
        <time>2021-02-07T09:58:59Z</time>
      </trkpt>
      <trkpt lat="45.12542" lon="5.89589">
        <ele>2031.976</ele>
        <time>2021-02-07T09:59:04Z</time>
      </trkpt>
      <trkpt lat="45.1254" lon="5.8959">
        <ele>2032.686</ele>
        <time>2021-02-07T09:59:09Z</time>
      </trkpt>
      <trkpt lat="45.12538" lon="5.89592">
        <ele>2033.091</ele>
        <time>2021-02-07T09:59:14Z</time>
      </trkpt>
      <trkpt lat="45.12537" lon="5.89594">
        <ele>2033.338</ele>
        <time>2021-02-07T09:59:24Z</time>
      </trkpt>
      <trkpt lat="45.12536" lon="5.89595">
        <ele>2033.381</ele>
        <time>2021-02-07T09:59:29Z</time>
      </trkpt>
      <trkpt lat="45.12534" lon="5.89597">
        <ele>2034.263</ele>
        <time>2021-02-07T09:59:34Z</time>
      </trkpt>
      <trkpt lat="45.12533" lon="5.89598">
        <ele>2035.045</ele>
        <time>2021-02-07T09:59:39Z</time>
      </trkpt>
      <trkpt lat="45.12531" lon="5.89599">
        <ele>2035.993</ele>
        <time>2021-02-07T09:59:44Z</time>
      </trkpt>
      <trkpt lat="45.1253" lon="5.896">
        <ele>2036.244</ele>
        <time>2021-02-07T09:59:49Z</time>
      </trkpt>
      <trkpt lat="45.12529" lon="5.89601">
        <ele>2037.504</ele>
        <time>2021-02-07T09:59:54Z</time>
      </trkpt>
      <trkpt lat="45.12528" lon="5.89602">
        <ele>2038.763</ele>
        <time>2021-02-07T09:59:59Z</time>
      </trkpt>
      <trkpt lat="45.12527" lon="5.89604">
        <ele>2039.378</ele>
        <time>2021-02-07T10:00:19Z</time>
      </trkpt>
      <trkpt lat="45.12526" lon="5.89607">
        <ele>2039.607</ele>
        <time>2021-02-07T10:00:24Z</time>
      </trkpt>
      <trkpt lat="45.12525" lon="5.89609">
        <ele>2040.253</ele>
        <time>2021-02-07T10:00:29Z</time>
      </trkpt>
      <trkpt lat="45.12525" lon="5.89611">
        <ele>2039.999</ele>
        <time>2021-02-07T10:00:34Z</time>
      </trkpt>
      <trkpt lat="45.12524" lon="5.89613">
        <ele>2040.507</ele>
        <time>2021-02-07T10:00:39Z</time>
      </trkpt>
      <trkpt lat="45.12523" lon="5.89614">
        <ele>2040.727</ele>
        <time>2021-02-07T10:00:44Z</time>
      </trkpt>
      <trkpt lat="45.12524" lon="5.89617">
        <ele>2041.054</ele>
        <time>2021-02-07T10:00:49Z</time>
      </trkpt>
      <trkpt lat="45.12524" lon="5.8962">
        <ele>2041.4</ele>
        <time>2021-02-07T10:00:54Z</time>
      </trkpt>
      <trkpt lat="45.12524" lon="5.89622">
        <ele>2041.596</ele>
        <time>2021-02-07T10:00:59Z</time>
      </trkpt>
      <trkpt lat="45.12524" lon="5.89625">
        <ele>2042.155</ele>
        <time>2021-02-07T10:01:04Z</time>
      </trkpt>
      <trkpt lat="45.12525" lon="5.89628">
        <ele>2042.007</ele>
        <time>2021-02-07T10:01:09Z</time>
      </trkpt>
      <trkpt lat="45.12526" lon="5.89632">
        <ele>2043.228</ele>
        <time>2021-02-07T10:01:14Z</time>
      </trkpt>
      <trkpt lat="45.12526" lon="5.89636">
        <ele>2043.466</ele>
        <time>2021-02-07T10:01:19Z</time>
      </trkpt>
      <trkpt lat="45.12527" lon="5.89639">
        <ele>2043.652</ele>
        <time>2021-02-07T10:01:24Z</time>
      </trkpt>
      <trkpt lat="45.12527" lon="5.89642">
        <ele>2043.799</ele>
        <time>2021-02-07T10:01:29Z</time>
      </trkpt>
      <trkpt lat="45.12527" lon="5.89643">
        <ele>2045.006</ele>
        <time>2021-02-07T10:01:34Z</time>
      </trkpt>
      <trkpt lat="45.12526" lon="5.89643">
        <ele>2045.387</ele>
        <time>2021-02-07T10:01:39Z</time>
      </trkpt>
      <trkpt lat="45.12523" lon="5.89643">
        <ele>2048.047</ele>
        <time>2021-02-07T10:01:44Z</time>
      </trkpt>
      <trkpt lat="45.12521" lon="5.89643">
        <ele>2049.115</ele>
        <time>2021-02-07T10:01:49Z</time>
      </trkpt>
      <trkpt lat="45.12519" lon="5.89644">
        <ele>2049.895</ele>
        <time>2021-02-07T10:01:54Z</time>
      </trkpt>
      <trkpt lat="45.12518" lon="5.89645">
        <ele>2050.565</ele>
        <time>2021-02-07T10:01:59Z</time>
      </trkpt>
      <trkpt lat="45.12516" lon="5.89645">
        <ele>2051.508</ele>
        <time>2021-02-07T10:02:04Z</time>
      </trkpt>
      <trkpt lat="45.12514" lon="5.89645">
        <ele>2052.827</ele>
        <time>2021-02-07T10:02:09Z</time>
      </trkpt>
      <trkpt lat="45.12512" lon="5.89646">
        <ele>2054.005</ele>
        <time>2021-02-07T10:02:14Z</time>
      </trkpt>
      <trkpt lat="45.1251" lon="5.89647">
        <ele>2055.437</ele>
        <time>2021-02-07T10:02:19Z</time>
      </trkpt>
      <trkpt lat="45.12508" lon="5.89647">
        <ele>2055.714</ele>
        <time>2021-02-07T10:02:24Z</time>
      </trkpt>
      <trkpt lat="45.12506" lon="5.89648">
        <ele>2057.391</ele>
        <time>2021-02-07T10:02:29Z</time>
      </trkpt>
      <trkpt lat="45.12505" lon="5.89649">
        <ele>2058.449</ele>
        <time>2021-02-07T10:02:34Z</time>
      </trkpt>
      <trkpt lat="45.12504" lon="5.8965">
        <ele>2059.972</ele>
        <time>2021-02-07T10:02:39Z</time>
      </trkpt>
      <trkpt lat="45.12503" lon="5.89651">
        <ele>2060.903</ele>
        <time>2021-02-07T10:02:44Z</time>
      </trkpt>
      <trkpt lat="45.12502" lon="5.89653">
        <ele>2062.165</ele>
        <time>2021-02-07T10:02:49Z</time>
      </trkpt>
      <trkpt lat="45.12502" lon="5.89655">
        <ele>2062.762</ele>
        <time>2021-02-07T10:02:54Z</time>
      </trkpt>
      <trkpt lat="45.12502" lon="5.89657">
        <ele>2063.75</ele>
        <time>2021-02-07T10:02:59Z</time>
      </trkpt>
      <trkpt lat="45.12502" lon="5.8966">
        <ele>2063.6</ele>
        <time>2021-02-07T10:03:04Z</time>
      </trkpt>
      <trkpt lat="45.12502" lon="5.89661">
        <ele>2063.529</ele>
        <time>2021-02-07T10:03:09Z</time>
      </trkpt>
      <trkpt lat="45.12501" lon="5.89664">
        <ele>2063.477</ele>
        <time>2021-02-07T10:03:24Z</time>
      </trkpt>
      <trkpt lat="45.125" lon="5.89668">
        <ele>2062.502</ele>
        <time>2021-02-07T10:03:29Z</time>
      </trkpt>
      <trkpt lat="45.12498" lon="5.89667">
        <ele>2062.997</ele>
        <time>2021-02-07T10:03:34Z</time>
      </trkpt>
      <trkpt lat="45.12496" lon="5.89669">
        <ele>2065.938</ele>
        <time>2021-02-07T10:03:39Z</time>
      </trkpt>
      <trkpt lat="45.12497" lon="5.89673">
        <ele>2065.139</ele>
        <time>2021-02-07T10:03:44Z</time>
      </trkpt>
      <trkpt lat="45.12498" lon="5.89676">
        <ele>2066.126</ele>
        <time>2021-02-07T10:03:49Z</time>
      </trkpt>
      <trkpt lat="45.125" lon="5.89678">
        <ele>2066.429</ele>
        <time>2021-02-07T10:03:54Z</time>
      </trkpt>
      <trkpt lat="45.12501" lon="5.89682">
        <ele>2067.594</ele>
        <time>2021-02-07T10:03:59Z</time>
      </trkpt>
      <trkpt lat="45.12502" lon="5.89684">
        <ele>2067.657</ele>
        <time>2021-02-07T10:04:04Z</time>
      </trkpt>
      <trkpt lat="45.12504" lon="5.89687">
        <ele>2067.789</ele>
        <time>2021-02-07T10:04:09Z</time>
      </trkpt>
      <trkpt lat="45.12505" lon="5.89689">
        <ele>2068.258</ele>
        <time>2021-02-07T10:04:14Z</time>
      </trkpt>
      <trkpt lat="45.12505" lon="5.89692">
        <ele>2068.143</ele>
        <time>2021-02-07T10:04:19Z</time>
      </trkpt>
      <trkpt lat="45.12506" lon="5.89695">
        <ele>2068.69</ele>
        <time>2021-02-07T10:04:24Z</time>
      </trkpt>
      <trkpt lat="45.12507" lon="5.89698">
        <ele>2068.915</ele>
        <time>2021-02-07T10:04:29Z</time>
      </trkpt>
      <trkpt lat="45.12508" lon="5.897">
        <ele>2069.172</ele>
        <time>2021-02-07T10:04:34Z</time>
      </trkpt>
      <trkpt lat="45.12508" lon="5.89701">
        <ele>2069.641</ele>
        <time>2021-02-07T10:04:44Z</time>
      </trkpt>
      <trkpt lat="45.12505" lon="5.89701">
        <ele>2071.34</ele>
        <time>2021-02-07T10:04:49Z</time>
      </trkpt>
      <trkpt lat="45.12504" lon="5.89701">
        <ele>2072.704</ele>
        <time>2021-02-07T10:04:54Z</time>
      </trkpt>
      <trkpt lat="45.12503" lon="5.89701">
        <ele>2073.617</ele>
        <time>2021-02-07T10:04:59Z</time>
      </trkpt>
      <trkpt lat="45.12501" lon="5.89701">
        <ele>2075.714</ele>
        <time>2021-02-07T10:05:04Z</time>
      </trkpt>
      <trkpt lat="45.12498" lon="5.89701">
        <ele>2077.327</ele>
        <time>2021-02-07T10:05:09Z</time>
      </trkpt>
      <trkpt lat="45.12495" lon="5.897">
        <ele>2079.149</ele>
        <time>2021-02-07T10:05:14Z</time>
      </trkpt>
      <trkpt lat="45.12492" lon="5.89701">
        <ele>2080.162</ele>
        <time>2021-02-07T10:05:19Z</time>
      </trkpt>
      <trkpt lat="45.12491" lon="5.897">
        <ele>2080.801</ele>
        <time>2021-02-07T10:05:24Z</time>
      </trkpt>
      <trkpt lat="45.12488" lon="5.89701">
        <ele>2081.715</ele>
        <time>2021-02-07T10:05:29Z</time>
      </trkpt>
      <trkpt lat="45.12485" lon="5.89701">
        <ele>2082.223</ele>
        <time>2021-02-07T10:05:34Z</time>
      </trkpt>
      <trkpt lat="45.12482" lon="5.897">
        <ele>2083.485</ele>
        <time>2021-02-07T10:05:39Z</time>
      </trkpt>
      <trkpt lat="45.1248" lon="5.89701">
        <ele>2084.877</ele>
        <time>2021-02-07T10:05:44Z</time>
      </trkpt>
      <trkpt lat="45.12478" lon="5.89701">
        <ele>2086.038</ele>
        <time>2021-02-07T10:05:49Z</time>
      </trkpt>
      <trkpt lat="45.12476" lon="5.89701">
        <ele>2086.769</ele>
        <time>2021-02-07T10:05:54Z</time>
      </trkpt>
      <trkpt lat="45.12473" lon="5.89702">
        <ele>2088.432</ele>
        <time>2021-02-07T10:05:59Z</time>
      </trkpt>
      <trkpt lat="45.12471" lon="5.89704">
        <ele>2089.1</ele>
        <time>2021-02-07T10:06:04Z</time>
      </trkpt>
      <trkpt lat="45.1247" lon="5.89705">
        <ele>2088.697</ele>
        <time>2021-02-07T10:06:09Z</time>
      </trkpt>
      <trkpt lat="45.12467" lon="5.89707">
        <ele>2088.544</ele>
        <time>2021-02-07T10:06:14Z</time>
      </trkpt>
      <trkpt lat="45.12466" lon="5.89708">
        <ele>2087.556</ele>
        <time>2021-02-07T10:06:19Z</time>
      </trkpt>
      <trkpt lat="45.12463" lon="5.89709">
        <ele>2088.254</ele>
        <time>2021-02-07T10:06:24Z</time>
      </trkpt>
      <trkpt lat="45.12462" lon="5.8971">
        <ele>2089.546</ele>
        <time>2021-02-07T10:06:29Z</time>
      </trkpt>
      <trkpt lat="45.1246" lon="5.89712">
        <ele>2090.766</ele>
        <time>2021-02-07T10:06:34Z</time>
      </trkpt>
      <trkpt lat="45.12458" lon="5.89714">
        <ele>2092.22</ele>
        <time>2021-02-07T10:06:39Z</time>
      </trkpt>
      <trkpt lat="45.12456" lon="5.89715">
        <ele>2092.702</ele>
        <time>2021-02-07T10:06:44Z</time>
      </trkpt>
      <trkpt lat="45.12454" lon="5.89716">
        <ele>2093.606</ele>
        <time>2021-02-07T10:06:49Z</time>
      </trkpt>
      <trkpt lat="45.12452" lon="5.89718">
        <ele>2095.462</ele>
        <time>2021-02-07T10:06:54Z</time>
      </trkpt>
      <trkpt lat="45.1245" lon="5.8972">
        <ele>2096.279</ele>
        <time>2021-02-07T10:06:59Z</time>
      </trkpt>
      <trkpt lat="45.12448" lon="5.89722">
        <ele>2097.325</ele>
        <time>2021-02-07T10:07:04Z</time>
      </trkpt>
      <trkpt lat="45.12446" lon="5.89723">
        <ele>2098.299</ele>
        <time>2021-02-07T10:07:09Z</time>
      </trkpt>
      <trkpt lat="45.12444" lon="5.89725">
        <ele>2098.632</ele>
        <time>2021-02-07T10:07:14Z</time>
      </trkpt>
      <trkpt lat="45.12441" lon="5.89726">
        <ele>2099.588</ele>
        <time>2021-02-07T10:07:19Z</time>
      </trkpt>
      <trkpt lat="45.12439" lon="5.89728">
        <ele>2098.55</ele>
        <time>2021-02-07T10:07:24Z</time>
      </trkpt>
      <trkpt lat="45.12437" lon="5.89729">
        <ele>2098.968</ele>
        <time>2021-02-07T10:07:29Z</time>
      </trkpt>
      <trkpt lat="45.12435" lon="5.8973">
        <ele>2100.379</ele>
        <time>2021-02-07T10:07:34Z</time>
      </trkpt>
      <trkpt lat="45.12433" lon="5.89731">
        <ele>2099.742</ele>
        <time>2021-02-07T10:07:39Z</time>
      </trkpt>
      <trkpt lat="45.1243" lon="5.89732">
        <ele>2100.694</ele>
        <time>2021-02-07T10:07:44Z</time>
      </trkpt>
      <trkpt lat="45.12429" lon="5.89734">
        <ele>2101.099</ele>
        <time>2021-02-07T10:07:49Z</time>
      </trkpt>
      <trkpt lat="45.12428" lon="5.89736">
        <ele>2101.529</ele>
        <time>2021-02-07T10:07:59Z</time>
      </trkpt>
      <trkpt lat="45.12429" lon="5.89739">
        <ele>2100.871</ele>
        <time>2021-02-07T10:08:04Z</time>
      </trkpt>
      <trkpt lat="45.12431" lon="5.89742">
        <ele>2099.518</ele>
        <time>2021-02-07T10:08:09Z</time>
      </trkpt>
      <trkpt lat="45.12433" lon="5.89745">
        <ele>2098.603</ele>
        <time>2021-02-07T10:08:14Z</time>
      </trkpt>
      <trkpt lat="45.12435" lon="5.89748">
        <ele>2099.375</ele>
        <time>2021-02-07T10:08:19Z</time>
      </trkpt>
      <trkpt lat="45.12436" lon="5.89752">
        <ele>2098.307</ele>
        <time>2021-02-07T10:08:24Z</time>
      </trkpt>
      <trkpt lat="45.12436" lon="5.89754">
        <ele>2099.106</ele>
        <time>2021-02-07T10:08:29Z</time>
      </trkpt>
      <trkpt lat="45.12437" lon="5.89757">
        <ele>2099.567</ele>
        <time>2021-02-07T10:08:34Z</time>
      </trkpt>
      <trkpt lat="45.12436" lon="5.89759">
        <ele>2098.846</ele>
        <time>2021-02-07T10:08:39Z</time>
      </trkpt>
      <trkpt lat="45.12433" lon="5.89759">
        <ele>2100.392</ele>
        <time>2021-02-07T10:08:44Z</time>
      </trkpt>
      <trkpt lat="45.1243" lon="5.8976">
        <ele>2102.947</ele>
        <time>2021-02-07T10:08:49Z</time>
      </trkpt>
      <trkpt lat="45.12425" lon="5.89759">
        <ele>2105.84</ele>
        <time>2021-02-07T10:08:53Z</time>
      </trkpt>
      <trkpt lat="45.12421" lon="5.8976">
        <ele>2109.835</ele>
        <time>2021-02-07T10:08:59Z</time>
      </trkpt>
      <trkpt lat="45.12418" lon="5.8976">
        <ele>2112.305</ele>
        <time>2021-02-07T10:09:04Z</time>
      </trkpt>
      <trkpt lat="45.12416" lon="5.89762">
        <ele>2113.001</ele>
        <time>2021-02-07T10:09:09Z</time>
      </trkpt>
      <trkpt lat="45.12414" lon="5.89762">
        <ele>2114.058</ele>
        <time>2021-02-07T10:09:14Z</time>
      </trkpt>
      <trkpt lat="45.12412" lon="5.89763">
        <ele>2114.455</ele>
        <time>2021-02-07T10:09:19Z</time>
      </trkpt>
      <trkpt lat="45.12409" lon="5.89763">
        <ele>2114.384</ele>
        <time>2021-02-07T10:09:24Z</time>
      </trkpt>
      <trkpt lat="45.12407" lon="5.89764">
        <ele>2115.629</ele>
        <time>2021-02-07T10:09:29Z</time>
      </trkpt>
      <trkpt lat="45.12406" lon="5.89764">
        <ele>2116.721</ele>
        <time>2021-02-07T10:09:34Z</time>
      </trkpt>
      <trkpt lat="45.12403" lon="5.89765">
        <ele>2117.955</ele>
        <time>2021-02-07T10:09:39Z</time>
      </trkpt>
      <trkpt lat="45.12401" lon="5.89765">
        <ele>2118.561</ele>
        <time>2021-02-07T10:09:44Z</time>
      </trkpt>
      <trkpt lat="45.12399" lon="5.89766">
        <ele>2119.091</ele>
        <time>2021-02-07T10:09:49Z</time>
      </trkpt>
      <trkpt lat="45.12396" lon="5.89767">
        <ele>2119.714</ele>
        <time>2021-02-07T10:09:54Z</time>
      </trkpt>
      <trkpt lat="45.12393" lon="5.89768">
        <ele>2121.81</ele>
        <time>2021-02-07T10:09:59Z</time>
      </trkpt>
      <trkpt lat="45.1239" lon="5.89769">
        <ele>2123.18</ele>
        <time>2021-02-07T10:10:04Z</time>
      </trkpt>
      <trkpt lat="45.12388" lon="5.8977">
        <ele>2123.694</ele>
        <time>2021-02-07T10:10:09Z</time>
      </trkpt>
      <trkpt lat="45.12386" lon="5.89771">
        <ele>2124.215</ele>
        <time>2021-02-07T10:10:14Z</time>
      </trkpt>
      <trkpt lat="45.12383" lon="5.89771">
        <ele>2124.317</ele>
        <time>2021-02-07T10:10:19Z</time>
      </trkpt>
      <trkpt lat="45.12381" lon="5.89771">
        <ele>2124.758</ele>
        <time>2021-02-07T10:10:24Z</time>
      </trkpt>
      <trkpt lat="45.12378" lon="5.89771">
        <ele>2125.064</ele>
        <time>2021-02-07T10:10:29Z</time>
      </trkpt>
      <trkpt lat="45.12376" lon="5.8977">
        <ele>2126.304</ele>
        <time>2021-02-07T10:10:34Z</time>
      </trkpt>
      <trkpt lat="45.12374" lon="5.89769">
        <ele>2126.637</ele>
        <time>2021-02-07T10:10:39Z</time>
      </trkpt>
      <trkpt lat="45.12372" lon="5.89768">
        <ele>2127.374</ele>
        <time>2021-02-07T10:10:44Z</time>
      </trkpt>
      <trkpt lat="45.12369" lon="5.89766">
        <ele>2127.304</ele>
        <time>2021-02-07T10:10:49Z</time>
      </trkpt>
      <trkpt lat="45.12367" lon="5.89764">
        <ele>2128.097</ele>
        <time>2021-02-07T10:10:54Z</time>
      </trkpt>
      <trkpt lat="45.12365" lon="5.89762">
        <ele>2128.796</ele>
        <time>2021-02-07T10:10:59Z</time>
      </trkpt>
      <trkpt lat="45.12362" lon="5.89761">
        <ele>2128.63</ele>
        <time>2021-02-07T10:11:04Z</time>
      </trkpt>
      <trkpt lat="45.1236" lon="5.89759">
        <ele>2129.279</ele>
        <time>2021-02-07T10:11:09Z</time>
      </trkpt>
      <trkpt lat="45.12358" lon="5.89758">
        <ele>2130.327</ele>
        <time>2021-02-07T10:11:14Z</time>
      </trkpt>
      <trkpt lat="45.12356" lon="5.89756">
        <ele>2131.047</ele>
        <time>2021-02-07T10:11:19Z</time>
      </trkpt>
      <trkpt lat="45.12354" lon="5.89754">
        <ele>2132.318</ele>
        <time>2021-02-07T10:11:24Z</time>
      </trkpt>
      <trkpt lat="45.12352" lon="5.89753">
        <ele>2132.611</ele>
        <time>2021-02-07T10:11:29Z</time>
      </trkpt>
      <trkpt lat="45.1235" lon="5.89752">
        <ele>2133.68</ele>
        <time>2021-02-07T10:11:34Z</time>
      </trkpt>
      <trkpt lat="45.12347" lon="5.8975">
        <ele>2134.339</ele>
        <time>2021-02-07T10:11:39Z</time>
      </trkpt>
      <trkpt lat="45.12345" lon="5.89749">
        <ele>2135.097</ele>
        <time>2021-02-07T10:11:44Z</time>
      </trkpt>
      <trkpt lat="45.12343" lon="5.89748">
        <ele>2135.831</ele>
        <time>2021-02-07T10:11:49Z</time>
      </trkpt>
      <trkpt lat="45.12341" lon="5.89748">
        <ele>2136.545</ele>
        <time>2021-02-07T10:11:54Z</time>
      </trkpt>
      <trkpt lat="45.12338" lon="5.89748">
        <ele>2137.863</ele>
        <time>2021-02-07T10:11:59Z</time>
      </trkpt>
      <trkpt lat="45.12335" lon="5.89747">
        <ele>2139.328</ele>
        <time>2021-02-07T10:12:04Z</time>
      </trkpt>
      <trkpt lat="45.12333" lon="5.89747">
        <ele>2139.397</ele>
        <time>2021-02-07T10:12:09Z</time>
      </trkpt>
      <trkpt lat="45.12331" lon="5.89748">
        <ele>2140.772</ele>
        <time>2021-02-07T10:12:14Z</time>
      </trkpt>
      <trkpt lat="45.12329" lon="5.8975">
        <ele>2140.158</ele>
        <time>2021-02-07T10:12:19Z</time>
      </trkpt>
      <trkpt lat="45.12327" lon="5.89751">
        <ele>2141.29</ele>
        <time>2021-02-07T10:12:24Z</time>
      </trkpt>
      <trkpt lat="45.12325" lon="5.89752">
        <ele>2142.572</ele>
        <time>2021-02-07T10:12:29Z</time>
      </trkpt>
      <trkpt lat="45.12323" lon="5.89754">
        <ele>2141.68</ele>
        <time>2021-02-07T10:12:34Z</time>
      </trkpt>
      <trkpt lat="45.12321" lon="5.89756">
        <ele>2142.311</ele>
        <time>2021-02-07T10:12:39Z</time>
      </trkpt>
      <trkpt lat="45.1232" lon="5.89758">
        <ele>2143.039</ele>
        <time>2021-02-07T10:12:44Z</time>
      </trkpt>
      <trkpt lat="45.12318" lon="5.89759">
        <ele>2142.583</ele>
        <time>2021-02-07T10:12:49Z</time>
      </trkpt>
      <trkpt lat="45.12317" lon="5.89761">
        <ele>2141.509</ele>
        <time>2021-02-07T10:12:54Z</time>
      </trkpt>
      <trkpt lat="45.12316" lon="5.89764">
        <ele>2143.775</ele>
        <time>2021-02-07T10:12:59Z</time>
      </trkpt>
      <trkpt lat="45.12315" lon="5.89766">
        <ele>2144.025</ele>
        <time>2021-02-07T10:13:04Z</time>
      </trkpt>
      <trkpt lat="45.12313" lon="5.89769">
        <ele>2144.223</ele>
        <time>2021-02-07T10:13:09Z</time>
      </trkpt>
      <trkpt lat="45.12312" lon="5.89771">
        <ele>2145.367</ele>
        <time>2021-02-07T10:13:14Z</time>
      </trkpt>
      <trkpt lat="45.1231" lon="5.89774">
        <ele>2146.558</ele>
        <time>2021-02-07T10:13:19Z</time>
      </trkpt>
      <trkpt lat="45.12309" lon="5.89776">
        <ele>2147.826</ele>
        <time>2021-02-07T10:13:24Z</time>
      </trkpt>
      <trkpt lat="45.12308" lon="5.8978">
        <ele>2146.86</ele>
        <time>2021-02-07T10:13:29Z</time>
      </trkpt>
      <trkpt lat="45.12308" lon="5.89784">
        <ele>2147.353</ele>
        <time>2021-02-07T10:13:34Z</time>
      </trkpt>
      <trkpt lat="45.12309" lon="5.89784">
        <ele>2146.922</ele>
        <time>2021-02-07T10:13:39Z</time>
      </trkpt>
      <trkpt lat="45.12309" lon="5.89784">
        <ele>2146.906</ele>
        <time>2021-02-07T10:13:59Z</time>
      </trkpt>
      <trkpt lat="45.1231" lon="5.89786">
        <ele>2146.83</ele>
        <time>2021-02-07T10:14:09Z</time>
      </trkpt>
      <trkpt lat="45.1231" lon="5.8979">
        <ele>2147.446</ele>
        <time>2021-02-07T10:14:14Z</time>
      </trkpt>
      <trkpt lat="45.12311" lon="5.89794">
        <ele>2147.94</ele>
        <time>2021-02-07T10:14:19Z</time>
      </trkpt>
      <trkpt lat="45.12312" lon="5.89798">
        <ele>2148.06</ele>
        <time>2021-02-07T10:14:24Z</time>
      </trkpt>
      <trkpt lat="45.12314" lon="5.89801">
        <ele>2148.025</ele>
        <time>2021-02-07T10:14:29Z</time>
      </trkpt>
      <trkpt lat="45.12315" lon="5.89805">
        <ele>2148.339</ele>
        <time>2021-02-07T10:14:34Z</time>
      </trkpt>
      <trkpt lat="45.12316" lon="5.89809">
        <ele>2149.005</ele>
        <time>2021-02-07T10:14:39Z</time>
      </trkpt>
      <trkpt lat="45.12317" lon="5.89813">
        <ele>2149.471</ele>
        <time>2021-02-07T10:14:44Z</time>
      </trkpt>
      <trkpt lat="45.12318" lon="5.89818">
        <ele>2150.274</ele>
        <time>2021-02-07T10:14:49Z</time>
      </trkpt>
      <trkpt lat="45.1232" lon="5.89821">
        <ele>2150.557</ele>
        <time>2021-02-07T10:14:54Z</time>
      </trkpt>
      <trkpt lat="45.12322" lon="5.89824">
        <ele>2151.154</ele>
        <time>2021-02-07T10:14:59Z</time>
      </trkpt>
      <trkpt lat="45.12323" lon="5.89827">
        <ele>2151.489</ele>
        <time>2021-02-07T10:15:04Z</time>
      </trkpt>
      <trkpt lat="45.12323" lon="5.8983">
        <ele>2152.296</ele>
        <time>2021-02-07T10:15:09Z</time>
      </trkpt>
      <trkpt lat="45.12323" lon="5.89833">
        <ele>2152.922</ele>
        <time>2021-02-07T10:15:14Z</time>
      </trkpt>
      <trkpt lat="45.12324" lon="5.89837">
        <ele>2153.031</ele>
        <time>2021-02-07T10:15:19Z</time>
      </trkpt>
      <trkpt lat="45.12324" lon="5.89839">
        <ele>2154.213</ele>
        <time>2021-02-07T10:15:24Z</time>
      </trkpt>
      <trkpt lat="45.12324" lon="5.89841">
        <ele>2155.292</ele>
        <time>2021-02-07T10:15:29Z</time>
      </trkpt>
      <trkpt lat="45.12324" lon="5.89844">
        <ele>2156.27</ele>
        <time>2021-02-07T10:15:34Z</time>
      </trkpt>
      <trkpt lat="45.12324" lon="5.89848">
        <ele>2155.802</ele>
        <time>2021-02-07T10:15:39Z</time>
      </trkpt>
      <trkpt lat="45.12324" lon="5.89848">
        <ele>2156.121</ele>
        <time>2021-02-07T10:15:59Z</time>
      </trkpt>
      <trkpt lat="45.12325" lon="5.89848">
        <ele>2156.364</ele>
        <time>2021-02-07T10:16:14Z</time>
      </trkpt>
      <trkpt lat="45.12325" lon="5.89851">
        <ele>2157.081</ele>
        <time>2021-02-07T10:16:19Z</time>
      </trkpt>
      <trkpt lat="45.12326" lon="5.89854">
        <ele>2158.353</ele>
        <time>2021-02-07T10:16:24Z</time>
      </trkpt>
      <trkpt lat="45.12326" lon="5.89857">
        <ele>2159.308</ele>
        <time>2021-02-07T10:16:29Z</time>
      </trkpt>
      <trkpt lat="45.12327" lon="5.8986">
        <ele>2159.72</ele>
        <time>2021-02-07T10:16:34Z</time>
      </trkpt>
      <trkpt lat="45.12327" lon="5.89863">
        <ele>2160.281</ele>
        <time>2021-02-07T10:16:39Z</time>
      </trkpt>
      <trkpt lat="45.12328" lon="5.89865">
        <ele>2161.671</ele>
        <time>2021-02-07T10:16:44Z</time>
      </trkpt>
      <trkpt lat="45.12328" lon="5.89868">
        <ele>2163.239</ele>
        <time>2021-02-07T10:16:49Z</time>
      </trkpt>
      <trkpt lat="45.12329" lon="5.89871">
        <ele>2164.455</ele>
        <time>2021-02-07T10:16:54Z</time>
      </trkpt>
      <trkpt lat="45.1233" lon="5.89873">
        <ele>2165.164</ele>
        <time>2021-02-07T10:16:59Z</time>
      </trkpt>
      <trkpt lat="45.12331" lon="5.89875">
        <ele>2165.982</ele>
        <time>2021-02-07T10:17:04Z</time>
      </trkpt>
      <trkpt lat="45.12332" lon="5.89878">
        <ele>2167.194</ele>
        <time>2021-02-07T10:17:09Z</time>
      </trkpt>
      <trkpt lat="45.12333" lon="5.8988">
        <ele>2168.014</ele>
        <time>2021-02-07T10:17:14Z</time>
      </trkpt>
      <trkpt lat="45.12335" lon="5.89882">
        <ele>2168.649</ele>
        <time>2021-02-07T10:17:19Z</time>
      </trkpt>
      <trkpt lat="45.12336" lon="5.89884">
        <ele>2169.379</ele>
        <time>2021-02-07T10:17:24Z</time>
      </trkpt>
      <trkpt lat="45.12337" lon="5.89887">
        <ele>2170.363</ele>
        <time>2021-02-07T10:17:29Z</time>
      </trkpt>
      <trkpt lat="45.12338" lon="5.89889">
        <ele>2170.883</ele>
        <time>2021-02-07T10:17:34Z</time>
      </trkpt>
      <trkpt lat="45.12339" lon="5.89891">
        <ele>2171.219</ele>
        <time>2021-02-07T10:17:39Z</time>
      </trkpt>
      <trkpt lat="45.12341" lon="5.89894">
        <ele>2171.829</ele>
        <time>2021-02-07T10:17:44Z</time>
      </trkpt>
      <trkpt lat="45.12342" lon="5.89896">
        <ele>2172.32</ele>
        <time>2021-02-07T10:17:49Z</time>
      </trkpt>
      <trkpt lat="45.12343" lon="5.89898">
        <ele>2171.824</ele>
        <time>2021-02-07T10:17:54Z</time>
      </trkpt>
      <trkpt lat="45.12345" lon="5.899">
        <ele>2172.602</ele>
        <time>2021-02-07T10:17:59Z</time>
      </trkpt>
      <trkpt lat="45.12347" lon="5.89903">
        <ele>2173.209</ele>
        <time>2021-02-07T10:18:04Z</time>
      </trkpt>
      <trkpt lat="45.12348" lon="5.89906">
        <ele>2173.842</ele>
        <time>2021-02-07T10:18:09Z</time>
      </trkpt>
      <trkpt lat="45.1235" lon="5.89909">
        <ele>2174.609</ele>
        <time>2021-02-07T10:18:14Z</time>
      </trkpt>
      <trkpt lat="45.12351" lon="5.89912">
        <ele>2174.882</ele>
        <time>2021-02-07T10:18:19Z</time>
      </trkpt>
      <trkpt lat="45.12353" lon="5.89916">
        <ele>2175.356</ele>
        <time>2021-02-07T10:18:24Z</time>
      </trkpt>
      <trkpt lat="45.12354" lon="5.89918">
        <ele>2176.001</ele>
        <time>2021-02-07T10:18:29Z</time>
      </trkpt>
      <trkpt lat="45.12356" lon="5.89921">
        <ele>2176.671</ele>
        <time>2021-02-07T10:18:34Z</time>
      </trkpt>
      <trkpt lat="45.12357" lon="5.89923">
        <ele>2177.707</ele>
        <time>2021-02-07T10:18:39Z</time>
      </trkpt>
      <trkpt lat="45.12358" lon="5.89926">
        <ele>2178.421</ele>
        <time>2021-02-07T10:18:44Z</time>
      </trkpt>
      <trkpt lat="45.1236" lon="5.89928">
        <ele>2177.827</ele>
        <time>2021-02-07T10:18:49Z</time>
      </trkpt>
      <trkpt lat="45.12362" lon="5.89931">
        <ele>2178.639</ele>
        <time>2021-02-07T10:18:54Z</time>
      </trkpt>
      <trkpt lat="45.12362" lon="5.89932">
        <ele>2178.621</ele>
        <time>2021-02-07T10:18:59Z</time>
      </trkpt>
      <trkpt lat="45.12362" lon="5.89933">
        <ele>2179.137</ele>
        <time>2021-02-07T10:19:19Z</time>
      </trkpt>
      <trkpt lat="45.12363" lon="5.89937">
        <ele>2179.84</ele>
        <time>2021-02-07T10:19:24Z</time>
      </trkpt>
      <trkpt lat="45.12364" lon="5.8994">
        <ele>2180.44</ele>
        <time>2021-02-07T10:19:29Z</time>
      </trkpt>
      <trkpt lat="45.12366" lon="5.89943">
        <ele>2180.77</ele>
        <time>2021-02-07T10:19:34Z</time>
      </trkpt>
      <trkpt lat="45.12367" lon="5.89945">
        <ele>2181.548</ele>
        <time>2021-02-07T10:19:39Z</time>
      </trkpt>
      <trkpt lat="45.12369" lon="5.89947">
        <ele>2182.109</ele>
        <time>2021-02-07T10:19:44Z</time>
      </trkpt>
      <trkpt lat="45.12371" lon="5.89949">
        <ele>2182.726</ele>
        <time>2021-02-07T10:19:49Z</time>
      </trkpt>
      <trkpt lat="45.12372" lon="5.89953">
        <ele>2183.769</ele>
        <time>2021-02-07T10:19:54Z</time>
      </trkpt>
      <trkpt lat="45.12373" lon="5.89956">
        <ele>2184.176</ele>
        <time>2021-02-07T10:19:59Z</time>
      </trkpt>
      <trkpt lat="45.12375" lon="5.8996">
        <ele>2184.203</ele>
        <time>2021-02-07T10:20:04Z</time>
      </trkpt>
      <trkpt lat="45.12376" lon="5.89963">
        <ele>2184.328</ele>
        <time>2021-02-07T10:20:09Z</time>
      </trkpt>
      <trkpt lat="45.12377" lon="5.89966">
        <ele>2185.183</ele>
        <time>2021-02-07T10:20:14Z</time>
      </trkpt>
      <trkpt lat="45.12378" lon="5.8997">
        <ele>2185.718</ele>
        <time>2021-02-07T10:20:19Z</time>
      </trkpt>
      <trkpt lat="45.1238" lon="5.89973">
        <ele>2186.119</ele>
        <time>2021-02-07T10:20:24Z</time>
      </trkpt>
      <trkpt lat="45.12381" lon="5.89977">
        <ele>2186.107</ele>
        <time>2021-02-07T10:20:29Z</time>
      </trkpt>
      <trkpt lat="45.12382" lon="5.8998">
        <ele>2186.364</ele>
        <time>2021-02-07T10:20:34Z</time>
      </trkpt>
      <trkpt lat="45.12383" lon="5.89984">
        <ele>2187.803</ele>
        <time>2021-02-07T10:20:39Z</time>
      </trkpt>
      <trkpt lat="45.12384" lon="5.89987">
        <ele>2188.488</ele>
        <time>2021-02-07T10:20:44Z</time>
      </trkpt>
      <trkpt lat="45.12385" lon="5.8999">
        <ele>2189.474</ele>
        <time>2021-02-07T10:20:49Z</time>
      </trkpt>
      <trkpt lat="45.12386" lon="5.89993">
        <ele>2190.239</ele>
        <time>2021-02-07T10:20:54Z</time>
      </trkpt>
      <trkpt lat="45.12387" lon="5.89997">
        <ele>2190.818</ele>
        <time>2021-02-07T10:20:59Z</time>
      </trkpt>
      <trkpt lat="45.12389" lon="5.9">
        <ele>2191.991</ele>
        <time>2021-02-07T10:21:04Z</time>
      </trkpt>
      <trkpt lat="45.12391" lon="5.90005">
        <ele>2192.809</ele>
        <time>2021-02-07T10:21:09Z</time>
      </trkpt>
      <trkpt lat="45.12392" lon="5.90008">
        <ele>2193.633</ele>
        <time>2021-02-07T10:21:14Z</time>
      </trkpt>
      <trkpt lat="45.12393" lon="5.90012">
        <ele>2194.258</ele>
        <time>2021-02-07T10:21:19Z</time>
      </trkpt>
      <trkpt lat="45.12395" lon="5.90015">
        <ele>2194.608</ele>
        <time>2021-02-07T10:21:24Z</time>
      </trkpt>
      <trkpt lat="45.12397" lon="5.90018">
        <ele>2194.21</ele>
        <time>2021-02-07T10:21:29Z</time>
      </trkpt>
      <trkpt lat="45.12398" lon="5.90021">
        <ele>2194.167</ele>
        <time>2021-02-07T10:21:34Z</time>
      </trkpt>
      <trkpt lat="45.124" lon="5.90025">
        <ele>2194.377</ele>
        <time>2021-02-07T10:21:39Z</time>
      </trkpt>
      <trkpt lat="45.12401" lon="5.90029">
        <ele>2194.738</ele>
        <time>2021-02-07T10:21:44Z</time>
      </trkpt>
      <trkpt lat="45.12403" lon="5.90032">
        <ele>2194.719</ele>
        <time>2021-02-07T10:21:49Z</time>
      </trkpt>
      <trkpt lat="45.12403" lon="5.90034">
        <ele>2195.041</ele>
        <time>2021-02-07T10:21:54Z</time>
      </trkpt>
      <trkpt lat="45.12405" lon="5.90038">
        <ele>2195.882</ele>
        <time>2021-02-07T10:22:04Z</time>
      </trkpt>
      <trkpt lat="45.12406" lon="5.90042">
        <ele>2196.622</ele>
        <time>2021-02-07T10:22:09Z</time>
      </trkpt>
      <trkpt lat="45.12408" lon="5.90046">
        <ele>2196.911</ele>
        <time>2021-02-07T10:22:14Z</time>
      </trkpt>
      <trkpt lat="45.12409" lon="5.90049">
        <ele>2197.953</ele>
        <time>2021-02-07T10:22:19Z</time>
      </trkpt>
      <trkpt lat="45.1241" lon="5.90053">
        <ele>2198.913</ele>
        <time>2021-02-07T10:22:24Z</time>
      </trkpt>
      <trkpt lat="45.12412" lon="5.90055">
        <ele>2199.028</ele>
        <time>2021-02-07T10:22:29Z</time>
      </trkpt>
      <trkpt lat="45.12413" lon="5.90058">
        <ele>2200.648</ele>
        <time>2021-02-07T10:22:34Z</time>
      </trkpt>
      <trkpt lat="45.12415" lon="5.9006">
        <ele>2200.649</ele>
        <time>2021-02-07T10:22:39Z</time>
      </trkpt>
      <trkpt lat="45.12417" lon="5.90062">
        <ele>2201.292</ele>
        <time>2021-02-07T10:22:44Z</time>
      </trkpt>
      <trkpt lat="45.12418" lon="5.90065">
        <ele>2202.1</ele>
        <time>2021-02-07T10:22:49Z</time>
      </trkpt>
      <trkpt lat="45.12419" lon="5.90068">
        <ele>2202.76</ele>
        <time>2021-02-07T10:22:54Z</time>
      </trkpt>
      <trkpt lat="45.12421" lon="5.90072">
        <ele>2204.021</ele>
        <time>2021-02-07T10:22:59Z</time>
      </trkpt>
      <trkpt lat="45.12422" lon="5.90076">
        <ele>2205.231</ele>
        <time>2021-02-07T10:23:04Z</time>
      </trkpt>
      <trkpt lat="45.12424" lon="5.9008">
        <ele>2205.705</ele>
        <time>2021-02-07T10:23:09Z</time>
      </trkpt>
      <trkpt lat="45.12424" lon="5.90081">
        <ele>2206.038</ele>
        <time>2021-02-07T10:23:14Z</time>
      </trkpt>
      <trkpt lat="45.12425" lon="5.90084">
        <ele>2206.243</ele>
        <time>2021-02-07T10:23:19Z</time>
      </trkpt>
      <trkpt lat="45.12426" lon="5.90088">
        <ele>2207.254</ele>
        <time>2021-02-07T10:23:24Z</time>
      </trkpt>
      <trkpt lat="45.12428" lon="5.90091">
        <ele>2208.18</ele>
        <time>2021-02-07T10:23:29Z</time>
      </trkpt>
      <trkpt lat="45.12429" lon="5.90095">
        <ele>2208.652</ele>
        <time>2021-02-07T10:23:34Z</time>
      </trkpt>
      <trkpt lat="45.1243" lon="5.90098">
        <ele>2208.358</ele>
        <time>2021-02-07T10:23:39Z</time>
      </trkpt>
      <trkpt lat="45.12432" lon="5.90103">
        <ele>2209.252</ele>
        <time>2021-02-07T10:23:44Z</time>
      </trkpt>
      <trkpt lat="45.12433" lon="5.90107">
        <ele>2210.285</ele>
        <time>2021-02-07T10:23:49Z</time>
      </trkpt>
      <trkpt lat="45.12434" lon="5.90111">
        <ele>2210.491</ele>
        <time>2021-02-07T10:23:54Z</time>
      </trkpt>
      <trkpt lat="45.12434" lon="5.90115">
        <ele>2211.254</ele>
        <time>2021-02-07T10:23:59Z</time>
      </trkpt>
      <trkpt lat="45.12435" lon="5.90118">
        <ele>2211.643</ele>
        <time>2021-02-07T10:24:09Z</time>
      </trkpt>
      <trkpt lat="45.12436" lon="5.90122">
        <ele>2212.356</ele>
        <time>2021-02-07T10:24:14Z</time>
      </trkpt>
      <trkpt lat="45.12438" lon="5.90125">
        <ele>2212.975</ele>
        <time>2021-02-07T10:24:19Z</time>
      </trkpt>
      <trkpt lat="45.1244" lon="5.90131">
        <ele>2213.325</ele>
        <time>2021-02-07T10:24:24Z</time>
      </trkpt>
      <trkpt lat="45.12442" lon="5.90135">
        <ele>2214.258</ele>
        <time>2021-02-07T10:24:29Z</time>
      </trkpt>
      <trkpt lat="45.12444" lon="5.90139">
        <ele>2214.612</ele>
        <time>2021-02-07T10:24:34Z</time>
      </trkpt>
      <trkpt lat="45.12446" lon="5.90144">
        <ele>2215.329</ele>
        <time>2021-02-07T10:24:39Z</time>
      </trkpt>
      <trkpt lat="45.12446" lon="5.90151">
        <ele>2216.904</ele>
        <time>2021-02-07T10:24:44Z</time>
      </trkpt>
      <trkpt lat="45.12448" lon="5.90153">
        <ele>2216.762</ele>
        <time>2021-02-07T10:24:49Z</time>
      </trkpt>
      <trkpt lat="45.1245" lon="5.90157">
        <ele>2216.781</ele>
        <time>2021-02-07T10:24:54Z</time>
      </trkpt>
      <trkpt lat="45.12453" lon="5.90159">
        <ele>2216.566</ele>
        <time>2021-02-07T10:24:59Z</time>
      </trkpt>
      <trkpt lat="45.12455" lon="5.90164">
        <ele>2216.908</ele>
        <time>2021-02-07T10:25:04Z</time>
      </trkpt>
      <trkpt lat="45.12455" lon="5.9017">
        <ele>2218.556</ele>
        <time>2021-02-07T10:25:09Z</time>
      </trkpt>
      <trkpt lat="45.12456" lon="5.90175">
        <ele>2220.019</ele>
        <time>2021-02-07T10:25:14Z</time>
      </trkpt>
      <trkpt lat="45.12457" lon="5.90178">
        <ele>2220.16</ele>
        <time>2021-02-07T10:25:19Z</time>
      </trkpt>
      <trkpt lat="45.12458" lon="5.90181">
        <ele>2220.594</ele>
        <time>2021-02-07T10:25:24Z</time>
      </trkpt>
      <trkpt lat="45.12459" lon="5.90184">
        <ele>2220.969</ele>
        <time>2021-02-07T10:25:29Z</time>
      </trkpt>
      <trkpt lat="45.12461" lon="5.90187">
        <ele>2221.182</ele>
        <time>2021-02-07T10:25:34Z</time>
      </trkpt>
      <trkpt lat="45.12462" lon="5.9019">
        <ele>2221.336</ele>
        <time>2021-02-07T10:25:39Z</time>
      </trkpt>
      <trkpt lat="45.12464" lon="5.90193">
        <ele>2221.842</ele>
        <time>2021-02-07T10:25:44Z</time>
      </trkpt>
      <trkpt lat="45.12466" lon="5.90196">
        <ele>2221.773</ele>
        <time>2021-02-07T10:25:49Z</time>
      </trkpt>
      <trkpt lat="45.12468" lon="5.90199">
        <ele>2222.392</ele>
        <time>2021-02-07T10:25:54Z</time>
      </trkpt>
      <trkpt lat="45.1247" lon="5.90202">
        <ele>2222.891</ele>
        <time>2021-02-07T10:25:59Z</time>
      </trkpt>
      <trkpt lat="45.12471" lon="5.90205">
        <ele>2223.342</ele>
        <time>2021-02-07T10:26:04Z</time>
      </trkpt>
      <trkpt lat="45.12474" lon="5.90207">
        <ele>2223.054</ele>
        <time>2021-02-07T10:26:09Z</time>
      </trkpt>
      <trkpt lat="45.12475" lon="5.90209">
        <ele>2223.135</ele>
        <time>2021-02-07T10:26:14Z</time>
      </trkpt>
      <trkpt lat="45.12477" lon="5.90212">
        <ele>2224.319</ele>
        <time>2021-02-07T10:26:19Z</time>
      </trkpt>
      <trkpt lat="45.12478" lon="5.90214">
        <ele>2225.82</ele>
        <time>2021-02-07T10:26:24Z</time>
      </trkpt>
      <trkpt lat="45.1248" lon="5.90217">
        <ele>2226.825</ele>
        <time>2021-02-07T10:26:29Z</time>
      </trkpt>
      <trkpt lat="45.12482" lon="5.90219">
        <ele>2227.234</ele>
        <time>2021-02-07T10:26:34Z</time>
      </trkpt>
      <trkpt lat="45.12484" lon="5.90221">
        <ele>2227.451</ele>
        <time>2021-02-07T10:26:39Z</time>
      </trkpt>
      <trkpt lat="45.12486" lon="5.90224">
        <ele>2228.73</ele>
        <time>2021-02-07T10:26:44Z</time>
      </trkpt>
      <trkpt lat="45.12489" lon="5.90226">
        <ele>2229.055</ele>
        <time>2021-02-07T10:26:49Z</time>
      </trkpt>
      <trkpt lat="45.12491" lon="5.90228">
        <ele>2229.746</ele>
        <time>2021-02-07T10:26:54Z</time>
      </trkpt>
      <trkpt lat="45.12494" lon="5.90229">
        <ele>2230.483</ele>
        <time>2021-02-07T10:26:59Z</time>
      </trkpt>
      <trkpt lat="45.12496" lon="5.9023">
        <ele>2231.139</ele>
        <time>2021-02-07T10:27:04Z</time>
      </trkpt>
      <trkpt lat="45.12498" lon="5.90231">
        <ele>2232.211</ele>
        <time>2021-02-07T10:27:09Z</time>
      </trkpt>
      <trkpt lat="45.125" lon="5.90233">
        <ele>2233.232</ele>
        <time>2021-02-07T10:27:14Z</time>
      </trkpt>
      <trkpt lat="45.12501" lon="5.90235">
        <ele>2234.195</ele>
        <time>2021-02-07T10:27:19Z</time>
      </trkpt>
      <trkpt lat="45.12503" lon="5.90237">
        <ele>2235.623</ele>
        <time>2021-02-07T10:27:24Z</time>
      </trkpt>
      <trkpt lat="45.12504" lon="5.90239">
        <ele>2236.469</ele>
        <time>2021-02-07T10:27:29Z</time>
      </trkpt>
      <trkpt lat="45.12506" lon="5.90242">
        <ele>2237.916</ele>
        <time>2021-02-07T10:27:34Z</time>
      </trkpt>
      <trkpt lat="45.12508" lon="5.90246">
        <ele>2238.004</ele>
        <time>2021-02-07T10:27:39Z</time>
      </trkpt>
      <trkpt lat="45.12509" lon="5.90247">
        <ele>2238.673</ele>
        <time>2021-02-07T10:27:44Z</time>
      </trkpt>
      <trkpt lat="45.12511" lon="5.9025">
        <ele>2238.868</ele>
        <time>2021-02-07T10:27:49Z</time>
      </trkpt>
      <trkpt lat="45.12512" lon="5.90252">
        <ele>2239.632</ele>
        <time>2021-02-07T10:27:54Z</time>
      </trkpt>
      <trkpt lat="45.12513" lon="5.90254">
        <ele>2240.171</ele>
        <time>2021-02-07T10:27:59Z</time>
      </trkpt>
      <trkpt lat="45.12515" lon="5.90255">
        <ele>2240.146</ele>
        <time>2021-02-07T10:28:04Z</time>
      </trkpt>
      <trkpt lat="45.12517" lon="5.90258">
        <ele>2241.564</ele>
        <time>2021-02-07T10:28:09Z</time>
      </trkpt>
      <trkpt lat="45.1252" lon="5.90257">
        <ele>2242.759</ele>
        <time>2021-02-07T10:28:14Z</time>
      </trkpt>
      <trkpt lat="45.12522" lon="5.90256">
        <ele>2243.641</ele>
        <time>2021-02-07T10:28:19Z</time>
      </trkpt>
      <trkpt lat="45.12525" lon="5.90256">
        <ele>2242.867</ele>
        <time>2021-02-07T10:28:24Z</time>
      </trkpt>
      <trkpt lat="45.12528" lon="5.90256">
        <ele>2242.361</ele>
        <time>2021-02-07T10:28:29Z</time>
      </trkpt>
      <trkpt lat="45.12531" lon="5.90255">
        <ele>2241.908</ele>
        <time>2021-02-07T10:28:34Z</time>
      </trkpt>
      <trkpt lat="45.12533" lon="5.90253">
        <ele>2240.78</ele>
        <time>2021-02-07T10:28:39Z</time>
      </trkpt>
      <trkpt lat="45.12535" lon="5.90249">
        <ele>2240.994</ele>
        <time>2021-02-07T10:28:44Z</time>
      </trkpt>
      <trkpt lat="45.12538" lon="5.90245">
        <ele>2239.491</ele>
        <time>2021-02-07T10:28:49Z</time>
      </trkpt>
      <trkpt lat="45.12541" lon="5.90241">
        <ele>2237.897</ele>
        <time>2021-02-07T10:28:54Z</time>
      </trkpt>
      <trkpt lat="45.12542" lon="5.90243">
        <ele>2237.074</ele>
        <time>2021-02-07T10:28:59Z</time>
      </trkpt>
      <trkpt lat="45.12541" lon="5.90244">
        <ele>2237.555</ele>
        <time>2021-02-07T10:29:14Z</time>
      </trkpt>
      <trkpt lat="45.12541" lon="5.90243">
        <ele>2237.878</ele>
        <time>2021-02-07T10:29:24Z</time>
      </trkpt>
      <trkpt lat="45.12539" lon="5.90244">
        <ele>2238.98</ele>
        <time>2021-02-07T10:29:29Z</time>
      </trkpt>
      <trkpt lat="45.12539" lon="5.90246">
        <ele>2240.229</ele>
        <time>2021-02-07T10:29:34Z</time>
      </trkpt>
      <trkpt lat="45.12538" lon="5.90246">
        <ele>2240.554</ele>
        <time>2021-02-07T10:29:44Z</time>
      </trkpt>
      <trkpt lat="45.12539" lon="5.90247">
        <ele>2241.407</ele>
        <time>2021-02-07T10:29:49Z</time>
      </trkpt>
      <trkpt lat="45.1254" lon="5.90248">
        <ele>2244.894</ele>
        <time>2021-02-07T10:29:54Z</time>
      </trkpt>
      <trkpt lat="45.1254" lon="5.90248">
        <ele>2244.948</ele>
        <time>2021-02-07T10:30:14Z</time>
      </trkpt>
      <trkpt lat="45.1254" lon="5.90248">
        <ele>2245.017</ele>
        <time>2021-02-07T10:30:34Z</time>
      </trkpt>
      <trkpt lat="45.1254" lon="5.90248">
        <ele>2245.059</ele>
        <time>2021-02-07T10:30:54Z</time>
      </trkpt>
      <trkpt lat="45.1254" lon="5.90249">
        <ele>2245.769</ele>
        <time>2021-02-07T10:30:59Z</time>
      </trkpt>
      <trkpt lat="45.1254" lon="5.90249">
        <ele>2245.802</ele>
        <time>2021-02-07T10:31:19Z</time>
      </trkpt>
      <trkpt lat="45.12541" lon="5.90249">
        <ele>2247.702</ele>
        <time>2021-02-07T10:31:39Z</time>
      </trkpt>
      <trkpt lat="45.12541" lon="5.90249">
        <ele>2247.873</ele>
        <time>2021-02-07T10:31:44Z</time>
      </trkpt>
      <trkpt lat="45.12541" lon="5.90249">
        <ele>2247.833</ele>
        <time>2021-02-07T10:32:04Z</time>
      </trkpt>
      <trkpt lat="45.1254" lon="5.90249">
        <ele>2247.646</ele>
        <time>2021-02-07T10:32:14Z</time>
      </trkpt>
      <trkpt lat="45.12541" lon="5.9025">
        <ele>2247.732</ele>
        <time>2021-02-07T10:32:19Z</time>
      </trkpt>
      <trkpt lat="45.12542" lon="5.90251">
        <ele>2249.191</ele>
        <time>2021-02-07T10:32:24Z</time>
      </trkpt>
      <trkpt lat="45.1254" lon="5.90249">
        <ele>2248.537</ele>
        <time>2021-02-07T10:32:29Z</time>
      </trkpt>
      <trkpt lat="45.12538" lon="5.90248">
        <ele>2248.454</ele>
        <time>2021-02-07T10:32:34Z</time>
      </trkpt>
      <trkpt lat="45.12538" lon="5.90248">
        <ele>2248.428</ele>
        <time>2021-02-07T10:32:54Z</time>
      </trkpt>
      <trkpt lat="45.12538" lon="5.90248">
        <ele>2248.372</ele>
        <time>2021-02-07T10:33:14Z</time>
      </trkpt>
      <trkpt lat="45.12538" lon="5.90248">
        <ele>2248.298</ele>
        <time>2021-02-07T10:33:34Z</time>
      </trkpt>
      <trkpt lat="45.12538" lon="5.90247">
        <ele>2247.889</ele>
        <time>2021-02-07T10:33:44Z</time>
      </trkpt>
      <trkpt lat="45.12538" lon="5.90247">
        <ele>2247.658</ele>
        <time>2021-02-07T10:33:59Z</time>
      </trkpt>
      <trkpt lat="45.12538" lon="5.90248">
        <ele>2247.826</ele>
        <time>2021-02-07T10:34:09Z</time>
      </trkpt>
      <trkpt lat="45.12538" lon="5.90248">
        <ele>2247.658</ele>
        <time>2021-02-07T10:34:24Z</time>
      </trkpt>
      <trkpt lat="45.12538" lon="5.90248">
        <ele>2247.649</ele>
        <time>2021-02-07T10:34:44Z</time>
      </trkpt>
      <trkpt lat="45.12537" lon="5.90248">
        <ele>2247.339</ele>
        <time>2021-02-07T10:34:59Z</time>
      </trkpt>
      <trkpt lat="45.12537" lon="5.90248">
        <ele>2247.332</ele>
        <time>2021-02-07T10:35:09Z</time>
      </trkpt>
      <trkpt lat="45.12537" lon="5.90247">
        <ele>2246.91</ele>
        <time>2021-02-07T10:35:24Z</time>
      </trkpt>
      <trkpt lat="45.12537" lon="5.90247">
        <ele>2246.718</ele>
        <time>2021-02-07T10:35:34Z</time>
      </trkpt>
      <trkpt lat="45.12536" lon="5.90247">
        <ele>2246.231</ele>
        <time>2021-02-07T10:35:54Z</time>
      </trkpt>
      <trkpt lat="45.12536" lon="5.90247">
        <ele>2246.342</ele>
        <time>2021-02-07T10:35:59Z</time>
      </trkpt>
      <trkpt lat="45.12536" lon="5.90246">
        <ele>2246.265</ele>
        <time>2021-02-07T10:36:14Z</time>
      </trkpt>
      <trkpt lat="45.12537" lon="5.90246">
        <ele>2246.472</ele>
        <time>2021-02-07T10:36:19Z</time>
      </trkpt>
      <trkpt lat="45.12537" lon="5.90245">
        <ele>2246.67</ele>
        <time>2021-02-07T10:36:29Z</time>
      </trkpt>
      <trkpt lat="45.12537" lon="5.90246">
        <ele>2246.663</ele>
        <time>2021-02-07T10:36:39Z</time>
      </trkpt>
      <trkpt lat="45.12537" lon="5.90246">
        <ele>2246.658</ele>
        <time>2021-02-07T10:36:49Z</time>
      </trkpt>
      <trkpt lat="45.12537" lon="5.90246">
        <ele>2246.652</ele>
        <time>2021-02-07T10:37:09Z</time>
      </trkpt>
      <trkpt lat="45.12538" lon="5.90246">
        <ele>2246.994</ele>
        <time>2021-02-07T10:37:24Z</time>
      </trkpt>
      <trkpt lat="45.12538" lon="5.90246">
        <ele>2248.008</ele>
        <time>2021-02-07T10:37:40Z</time>
      </trkpt>
      <trkpt lat="45.12538" lon="5.90246">
        <ele>2248.499</ele>
        <time>2021-02-07T10:37:45Z</time>
      </trkpt>
      <trkpt lat="45.12537" lon="5.90246">
        <ele>2248.787</ele>
        <time>2021-02-07T10:37:55Z</time>
      </trkpt>
      <trkpt lat="45.12537" lon="5.90247">
        <ele>2248.661</ele>
        <time>2021-02-07T10:38:05Z</time>
      </trkpt>
      <trkpt lat="45.12537" lon="5.90247">
        <ele>2248.659</ele>
        <time>2021-02-07T10:38:15Z</time>
      </trkpt>
      <trkpt lat="45.12537" lon="5.90247">
        <ele>2248.637</ele>
        <time>2021-02-07T10:38:35Z</time>
      </trkpt>
      <trkpt lat="45.12538" lon="5.90247">
        <ele>2248.992</ele>
        <time>2021-02-07T10:38:45Z</time>
      </trkpt>
      <trkpt lat="45.12538" lon="5.90247">
        <ele>2248.972</ele>
        <time>2021-02-07T10:39:00Z</time>
      </trkpt>
      <trkpt lat="45.12538" lon="5.90244">
        <ele>2247.808</ele>
        <time>2021-02-07T10:39:15Z</time>
      </trkpt>
      <trkpt lat="45.12538" lon="5.90244">
        <ele>2247.595</ele>
        <time>2021-02-07T10:39:25Z</time>
      </trkpt>
      <trkpt lat="45.12538" lon="5.90245">
        <ele>2247.409</ele>
        <time>2021-02-07T10:39:30Z</time>
      </trkpt>
      <trkpt lat="45.12539" lon="5.90245">
        <ele>2247.386</ele>
        <time>2021-02-07T10:39:50Z</time>
      </trkpt>
      <trkpt lat="45.12539" lon="5.90245">
        <ele>2247.381</ele>
        <time>2021-02-07T10:39:55Z</time>
      </trkpt>
      <trkpt lat="45.12539" lon="5.90245">
        <ele>2247.359</ele>
        <time>2021-02-07T10:40:15Z</time>
      </trkpt>
      <trkpt lat="45.12539" lon="5.90245">
        <ele>2247.266</ele>
        <time>2021-02-07T10:40:35Z</time>
      </trkpt>
      <trkpt lat="45.12539" lon="5.90247">
        <ele>2246.543</ele>
        <time>2021-02-07T10:40:45Z</time>
      </trkpt>
      <trkpt lat="45.1254" lon="5.90247">
        <ele>2246.177</ele>
        <time>2021-02-07T10:40:55Z</time>
      </trkpt>
      <trkpt lat="45.1254" lon="5.90248">
        <ele>2245.979</ele>
        <time>2021-02-07T10:41:00Z</time>
      </trkpt>
      <trkpt lat="45.12541" lon="5.90248">
        <ele>2245.745</ele>
        <time>2021-02-07T10:41:05Z</time>
      </trkpt>
      <trkpt lat="45.12541" lon="5.90249">
        <ele>2245.874</ele>
        <time>2021-02-07T10:41:10Z</time>
      </trkpt>
      <trkpt lat="45.12541" lon="5.90249">
        <ele>2245.66</ele>
        <time>2021-02-07T10:41:30Z</time>
      </trkpt>
      <trkpt lat="45.1254" lon="5.90249">
        <ele>2246.106</ele>
        <time>2021-02-07T10:41:50Z</time>
      </trkpt>
      <trkpt lat="45.1254" lon="5.90248">
        <ele>2246.093</ele>
        <time>2021-02-07T10:41:55Z</time>
      </trkpt>
      <trkpt lat="45.12538" lon="5.90246">
        <ele>2246.459</ele>
        <time>2021-02-07T10:42:00Z</time>
      </trkpt>
      <trkpt lat="45.12537" lon="5.90246">
        <ele>2245.854</ele>
        <time>2021-02-07T10:42:05Z</time>
      </trkpt>
      <trkpt lat="45.12539" lon="5.90248">
        <ele>2244.462</ele>
        <time>2021-02-07T10:42:10Z</time>
      </trkpt>
      <trkpt lat="45.12538" lon="5.90248">
        <ele>2242.325</ele>
        <time>2021-02-07T10:42:30Z</time>
      </trkpt>
      <trkpt lat="45.12538" lon="5.90248">
        <ele>2242.354</ele>
        <time>2021-02-07T10:42:35Z</time>
      </trkpt>
      <trkpt lat="45.12538" lon="5.90248">
        <ele>2242.103</ele>
        <time>2021-02-07T10:42:55Z</time>
      </trkpt>
      <trkpt lat="45.12539" lon="5.90249">
        <ele>2243.779</ele>
        <time>2021-02-07T10:43:05Z</time>
      </trkpt>
      <trkpt lat="45.12539" lon="5.90249">
        <ele>2242.835</ele>
        <time>2021-02-07T10:43:20Z</time>
      </trkpt>
      <trkpt lat="45.12539" lon="5.90249">
        <ele>2242.801</ele>
        <time>2021-02-07T10:43:40Z</time>
      </trkpt>
      <trkpt lat="45.12539" lon="5.90249">
        <ele>2242.098</ele>
        <time>2021-02-07T10:44:00Z</time>
      </trkpt>
      <trkpt lat="45.12539" lon="5.90248">
        <ele>2242.255</ele>
        <time>2021-02-07T10:44:05Z</time>
      </trkpt>
      <trkpt lat="45.12539" lon="5.90246">
        <ele>2242.334</ele>
        <time>2021-02-07T10:44:10Z</time>
      </trkpt>
      <trkpt lat="45.1254" lon="5.90246">
        <ele>2242.403</ele>
        <time>2021-02-07T10:44:15Z</time>
      </trkpt>
      <trkpt lat="45.1254" lon="5.90247">
        <ele>2242.916</ele>
        <time>2021-02-07T10:44:30Z</time>
      </trkpt>
      <trkpt lat="45.1254" lon="5.90247">
        <ele>2243.372</ele>
        <time>2021-02-07T10:44:40Z</time>
      </trkpt>
      <trkpt lat="45.12541" lon="5.90246">
        <ele>2242.595</ele>
        <time>2021-02-07T10:44:50Z</time>
      </trkpt>
      <trkpt lat="45.12541" lon="5.90246">
        <ele>2242.78</ele>
        <time>2021-02-07T10:45:05Z</time>
      </trkpt>
      <trkpt lat="45.12539" lon="5.90248">
        <ele>2243.659</ele>
        <time>2021-02-07T10:45:10Z</time>
      </trkpt>
      <trkpt lat="45.12535" lon="5.90251">
        <ele>2243.99</ele>
        <time>2021-02-07T10:45:15Z</time>
      </trkpt>
      <trkpt lat="45.12533" lon="5.90254">
        <ele>2242.054</ele>
        <time>2021-02-07T10:45:20Z</time>
      </trkpt>
      <trkpt lat="45.12529" lon="5.90256">
        <ele>2243.135</ele>
        <time>2021-02-07T10:45:25Z</time>
      </trkpt>
      <trkpt lat="45.12525" lon="5.90258">
        <ele>2242.377</ele>
        <time>2021-02-07T10:45:30Z</time>
      </trkpt>
      <trkpt lat="45.12522" lon="5.9026">
        <ele>2242.616</ele>
        <time>2021-02-07T10:45:35Z</time>
      </trkpt>
      <trkpt lat="45.12519" lon="5.90262">
        <ele>2242.817</ele>
        <time>2021-02-07T10:45:40Z</time>
      </trkpt>
      <trkpt lat="45.12519" lon="5.90262">
        <ele>2242.082</ele>
        <time>2021-02-07T10:46:00Z</time>
      </trkpt>
      <trkpt lat="45.12519" lon="5.90263">
        <ele>2242.09</ele>
        <time>2021-02-07T10:46:10Z</time>
      </trkpt>
      <trkpt lat="45.12518" lon="5.90263">
        <ele>2242.328</ele>
        <time>2021-02-07T10:46:15Z</time>
      </trkpt>
      <trkpt lat="45.12517" lon="5.90264">
        <ele>2241.788</ele>
        <time>2021-02-07T10:46:25Z</time>
      </trkpt>
      <trkpt lat="45.12517" lon="5.90264">
        <ele>2242.321</ele>
        <time>2021-02-07T10:46:40Z</time>
      </trkpt>
      <trkpt lat="45.12517" lon="5.90264">
        <ele>2242.368</ele>
        <time>2021-02-07T10:47:00Z</time>
      </trkpt>
      <trkpt lat="45.12517" lon="5.90263">
        <ele>2242.423</ele>
        <time>2021-02-07T10:47:05Z</time>
      </trkpt>
      <trkpt lat="45.12501" lon="5.90264">
        <ele>2237.844</ele>
        <time>2021-02-07T10:47:10Z</time>
      </trkpt>
      <trkpt lat="45.12501" lon="5.90261">
        <ele>2236.925</ele>
        <time>2021-02-07T10:47:15Z</time>
      </trkpt>
      <trkpt lat="45.12501" lon="5.90262">
        <ele>2236.504</ele>
        <time>2021-02-07T10:47:25Z</time>
      </trkpt>
      <trkpt lat="45.12496" lon="5.9026">
        <ele>2235.042</ele>
        <time>2021-02-07T10:47:30Z</time>
      </trkpt>
      <trkpt lat="45.12493" lon="5.90246">
        <ele>2232.888</ele>
        <time>2021-02-07T10:47:35Z</time>
      </trkpt>
      <trkpt lat="45.12492" lon="5.90244">
        <ele>2232.389</ele>
        <time>2021-02-07T10:47:40Z</time>
      </trkpt>
      <trkpt lat="45.12479" lon="5.90227">
        <ele>2228.254</ele>
        <time>2021-02-07T10:47:45Z</time>
      </trkpt>
      <trkpt lat="45.12467" lon="5.90207">
        <ele>2224.775</ele>
        <time>2021-02-07T10:47:50Z</time>
      </trkpt>
      <trkpt lat="45.12468" lon="5.90203">
        <ele>2223.733</ele>
        <time>2021-02-07T10:47:55Z</time>
      </trkpt>
      <trkpt lat="45.12467" lon="5.90203">
        <ele>2223.394</ele>
        <time>2021-02-07T10:48:00Z</time>
      </trkpt>
      <trkpt lat="45.12467" lon="5.90202">
        <ele>2223.334</ele>
        <time>2021-02-07T10:48:05Z</time>
      </trkpt>
      <trkpt lat="45.12464" lon="5.90191">
        <ele>2221.762</ele>
        <time>2021-02-07T10:48:10Z</time>
      </trkpt>
      <trkpt lat="45.12452" lon="5.90163">
        <ele>2218.283</ele>
        <time>2021-02-07T10:48:15Z</time>
      </trkpt>
      <trkpt lat="45.12435" lon="5.90138">
        <ele>2215.84</ele>
        <time>2021-02-07T10:48:20Z</time>
      </trkpt>
      <trkpt lat="45.12422" lon="5.90122">
        <ele>2212.953</ele>
        <time>2021-02-07T10:48:25Z</time>
      </trkpt>
      <trkpt lat="45.12409" lon="5.90098">
        <ele>2209.661</ele>
        <time>2021-02-07T10:48:30Z</time>
      </trkpt>
      <trkpt lat="45.12392" lon="5.90064">
        <ele>2202.786</ele>
        <time>2021-02-07T10:48:35Z</time>
      </trkpt>
      <trkpt lat="45.12382" lon="5.90026">
        <ele>2197.819</ele>
        <time>2021-02-07T10:48:40Z</time>
      </trkpt>
      <trkpt lat="45.12373" lon="5.90004">
        <ele>2193.881</ele>
        <time>2021-02-07T10:48:45Z</time>
      </trkpt>
      <trkpt lat="45.12356" lon="5.89979">
        <ele>2187.918</ele>
        <time>2021-02-07T10:48:50Z</time>
      </trkpt>
      <trkpt lat="45.12348" lon="5.89948">
        <ele>2182.664</ele>
        <time>2021-02-07T10:48:55Z</time>
      </trkpt>
      <trkpt lat="45.12346" lon="5.89924">
        <ele>2179.564</ele>
        <time>2021-02-07T10:49:00Z</time>
      </trkpt>
      <trkpt lat="45.12335" lon="5.89896">
        <ele>2174.206</ele>
        <time>2021-02-07T10:49:05Z</time>
      </trkpt>
      <trkpt lat="45.12315" lon="5.89871">
        <ele>2166.163</ele>
        <time>2021-02-07T10:49:10Z</time>
      </trkpt>
      <trkpt lat="45.12307" lon="5.89841">
        <ele>2160.312</ele>
        <time>2021-02-07T10:49:15Z</time>
      </trkpt>
      <trkpt lat="45.12326" lon="5.89826">
        <ele>2155.955</ele>
        <time>2021-02-07T10:49:20Z</time>
      </trkpt>
      <trkpt lat="45.12331" lon="5.89821">
        <ele>2154.832</ele>
        <time>2021-02-07T10:49:25Z</time>
      </trkpt>
      <trkpt lat="45.12331" lon="5.8982">
        <ele>2155.243</ele>
        <time>2021-02-07T10:49:30Z</time>
      </trkpt>
      <trkpt lat="45.12331" lon="5.89819">
        <ele>2156.303</ele>
        <time>2021-02-07T10:49:35Z</time>
      </trkpt>
      <trkpt lat="45.12331" lon="5.8982">
        <ele>2155.594</ele>
        <time>2021-02-07T10:49:50Z</time>
      </trkpt>
      <trkpt lat="45.1233" lon="5.8982">
        <ele>2154.422</ele>
        <time>2021-02-07T10:49:55Z</time>
      </trkpt>
      <trkpt lat="45.12331" lon="5.8982">
        <ele>2153.57</ele>
        <time>2021-02-07T10:50:00Z</time>
      </trkpt>
      <trkpt lat="45.1233" lon="5.89819">
        <ele>2154.732</ele>
        <time>2021-02-07T10:50:10Z</time>
      </trkpt>
      <trkpt lat="45.1233" lon="5.8982">
        <ele>2153.95</ele>
        <time>2021-02-07T10:50:15Z</time>
      </trkpt>
      <trkpt lat="45.1233" lon="5.89821">
        <ele>2154.387</ele>
        <time>2021-02-07T10:50:20Z</time>
      </trkpt>
      <trkpt lat="45.1233" lon="5.8982">
        <ele>2154.549</ele>
        <time>2021-02-07T10:50:25Z</time>
      </trkpt>
      <trkpt lat="45.1233" lon="5.89821">
        <ele>2155.12</ele>
        <time>2021-02-07T10:50:30Z</time>
      </trkpt>
      <trkpt lat="45.1233" lon="5.89821">
        <ele>2154.581</ele>
        <time>2021-02-07T10:50:50Z</time>
      </trkpt>
      <trkpt lat="45.1233" lon="5.89821">
        <ele>2154.579</ele>
        <time>2021-02-07T10:51:10Z</time>
      </trkpt>
      <trkpt lat="45.1233" lon="5.8982">
        <ele>2154.569</ele>
        <time>2021-02-07T10:51:25Z</time>
      </trkpt>
      <trkpt lat="45.1233" lon="5.89821">
        <ele>2155.217</ele>
        <time>2021-02-07T10:51:40Z</time>
      </trkpt>
      <trkpt lat="45.12331" lon="5.8982">
        <ele>2155.6</ele>
        <time>2021-02-07T10:51:45Z</time>
      </trkpt>
      <trkpt lat="45.12331" lon="5.89819">
        <ele>2156.025</ele>
        <time>2021-02-07T10:51:55Z</time>
      </trkpt>
      <trkpt lat="45.12326" lon="5.89816">
        <ele>2155.296</ele>
        <time>2021-02-07T10:52:05Z</time>
      </trkpt>
      <trkpt lat="45.12328" lon="5.89789">
        <ele>2145.766</ele>
        <time>2021-02-07T10:52:10Z</time>
      </trkpt>
      <trkpt lat="45.12344" lon="5.89769">
        <ele>2137.567</ele>
        <time>2021-02-07T10:52:15Z</time>
      </trkpt>
      <trkpt lat="45.12361" lon="5.89764">
        <ele>2130.186</ele>
        <time>2021-02-07T10:52:20Z</time>
      </trkpt>
      <trkpt lat="45.12384" lon="5.89775">
        <ele>2123.285</ele>
        <time>2021-02-07T10:52:25Z</time>
      </trkpt>
      <trkpt lat="45.12412" lon="5.89779">
        <ele>2117.834</ele>
        <time>2021-02-07T10:52:30Z</time>
      </trkpt>
      <trkpt lat="45.1244" lon="5.89773">
        <ele>2112.528</ele>
        <time>2021-02-07T10:52:35Z</time>
      </trkpt>
      <trkpt lat="45.12458" lon="5.89759">
        <ele>2108.083</ele>
        <time>2021-02-07T10:52:40Z</time>
      </trkpt>
      <trkpt lat="45.12457" lon="5.89724">
        <ele>2096.674</ele>
        <time>2021-02-07T10:52:45Z</time>
      </trkpt>
      <trkpt lat="45.1244" lon="5.89693">
        <ele>2087.953</ele>
        <time>2021-02-07T10:52:50Z</time>
      </trkpt>
      <trkpt lat="45.12435" lon="5.8969">
        <ele>2086.445</ele>
        <time>2021-02-07T10:52:55Z</time>
      </trkpt>
      <trkpt lat="45.12436" lon="5.8969">
        <ele>2087.05</ele>
        <time>2021-02-07T10:53:00Z</time>
      </trkpt>
      <trkpt lat="45.12436" lon="5.89691">
        <ele>2086.246</ele>
        <time>2021-02-07T10:53:10Z</time>
      </trkpt>
      <trkpt lat="45.12436" lon="5.89691">
        <ele>2086.228</ele>
        <time>2021-02-07T10:53:25Z</time>
      </trkpt>
      <trkpt lat="45.12433" lon="5.89686">
        <ele>2082.949</ele>
        <time>2021-02-07T10:53:35Z</time>
      </trkpt>
      <trkpt lat="45.12446" lon="5.89663">
        <ele>2076.537</ele>
        <time>2021-02-07T10:53:40Z</time>
      </trkpt>
      <trkpt lat="45.12436" lon="5.89634">
        <ele>2064.595</ele>
        <time>2021-02-07T10:53:45Z</time>
      </trkpt>
      <trkpt lat="45.12428" lon="5.89602">
        <ele>2054.309</ele>
        <time>2021-02-07T10:53:50Z</time>
      </trkpt>
      <trkpt lat="45.12425" lon="5.89589">
        <ele>2051.903</ele>
        <time>2021-02-07T10:53:55Z</time>
      </trkpt>
      <trkpt lat="45.12424" lon="5.89588">
        <ele>2050.269</ele>
        <time>2021-02-07T10:54:00Z</time>
      </trkpt>
      <trkpt lat="45.12424" lon="5.89587">
        <ele>2049.92</ele>
        <time>2021-02-07T10:54:05Z</time>
      </trkpt>
      <trkpt lat="45.12425" lon="5.89587">
        <ele>2048.749</ele>
        <time>2021-02-07T10:54:10Z</time>
      </trkpt>
      <trkpt lat="45.12425" lon="5.89587">
        <ele>2047.649</ele>
        <time>2021-02-07T10:54:30Z</time>
      </trkpt>
      <trkpt lat="45.12426" lon="5.89587">
        <ele>2048.147</ele>
        <time>2021-02-07T10:54:40Z</time>
      </trkpt>
      <trkpt lat="45.12427" lon="5.89586">
        <ele>2047.126</ele>
        <time>2021-02-07T10:54:45Z</time>
      </trkpt>
      <trkpt lat="45.12419" lon="5.89574">
        <ele>2042.511</ele>
        <time>2021-02-07T10:54:55Z</time>
      </trkpt>
      <trkpt lat="45.1243" lon="5.89542">
        <ele>2032.831</ele>
        <time>2021-02-07T10:55:00Z</time>
      </trkpt>
      <trkpt lat="45.12462" lon="5.8953">
        <ele>2027.569</ele>
        <time>2021-02-07T10:55:05Z</time>
      </trkpt>
      <trkpt lat="45.12492" lon="5.89521">
        <ele>2021.896</ele>
        <time>2021-02-07T10:55:10Z</time>
      </trkpt>
      <trkpt lat="45.1252" lon="5.89504">
        <ele>2013.578</ele>
        <time>2021-02-07T10:55:15Z</time>
      </trkpt>
      <trkpt lat="45.12551" lon="5.895">
        <ele>2006.849</ele>
        <time>2021-02-07T10:55:20Z</time>
      </trkpt>
      <trkpt lat="45.12584" lon="5.89507">
        <ele>1995.794</ele>
        <time>2021-02-07T10:55:25Z</time>
      </trkpt>
      <trkpt lat="45.12612" lon="5.89497">
        <ele>1986.788</ele>
        <time>2021-02-07T10:55:30Z</time>
      </trkpt>
      <trkpt lat="45.12611" lon="5.89494">
        <ele>1986.475</ele>
        <time>2021-02-07T10:55:35Z</time>
      </trkpt>
      <trkpt lat="45.12611" lon="5.89495">
        <ele>1983.257</ele>
        <time>2021-02-07T10:55:40Z</time>
      </trkpt>
      <trkpt lat="45.12611" lon="5.89495">
        <ele>1981.868</ele>
        <time>2021-02-07T10:56:00Z</time>
      </trkpt>
      <trkpt lat="45.12612" lon="5.89494">
        <ele>1979.419</ele>
        <time>2021-02-07T10:56:05Z</time>
      </trkpt>
      <trkpt lat="45.12612" lon="5.89495">
        <ele>1978.612</ele>
        <time>2021-02-07T10:56:10Z</time>
      </trkpt>
      <trkpt lat="45.12612" lon="5.89495">
        <ele>1978.228</ele>
        <time>2021-02-07T10:56:30Z</time>
      </trkpt>
      <trkpt lat="45.1261" lon="5.89494">
        <ele>1977.707</ele>
        <time>2021-02-07T10:56:35Z</time>
      </trkpt>
      <trkpt lat="45.12609" lon="5.89494">
        <ele>1977.251</ele>
        <time>2021-02-07T10:56:45Z</time>
      </trkpt>
      <trkpt lat="45.12609" lon="5.89495">
        <ele>1976.502</ele>
        <time>2021-02-07T10:56:50Z</time>
      </trkpt>
      <trkpt lat="45.1261" lon="5.89495">
        <ele>1976.332</ele>
        <time>2021-02-07T10:57:00Z</time>
      </trkpt>
      <trkpt lat="45.12609" lon="5.89496">
        <ele>1975.81</ele>
        <time>2021-02-07T10:57:10Z</time>
      </trkpt>
      <trkpt lat="45.12609" lon="5.89497">
        <ele>1973.827</ele>
        <time>2021-02-07T10:57:25Z</time>
      </trkpt>
      <trkpt lat="45.12609" lon="5.89497">
        <ele>1973.514</ele>
        <time>2021-02-07T10:57:30Z</time>
      </trkpt>
      <trkpt lat="45.12609" lon="5.89497">
        <ele>1973.483</ele>
        <time>2021-02-07T10:57:50Z</time>
      </trkpt>
      <trkpt lat="45.12609" lon="5.89495">
        <ele>1973.867</ele>
        <time>2021-02-07T10:58:10Z</time>
      </trkpt>
      <trkpt lat="45.12609" lon="5.89494">
        <ele>1974.835</ele>
        <time>2021-02-07T10:58:15Z</time>
      </trkpt>
      <trkpt lat="45.1261" lon="5.89493">
        <ele>1978.175</ele>
        <time>2021-02-07T10:58:25Z</time>
      </trkpt>
      <trkpt lat="45.1261" lon="5.89494">
        <ele>1977.652</ele>
        <time>2021-02-07T10:58:30Z</time>
      </trkpt>
      <trkpt lat="45.1261" lon="5.89493">
        <ele>1977.881</ele>
        <time>2021-02-07T10:58:35Z</time>
      </trkpt>
      <trkpt lat="45.12611" lon="5.89494">
        <ele>1977.813</ele>
        <time>2021-02-07T10:58:40Z</time>
      </trkpt>
      <trkpt lat="45.12611" lon="5.89493">
        <ele>1978.067</ele>
        <time>2021-02-07T10:58:45Z</time>
      </trkpt>
      <trkpt lat="45.12612" lon="5.89494">
        <ele>1978.533</ele>
        <time>2021-02-07T10:58:50Z</time>
      </trkpt>
      <trkpt lat="45.12612" lon="5.89493">
        <ele>1979.155</ele>
        <time>2021-02-07T10:59:00Z</time>
      </trkpt>
      <trkpt lat="45.12611" lon="5.89493">
        <ele>1979.723</ele>
        <time>2021-02-07T10:59:10Z</time>
      </trkpt>
      <trkpt lat="45.12611" lon="5.89493">
        <ele>1978.906</ele>
        <time>2021-02-07T10:59:25Z</time>
      </trkpt>
      <trkpt lat="45.1261" lon="5.89493">
        <ele>1978.6</ele>
        <time>2021-02-07T10:59:45Z</time>
      </trkpt>
      <trkpt lat="45.1261" lon="5.89493">
        <ele>1978.559</ele>
        <time>2021-02-07T10:59:50Z</time>
      </trkpt>
      <trkpt lat="45.12612" lon="5.89491">
        <ele>1978.303</ele>
        <time>2021-02-07T10:59:55Z</time>
      </trkpt>
      <trkpt lat="45.1263" lon="5.89471">
        <ele>1971.597</ele>
        <time>2021-02-07T11:00:00Z</time>
      </trkpt>
      <trkpt lat="45.12646" lon="5.89431">
        <ele>1962.182</ele>
        <time>2021-02-07T11:00:05Z</time>
      </trkpt>
      <trkpt lat="45.1264" lon="5.89392">
        <ele>1951.612</ele>
        <time>2021-02-07T11:00:10Z</time>
      </trkpt>
      <trkpt lat="45.12649" lon="5.89352">
        <ele>1936.097</ele>
        <time>2021-02-07T11:00:15Z</time>
      </trkpt>
      <trkpt lat="45.12671" lon="5.89309">
        <ele>1918.449</ele>
        <time>2021-02-07T11:00:20Z</time>
      </trkpt>
      <trkpt lat="45.12688" lon="5.8925">
        <ele>1912.964</ele>
        <time>2021-02-07T11:00:25Z</time>
      </trkpt>
      <trkpt lat="45.12691" lon="5.8922">
        <ele>1910.373</ele>
        <time>2021-02-07T11:00:30Z</time>
      </trkpt>
      <trkpt lat="45.1269" lon="5.8922">
        <ele>1908.217</ele>
        <time>2021-02-07T11:00:35Z</time>
      </trkpt>
      <trkpt lat="45.1269" lon="5.89219">
        <ele>1907.039</ele>
        <time>2021-02-07T11:00:45Z</time>
      </trkpt>
      <trkpt lat="45.12689" lon="5.89219">
        <ele>1906.673</ele>
        <time>2021-02-07T11:00:55Z</time>
      </trkpt>
      <trkpt lat="45.12689" lon="5.8922">
        <ele>1906.766</ele>
        <time>2021-02-07T11:01:00Z</time>
      </trkpt>
      <trkpt lat="45.12688" lon="5.89219">
        <ele>1906.153</ele>
        <time>2021-02-07T11:01:05Z</time>
      </trkpt>
      <trkpt lat="45.127" lon="5.89206">
        <ele>1904.282</ele>
        <time>2021-02-07T11:01:10Z</time>
      </trkpt>
      <trkpt lat="45.12713" lon="5.89174">
        <ele>1891.402</ele>
        <time>2021-02-07T11:01:15Z</time>
      </trkpt>
      <trkpt lat="45.12713" lon="5.8914">
        <ele>1879.349</ele>
        <time>2021-02-07T11:01:20Z</time>
      </trkpt>
      <trkpt lat="45.12709" lon="5.8908">
        <ele>1863.278</ele>
        <time>2021-02-07T11:01:25Z</time>
      </trkpt>
      <trkpt lat="45.12718" lon="5.89028">
        <ele>1857.202</ele>
        <time>2021-02-07T11:01:30Z</time>
      </trkpt>
      <trkpt lat="45.12717" lon="5.8902">
        <ele>1857.835</ele>
        <time>2021-02-07T11:01:35Z</time>
      </trkpt>
      <trkpt lat="45.12717" lon="5.8902">
        <ele>1857.686</ele>
        <time>2021-02-07T11:01:55Z</time>
      </trkpt>
      <trkpt lat="45.12716" lon="5.89019">
        <ele>1857.808</ele>
        <time>2021-02-07T11:02:00Z</time>
      </trkpt>
      <trkpt lat="45.12715" lon="5.89019">
        <ele>1858.174</ele>
        <time>2021-02-07T11:02:05Z</time>
      </trkpt>
      <trkpt lat="45.12716" lon="5.8902">
        <ele>1857.726</ele>
        <time>2021-02-07T11:02:15Z</time>
      </trkpt>
      <trkpt lat="45.12716" lon="5.89019">
        <ele>1858.013</ele>
        <time>2021-02-07T11:02:25Z</time>
      </trkpt>
      <trkpt lat="45.12716" lon="5.89019">
        <ele>1857.213</ele>
        <time>2021-02-07T11:02:40Z</time>
      </trkpt>
      <trkpt lat="45.12716" lon="5.8902">
        <ele>1857.071</ele>
        <time>2021-02-07T11:02:45Z</time>
      </trkpt>
      <trkpt lat="45.12716" lon="5.89019">
        <ele>1857.35</ele>
        <time>2021-02-07T11:02:50Z</time>
      </trkpt>
      <trkpt lat="45.12716" lon="5.8902">
        <ele>1857.913</ele>
        <time>2021-02-07T11:03:00Z</time>
      </trkpt>
      <trkpt lat="45.12716" lon="5.89019">
        <ele>1857.248</ele>
        <time>2021-02-07T11:03:10Z</time>
      </trkpt>
      <trkpt lat="45.12716" lon="5.89019">
        <ele>1857.218</ele>
        <time>2021-02-07T11:03:30Z</time>
      </trkpt>
      <trkpt lat="45.12716" lon="5.89019">
        <ele>1857.196</ele>
        <time>2021-02-07T11:03:50Z</time>
      </trkpt>
      <trkpt lat="45.12716" lon="5.89019">
        <ele>1857.181</ele>
        <time>2021-02-07T11:04:10Z</time>
      </trkpt>
      <trkpt lat="45.12716" lon="5.89019">
        <ele>1857.177</ele>
        <time>2021-02-07T11:04:30Z</time>
      </trkpt>
      <trkpt lat="45.12716" lon="5.8902">
        <ele>1857.43</ele>
        <time>2021-02-07T11:04:40Z</time>
      </trkpt>
      <trkpt lat="45.12716" lon="5.89015">
        <ele>1856.164</ele>
        <time>2021-02-07T11:04:50Z</time>
      </trkpt>
      <trkpt lat="45.12726" lon="5.88994">
        <ele>1849.113</ele>
        <time>2021-02-07T11:04:55Z</time>
      </trkpt>
      <trkpt lat="45.12739" lon="5.88952">
        <ele>1841.003</ele>
        <time>2021-02-07T11:05:00Z</time>
      </trkpt>
      <trkpt lat="45.12762" lon="5.88941">
        <ele>1833.058</ele>
        <time>2021-02-07T11:05:05Z</time>
      </trkpt>
      <trkpt lat="45.12785" lon="5.88939">
        <ele>1826.871</ele>
        <time>2021-02-07T11:05:10Z</time>
      </trkpt>
      <trkpt lat="45.12794" lon="5.88921">
        <ele>1822.958</ele>
        <time>2021-02-07T11:05:15Z</time>
      </trkpt>
      <trkpt lat="45.128" lon="5.88924">
        <ele>1821.431</ele>
        <time>2021-02-07T11:05:20Z</time>
      </trkpt>
      <trkpt lat="45.12822" lon="5.88921">
        <ele>1813.984</ele>
        <time>2021-02-07T11:05:25Z</time>
      </trkpt>
      <trkpt lat="45.12854" lon="5.88922">
        <ele>1804.281</ele>
        <time>2021-02-07T11:05:30Z</time>
      </trkpt>
      <trkpt lat="45.12879" lon="5.88899">
        <ele>1795.523</ele>
        <time>2021-02-07T11:05:35Z</time>
      </trkpt>
      <trkpt lat="45.12913" lon="5.88885">
        <ele>1784.287</ele>
        <time>2021-02-07T11:05:40Z</time>
      </trkpt>
      <trkpt lat="45.12948" lon="5.88869">
        <ele>1773.181</ele>
        <time>2021-02-07T11:05:45Z</time>
      </trkpt>
      <trkpt lat="45.12992" lon="5.88863">
        <ele>1761.816</ele>
        <time>2021-02-07T11:05:50Z</time>
      </trkpt>
      <trkpt lat="45.13036" lon="5.88873">
        <ele>1753.41</ele>
        <time>2021-02-07T11:05:55Z</time>
      </trkpt>
      <trkpt lat="45.13065" lon="5.88879">
        <ele>1743.02</ele>
        <time>2021-02-07T11:06:00Z</time>
      </trkpt>
      <trkpt lat="45.13089" lon="5.88883">
        <ele>1736.044</ele>
        <time>2021-02-07T11:06:05Z</time>
      </trkpt>
      <trkpt lat="45.1312" lon="5.88883">
        <ele>1728.028</ele>
        <time>2021-02-07T11:06:10Z</time>
      </trkpt>
      <trkpt lat="45.1315" lon="5.88888">
        <ele>1721.098</ele>
        <time>2021-02-07T11:06:15Z</time>
      </trkpt>
      <trkpt lat="45.13193" lon="5.88905">
        <ele>1710.057</ele>
        <time>2021-02-07T11:06:20Z</time>
      </trkpt>
      <trkpt lat="45.13214" lon="5.88937">
        <ele>1710.463</ele>
        <time>2021-02-07T11:06:25Z</time>
      </trkpt>
      <trkpt lat="45.13214" lon="5.88938">
        <ele>1710.278</ele>
        <time>2021-02-07T11:06:30Z</time>
      </trkpt>
      <trkpt lat="45.13214" lon="5.88939">
        <ele>1710.155</ele>
        <time>2021-02-07T11:06:35Z</time>
      </trkpt>
      <trkpt lat="45.13214" lon="5.88939">
        <ele>1709.92</ele>
        <time>2021-02-07T11:06:55Z</time>
      </trkpt>
      <trkpt lat="45.13214" lon="5.88939">
        <ele>1709.913</ele>
        <time>2021-02-07T11:07:15Z</time>
      </trkpt>
      <trkpt lat="45.13214" lon="5.88937">
        <ele>1708.497</ele>
        <time>2021-02-07T11:07:25Z</time>
      </trkpt>
      <trkpt lat="45.13214" lon="5.88938">
        <ele>1710.643</ele>
        <time>2021-02-07T11:07:40Z</time>
      </trkpt>
      <trkpt lat="45.13213" lon="5.88937">
        <ele>1710.48</ele>
        <time>2021-02-07T11:07:45Z</time>
      </trkpt>
      <trkpt lat="45.13213" lon="5.88936">
        <ele>1709.754</ele>
        <time>2021-02-07T11:07:50Z</time>
      </trkpt>
      <trkpt lat="45.13213" lon="5.88936">
        <ele>1710.471</ele>
        <time>2021-02-07T11:08:10Z</time>
      </trkpt>
      <trkpt lat="45.13213" lon="5.88937">
        <ele>1708.804</ele>
        <time>2021-02-07T11:08:25Z</time>
      </trkpt>
      <trkpt lat="45.13212" lon="5.88936">
        <ele>1708.541</ele>
        <time>2021-02-07T11:08:30Z</time>
      </trkpt>
      <trkpt lat="45.13212" lon="5.88937">
        <ele>1709.196</ele>
        <time>2021-02-07T11:08:35Z</time>
      </trkpt>
      <trkpt lat="45.13212" lon="5.88937">
        <ele>1709.132</ele>
        <time>2021-02-07T11:08:55Z</time>
      </trkpt>
      <trkpt lat="45.13212" lon="5.88937">
        <ele>1709.079</ele>
        <time>2021-02-07T11:09:15Z</time>
      </trkpt>
      <trkpt lat="45.13212" lon="5.88937">
        <ele>1709.057</ele>
        <time>2021-02-07T11:09:35Z</time>
      </trkpt>
      <trkpt lat="45.13214" lon="5.88938">
        <ele>1710.233</ele>
        <time>2021-02-07T11:09:55Z</time>
      </trkpt>
      <trkpt lat="45.13223" lon="5.88944">
        <ele>1705.973</ele>
        <time>2021-02-07T11:10:00Z</time>
      </trkpt>
      <trkpt lat="45.13239" lon="5.88957">
        <ele>1702.37</ele>
        <time>2021-02-07T11:10:05Z</time>
      </trkpt>
      <trkpt lat="45.13257" lon="5.88988">
        <ele>1699.726</ele>
        <time>2021-02-07T11:10:10Z</time>
      </trkpt>
      <trkpt lat="45.13283" lon="5.89016">
        <ele>1691.51</ele>
        <time>2021-02-07T11:10:15Z</time>
      </trkpt>
      <trkpt lat="45.13322" lon="5.8902">
        <ele>1677.566</ele>
        <time>2021-02-07T11:10:20Z</time>
      </trkpt>
      <trkpt lat="45.13332" lon="5.88985">
        <ele>1671.242</ele>
        <time>2021-02-07T11:10:25Z</time>
      </trkpt>
      <trkpt lat="45.1333" lon="5.88956">
        <ele>1662.487</ele>
        <time>2021-02-07T11:10:30Z</time>
      </trkpt>
      <trkpt lat="45.13329" lon="5.88918">
        <ele>1653.109</ele>
        <time>2021-02-07T11:10:35Z</time>
      </trkpt>
      <trkpt lat="45.13322" lon="5.88884">
        <ele>1646.379</ele>
        <time>2021-02-07T11:10:40Z</time>
      </trkpt>
      <trkpt lat="45.13339" lon="5.88846">
        <ele>1638.263</ele>
        <time>2021-02-07T11:10:45Z</time>
      </trkpt>
      <trkpt lat="45.13341" lon="5.88816">
        <ele>1634.085</ele>
        <time>2021-02-07T11:10:50Z</time>
      </trkpt>
      <trkpt lat="45.13354" lon="5.8878">
        <ele>1622.183</ele>
        <time>2021-02-07T11:10:55Z</time>
      </trkpt>
      <trkpt lat="45.1336" lon="5.88751">
        <ele>1620.225</ele>
        <time>2021-02-07T11:11:00Z</time>
      </trkpt>
      <trkpt lat="45.1336" lon="5.88751">
        <ele>1619.672</ele>
        <time>2021-02-07T11:11:20Z</time>
      </trkpt>
      <trkpt lat="45.13361" lon="5.88751">
        <ele>1620.009</ele>
        <time>2021-02-07T11:11:30Z</time>
      </trkpt>
      <trkpt lat="45.13378" lon="5.88756">
        <ele>1613.706</ele>
        <time>2021-02-07T11:11:35Z</time>
      </trkpt>
      <trkpt lat="45.13404" lon="5.88749">
        <ele>1603.423</ele>
        <time>2021-02-07T11:11:40Z</time>
      </trkpt>
      <trkpt lat="45.13433" lon="5.88747">
        <ele>1590.879</ele>
        <time>2021-02-07T11:11:45Z</time>
      </trkpt>
      <trkpt lat="45.13466" lon="5.88749">
        <ele>1576.751</ele>
        <time>2021-02-07T11:11:50Z</time>
      </trkpt>
      <trkpt lat="45.135" lon="5.88751">
        <ele>1571.401</ele>
        <time>2021-02-07T11:11:55Z</time>
      </trkpt>
      <trkpt lat="45.13536" lon="5.88762">
        <ele>1559.106</ele>
        <time>2021-02-07T11:12:00Z</time>
      </trkpt>
      <trkpt lat="45.13564" lon="5.8876">
        <ele>1550.336</ele>
        <time>2021-02-07T11:12:05Z</time>
      </trkpt>
      <trkpt lat="45.13597" lon="5.88762">
        <ele>1538.598</ele>
        <time>2021-02-07T11:12:10Z</time>
      </trkpt>
      <trkpt lat="45.13635" lon="5.88773">
        <ele>1527.547</ele>
        <time>2021-02-07T11:12:15Z</time>
      </trkpt>
      <trkpt lat="45.13669" lon="5.8877">
        <ele>1515.79</ele>
        <time>2021-02-07T11:12:20Z</time>
      </trkpt>
      <trkpt lat="45.13702" lon="5.8876">
        <ele>1508.412</ele>
        <time>2021-02-07T11:12:25Z</time>
      </trkpt>
      <trkpt lat="45.13732" lon="5.88756">
        <ele>1501.106</ele>
        <time>2021-02-07T11:12:30Z</time>
      </trkpt>
      <trkpt lat="45.13759" lon="5.88754">
        <ele>1489.429</ele>
        <time>2021-02-07T11:12:35Z</time>
      </trkpt>
      <trkpt lat="45.13782" lon="5.88781">
        <ele>1479.958</ele>
        <time>2021-02-07T11:12:40Z</time>
      </trkpt>
      <trkpt lat="45.13821" lon="5.88781">
        <ele>1466.749</ele>
        <time>2021-02-07T11:12:45Z</time>
      </trkpt>
      <trkpt lat="45.13861" lon="5.88781">
        <ele>1457.615</ele>
        <time>2021-02-07T11:12:50Z</time>
      </trkpt>
      <trkpt lat="45.139" lon="5.88777">
        <ele>1443.719</ele>
        <time>2021-02-07T11:12:55Z</time>
      </trkpt>
      <trkpt lat="45.13934" lon="5.88765">
        <ele>1434.938</ele>
        <time>2021-02-07T11:13:00Z</time>
      </trkpt>
      <trkpt lat="45.13969" lon="5.88763">
        <ele>1427.031</ele>
        <time>2021-02-07T11:13:05Z</time>
      </trkpt>
      <trkpt lat="45.14" lon="5.88785">
        <ele>1420.637</ele>
        <time>2021-02-07T11:13:10Z</time>
      </trkpt>
      <trkpt lat="45.14006" lon="5.88799">
        <ele>1415.002</ele>
        <time>2021-02-07T11:13:15Z</time>
      </trkpt>
      <trkpt lat="45.14005" lon="5.88798">
        <ele>1414.275</ele>
        <time>2021-02-07T11:13:25Z</time>
      </trkpt>
      <trkpt lat="45.14003" lon="5.88796">
        <ele>1414.639</ele>
        <time>2021-02-07T11:13:30Z</time>
      </trkpt>
      <trkpt lat="45.14002" lon="5.88795">
        <ele>1414.916</ele>
        <time>2021-02-07T11:13:35Z</time>
      </trkpt>
      <trkpt lat="45.14003" lon="5.88794">
        <ele>1419.191</ele>
        <time>2021-02-07T11:13:45Z</time>
      </trkpt>
      <trkpt lat="45.14002" lon="5.88794">
        <ele>1418.771</ele>
        <time>2021-02-07T11:14:00Z</time>
      </trkpt>
      <trkpt lat="45.14002" lon="5.88795">
        <ele>1416.299</ele>
        <time>2021-02-07T11:14:05Z</time>
      </trkpt>
      <trkpt lat="45.14002" lon="5.88796">
        <ele>1416.737</ele>
        <time>2021-02-07T11:14:10Z</time>
      </trkpt>
      <trkpt lat="45.14001" lon="5.88795">
        <ele>1416.521</ele>
        <time>2021-02-07T11:14:30Z</time>
      </trkpt>
      <trkpt lat="45.14001" lon="5.88796">
        <ele>1416.363</ele>
        <time>2021-02-07T11:14:45Z</time>
      </trkpt>
      <trkpt lat="45.14" lon="5.88797">
        <ele>1415.788</ele>
        <time>2021-02-07T11:14:55Z</time>
      </trkpt>
      <trkpt lat="45.13999" lon="5.88798">
        <ele>1415.607</ele>
        <time>2021-02-07T11:15:00Z</time>
      </trkpt>
      <trkpt lat="45.13998" lon="5.88798">
        <ele>1414.449</ele>
        <time>2021-02-07T11:15:05Z</time>
      </trkpt>
      <trkpt lat="45.13998" lon="5.88798">
        <ele>1413.854</ele>
        <time>2021-02-07T11:15:25Z</time>
      </trkpt>
      <trkpt lat="45.13997" lon="5.88798">
        <ele>1413.828</ele>
        <time>2021-02-07T11:15:30Z</time>
      </trkpt>
      <trkpt lat="45.13998" lon="5.88798">
        <ele>1414.196</ele>
        <time>2021-02-07T11:15:50Z</time>
      </trkpt>
      <trkpt lat="45.13999" lon="5.88798">
        <ele>1415.249</ele>
        <time>2021-02-07T11:15:55Z</time>
      </trkpt>
      <trkpt lat="45.13999" lon="5.88798">
        <ele>1415.561</ele>
        <time>2021-02-07T11:16:15Z</time>
      </trkpt>
      <trkpt lat="45.13999" lon="5.88797">
        <ele>1415.036</ele>
        <time>2021-02-07T11:16:35Z</time>
      </trkpt>
      <trkpt lat="45.14" lon="5.88797">
        <ele>1414.939</ele>
        <time>2021-02-07T11:16:40Z</time>
      </trkpt>
      <trkpt lat="45.13999" lon="5.88797">
        <ele>1415.565</ele>
        <time>2021-02-07T11:16:45Z</time>
      </trkpt>
    </trkseg>
  </trk>
</gpx>